<?xml version="1.0" encoding="UTF-8" standalone="no" ?>
<gpx xmlns="http://www.topografix.com/GPX/1/1" xmlns:xsi="http://www.w3.org/2001/XMLSchema-instance" xsi:schemaLocation="http://www.topografix.com/GPX/1/1 http://www.topografix.com/GPX/1/1/gpx.xsd" version="1.1" creator="VisuGPX - https://www.visugpx.com">
  <metadata>
    <name>-Digne - Verdaches 5éme étape</name>
    <desc><![CDATA[09.08.2018]]></desc>
  </metadata>
  <trk>
    <name><![CDATA[9058448-Digne - Verdaches 5éme étape]]></name>
    <extensions>
      <line xmlns="http://www.topografix.com/GPX/gpx_style/0/2">
        <color>0000FF</color>
        <width>4</width>
      </line>
    </extensions>
    <trkseg>
      <trkpt lat="44.08373" lon="6.21619">
        <ele>582</ele>
        <time>2022-06-08T20:42:29Z</time>
      </trkpt>
      <trkpt lat="44.08381" lon="6.21624">
        <ele>582</ele>
        <time>2022-06-08T20:42:31Z</time>
      </trkpt>
      <trkpt lat="44.0838" lon="6.21628">
        <ele>582</ele>
        <time>2022-06-08T20:42:32Z</time>
      </trkpt>
      <trkpt lat="44.08391" lon="6.21636">
        <ele>583</ele>
        <time>2022-06-08T20:42:35Z</time>
      </trkpt>
      <trkpt lat="44.08393" lon="6.2163">
        <ele>583</ele>
        <time>2022-06-08T20:42:36Z</time>
      </trkpt>
      <trkpt lat="44.08397" lon="6.21634">
        <ele>583</ele>
        <time>2022-06-08T20:42:37Z</time>
      </trkpt>
      <trkpt lat="44.084" lon="6.21633">
        <ele>583</ele>
        <time>2022-06-08T20:42:38Z</time>
      </trkpt>
      <trkpt lat="44.08392" lon="6.21632">
        <ele>583</ele>
        <time>2022-06-08T20:42:40Z</time>
      </trkpt>
      <trkpt lat="44.08395" lon="6.21632">
        <ele>583</ele>
        <time>2022-06-08T20:42:40Z</time>
      </trkpt>
      <trkpt lat="44.08397" lon="6.21641">
        <ele>583</ele>
        <time>2022-06-08T20:42:42Z</time>
      </trkpt>
      <trkpt lat="44.08393" lon="6.21639">
        <ele>583</ele>
        <time>2022-06-08T20:42:43Z</time>
      </trkpt>
      <trkpt lat="44.08394" lon="6.21649">
        <ele>583</ele>
        <time>2022-06-08T20:42:44Z</time>
      </trkpt>
      <trkpt lat="44.08386" lon="6.2169">
        <ele>582</ele>
        <time>2022-06-08T20:42:52Z</time>
      </trkpt>
      <trkpt lat="44.08366" lon="6.21719">
        <ele>581</ele>
        <time>2022-06-08T20:42:58Z</time>
      </trkpt>
      <trkpt lat="44.08333" lon="6.21745">
        <ele>581</ele>
        <time>2022-06-08T20:43:07Z</time>
      </trkpt>
      <trkpt lat="44.08331" lon="6.21749">
        <ele>581</ele>
        <time>2022-06-08T20:43:08Z</time>
      </trkpt>
      <trkpt lat="44.08276" lon="6.21744">
        <ele>580</ele>
        <time>2022-06-08T20:43:21Z</time>
      </trkpt>
      <trkpt lat="44.08272" lon="6.21788">
        <ele>579</ele>
        <time>2022-06-08T20:43:28Z</time>
      </trkpt>
      <trkpt lat="44.08259" lon="6.21809">
        <ele>579</ele>
        <time>2022-06-08T20:43:33Z</time>
      </trkpt>
      <trkpt lat="44.08283" lon="6.2188">
        <ele>580</ele>
        <time>2022-06-08T20:43:46Z</time>
      </trkpt>
      <trkpt lat="44.08342" lon="6.22024">
        <ele>580</ele>
        <time>2022-06-08T20:44:14Z</time>
      </trkpt>
      <trkpt lat="44.08525" lon="6.22377">
        <ele>584</ele>
        <time>2022-06-08T20:45:27Z</time>
      </trkpt>
      <trkpt lat="44.08546" lon="6.22424">
        <ele>584</ele>
        <time>2022-06-08T20:45:36Z</time>
      </trkpt>
      <trkpt lat="44.08601" lon="6.22501">
        <ele>582</ele>
        <time>2022-06-08T20:45:54Z</time>
      </trkpt>
      <trkpt lat="44.0866" lon="6.22561">
        <ele>583</ele>
        <time>2022-06-08T20:46:12Z</time>
      </trkpt>
      <trkpt lat="44.08734" lon="6.22617">
        <ele>585</ele>
        <time>2022-06-08T20:46:31Z</time>
      </trkpt>
      <trkpt lat="44.08816" lon="6.2269">
        <ele>587</ele>
        <time>2022-06-08T20:46:54Z</time>
      </trkpt>
      <trkpt lat="44.0891" lon="6.22768">
        <ele>592</ele>
        <time>2022-06-08T20:47:20Z</time>
      </trkpt>
      <trkpt lat="44.08937" lon="6.22795">
        <ele>593</ele>
        <time>2022-06-08T20:47:27Z</time>
      </trkpt>
      <trkpt lat="44.08944" lon="6.22822">
        <ele>592</ele>
        <time>2022-06-08T20:47:32Z</time>
      </trkpt>
      <trkpt lat="44.08929" lon="6.22969">
        <ele>591</ele>
        <time>2022-06-08T20:47:57Z</time>
      </trkpt>
      <trkpt lat="44.08933" lon="6.22972">
        <ele>591</ele>
        <time>2022-06-08T20:47:58Z</time>
      </trkpt>
      <trkpt lat="44.08948" lon="6.23016">
        <ele>593</ele>
        <time>2022-06-08T20:48:06Z</time>
      </trkpt>
      <trkpt lat="44.0907" lon="6.23117">
        <ele>594</ele>
        <time>2022-06-08T20:48:39Z</time>
      </trkpt>
      <trkpt lat="44.09091" lon="6.23168">
        <ele>595</ele>
        <time>2022-06-08T20:48:49Z</time>
      </trkpt>
      <trkpt lat="44.09097" lon="6.23171">
        <ele>595</ele>
        <time>2022-06-08T20:48:51Z</time>
      </trkpt>
      <trkpt lat="44.09112" lon="6.23173">
        <ele>596</ele>
        <time>2022-06-08T20:48:54Z</time>
      </trkpt>
      <trkpt lat="44.09117" lon="6.23177">
        <ele>596</ele>
        <time>2022-06-08T20:48:56Z</time>
      </trkpt>
      <trkpt lat="44.09144" lon="6.23216">
        <ele>597</ele>
        <time>2022-06-08T20:49:05Z</time>
      </trkpt>
      <trkpt lat="44.09151" lon="6.23221">
        <ele>598</ele>
        <time>2022-06-08T20:49:06Z</time>
      </trkpt>
      <trkpt lat="44.09147" lon="6.23235">
        <ele>598</ele>
        <time>2022-06-08T20:49:09Z</time>
      </trkpt>
      <trkpt lat="44.09138" lon="6.23242">
        <ele>597</ele>
        <time>2022-06-08T20:49:11Z</time>
      </trkpt>
      <trkpt lat="44.09136" lon="6.23241">
        <ele>597</ele>
        <time>2022-06-08T20:49:12Z</time>
      </trkpt>
      <trkpt lat="44.09137" lon="6.23258">
        <ele>598</ele>
        <time>2022-06-08T20:49:15Z</time>
      </trkpt>
      <trkpt lat="44.09133" lon="6.2326">
        <ele>598</ele>
        <time>2022-06-08T20:49:16Z</time>
      </trkpt>
      <trkpt lat="44.0912" lon="6.23207">
        <ele>596</ele>
        <time>2022-06-08T20:49:25Z</time>
      </trkpt>
      <trkpt lat="44.09108" lon="6.23177">
        <ele>596</ele>
        <time>2022-06-08T20:49:31Z</time>
      </trkpt>
      <trkpt lat="44.09096" lon="6.23174">
        <ele>595</ele>
        <time>2022-06-08T20:49:34Z</time>
      </trkpt>
      <trkpt lat="44.09066" lon="6.23307">
        <ele>596</ele>
        <time>2022-06-08T20:49:57Z</time>
      </trkpt>
      <trkpt lat="44.09053" lon="6.23391">
        <ele>598</ele>
        <time>2022-06-08T20:50:12Z</time>
      </trkpt>
      <trkpt lat="44.09051" lon="6.23464">
        <ele>599</ele>
        <time>2022-06-08T20:50:24Z</time>
      </trkpt>
      <trkpt lat="44.09042" lon="6.23552">
        <ele>602</ele>
        <time>2022-06-08T20:50:39Z</time>
      </trkpt>
      <trkpt lat="44.09022" lon="6.23644">
        <ele>601</ele>
        <time>2022-06-08T20:50:55Z</time>
      </trkpt>
      <trkpt lat="44.09002" lon="6.23694">
        <ele>600</ele>
        <time>2022-06-08T20:51:04Z</time>
      </trkpt>
      <trkpt lat="44.09006" lon="6.23718">
        <ele>600</ele>
        <time>2022-06-08T20:51:09Z</time>
      </trkpt>
      <trkpt lat="44.08974" lon="6.23874">
        <ele>602</ele>
        <time>2022-06-08T20:51:36Z</time>
      </trkpt>
      <trkpt lat="44.08966" lon="6.23967">
        <ele>606</ele>
        <time>2022-06-08T20:51:52Z</time>
      </trkpt>
      <trkpt lat="44.08968" lon="6.23995">
        <ele>607</ele>
        <time>2022-06-08T20:51:56Z</time>
      </trkpt>
      <trkpt lat="44.08999" lon="6.24086">
        <ele>604</ele>
        <time>2022-06-08T20:52:13Z</time>
      </trkpt>
      <trkpt lat="44.09116" lon="6.24328">
        <ele>618</ele>
        <time>2022-06-08T20:53:02Z</time>
      </trkpt>
      <trkpt lat="44.09117" lon="6.24376">
        <ele>621</ele>
        <time>2022-06-08T20:53:10Z</time>
      </trkpt>
      <trkpt lat="44.09134" lon="6.24464">
        <ele>628</ele>
        <time>2022-06-08T20:53:25Z</time>
      </trkpt>
      <trkpt lat="44.09143" lon="6.24525">
        <ele>629</ele>
        <time>2022-06-08T20:53:36Z</time>
      </trkpt>
      <trkpt lat="44.0915" lon="6.24604">
        <ele>630</ele>
        <time>2022-06-08T20:53:49Z</time>
      </trkpt>
      <trkpt lat="44.09132" lon="6.24699">
        <ele>632</ele>
        <time>2022-06-08T20:54:06Z</time>
      </trkpt>
      <trkpt lat="44.091" lon="6.24802">
        <ele>630</ele>
        <time>2022-06-08T20:54:25Z</time>
      </trkpt>
      <trkpt lat="44.09084" lon="6.24833">
        <ele>626</ele>
        <time>2022-06-08T20:54:31Z</time>
      </trkpt>
      <trkpt lat="44.09044" lon="6.24895">
        <ele>633</ele>
        <time>2022-06-08T20:54:45Z</time>
      </trkpt>
      <trkpt lat="44.09012" lon="6.24952">
        <ele>627</ele>
        <time>2022-06-08T20:54:57Z</time>
      </trkpt>
      <trkpt lat="44.0899" lon="6.2502">
        <ele>628</ele>
        <time>2022-06-08T20:55:10Z</time>
      </trkpt>
      <trkpt lat="44.08975" lon="6.25069">
        <ele>633</ele>
        <time>2022-06-08T20:55:18Z</time>
      </trkpt>
      <trkpt lat="44.08942" lon="6.25214">
        <ele>635</ele>
        <time>2022-06-08T20:55:44Z</time>
      </trkpt>
      <trkpt lat="44.08936" lon="6.25287">
        <ele>636</ele>
        <time>2022-06-08T20:55:56Z</time>
      </trkpt>
      <trkpt lat="44.08933" lon="6.25373">
        <ele>634</ele>
        <time>2022-06-08T20:56:11Z</time>
      </trkpt>
      <trkpt lat="44.08933" lon="6.25406">
        <ele>633</ele>
        <time>2022-06-08T20:56:16Z</time>
      </trkpt>
      <trkpt lat="44.08936" lon="6.25425">
        <ele>634</ele>
        <time>2022-06-08T20:56:20Z</time>
      </trkpt>
      <trkpt lat="44.08946" lon="6.25446">
        <ele>636</ele>
        <time>2022-06-08T20:56:24Z</time>
      </trkpt>
      <trkpt lat="44.09018" lon="6.25553">
        <ele>638</ele>
        <time>2022-06-08T20:56:48Z</time>
      </trkpt>
      <trkpt lat="44.0903" lon="6.25612">
        <ele>635</ele>
        <time>2022-06-08T20:56:59Z</time>
      </trkpt>
      <trkpt lat="44.0904" lon="6.2568">
        <ele>637</ele>
        <time>2022-06-08T20:57:10Z</time>
      </trkpt>
      <trkpt lat="44.09066" lon="6.25735">
        <ele>642</ele>
        <time>2022-06-08T20:57:21Z</time>
      </trkpt>
      <trkpt lat="44.09065" lon="6.25828">
        <ele>641</ele>
        <time>2022-06-08T20:57:37Z</time>
      </trkpt>
      <trkpt lat="44.09045" lon="6.25899">
        <ele>639</ele>
        <time>2022-06-08T20:57:50Z</time>
      </trkpt>
      <trkpt lat="44.09028" lon="6.25924">
        <ele>635</ele>
        <time>2022-06-08T20:57:56Z</time>
      </trkpt>
      <trkpt lat="44.09" lon="6.25973">
        <ele>631</ele>
        <time>2022-06-08T20:58:06Z</time>
      </trkpt>
      <trkpt lat="44.08959" lon="6.26123">
        <ele>632</ele>
        <time>2022-06-08T20:58:33Z</time>
      </trkpt>
      <trkpt lat="44.08951" lon="6.26136">
        <ele>632</ele>
        <time>2022-06-08T20:58:36Z</time>
      </trkpt>
      <trkpt lat="44.08901" lon="6.26199">
        <ele>635</ele>
        <time>2022-06-08T20:58:52Z</time>
      </trkpt>
      <trkpt lat="44.08875" lon="6.26258">
        <ele>634</ele>
        <time>2022-06-08T20:59:03Z</time>
      </trkpt>
      <trkpt lat="44.08851" lon="6.26344">
        <ele>634</ele>
        <time>2022-06-08T20:59:19Z</time>
      </trkpt>
      <trkpt lat="44.08849" lon="6.26361">
        <ele>634</ele>
        <time>2022-06-08T20:59:22Z</time>
      </trkpt>
      <trkpt lat="44.08856" lon="6.26437">
        <ele>634</ele>
        <time>2022-06-08T20:59:34Z</time>
      </trkpt>
      <trkpt lat="44.08915" lon="6.26631">
        <ele>635</ele>
        <time>2022-06-08T21:00:10Z</time>
      </trkpt>
      <trkpt lat="44.08948" lon="6.26723">
        <ele>642</ele>
        <time>2022-06-08T21:00:27Z</time>
      </trkpt>
      <trkpt lat="44.08991" lon="6.26818">
        <ele>648</ele>
        <time>2022-06-08T21:00:46Z</time>
      </trkpt>
      <trkpt lat="44.09031" lon="6.26894">
        <ele>650</ele>
        <time>2022-06-08T21:01:02Z</time>
      </trkpt>
      <trkpt lat="44.09037" lon="6.26916">
        <ele>648</ele>
        <time>2022-06-08T21:01:06Z</time>
      </trkpt>
      <trkpt lat="44.09047" lon="6.2711">
        <ele>644</ele>
        <time>2022-06-08T21:01:38Z</time>
      </trkpt>
      <trkpt lat="44.09033" lon="6.27181">
        <ele>645</ele>
        <time>2022-06-08T21:01:51Z</time>
      </trkpt>
      <trkpt lat="44.09038" lon="6.27192">
        <ele>645</ele>
        <time>2022-06-08T21:01:53Z</time>
      </trkpt>
      <trkpt lat="44.09045" lon="6.27199">
        <ele>646</ele>
        <time>2022-06-08T21:01:55Z</time>
      </trkpt>
      <trkpt lat="44.09081" lon="6.27252">
        <ele>647</ele>
        <time>2022-06-08T21:02:07Z</time>
      </trkpt>
      <trkpt lat="44.09108" lon="6.27274">
        <ele>648</ele>
        <time>2022-06-08T21:02:14Z</time>
      </trkpt>
      <trkpt lat="44.09138" lon="6.27315">
        <ele>648</ele>
        <time>2022-06-08T21:02:24Z</time>
      </trkpt>
      <trkpt lat="44.09147" lon="6.27322">
        <ele>649</ele>
        <time>2022-06-08T21:02:26Z</time>
      </trkpt>
      <trkpt lat="44.09135" lon="6.27312">
        <ele>648</ele>
        <time>2022-06-08T21:02:30Z</time>
      </trkpt>
      <trkpt lat="44.09136" lon="6.27307">
        <ele>648</ele>
        <time>2022-06-08T21:02:31Z</time>
      </trkpt>
      <trkpt lat="44.09164" lon="6.27314">
        <ele>649</ele>
        <time>2022-06-08T21:02:37Z</time>
      </trkpt>
      <trkpt lat="44.0925" lon="6.27292">
        <ele>651</ele>
        <time>2022-06-08T21:02:58Z</time>
      </trkpt>
      <trkpt lat="44.09331" lon="6.27293">
        <ele>655</ele>
        <time>2022-06-08T21:03:17Z</time>
      </trkpt>
      <trkpt lat="44.0941" lon="6.27334">
        <ele>658</ele>
        <time>2022-06-08T21:03:36Z</time>
      </trkpt>
      <trkpt lat="44.09449" lon="6.2736">
        <ele>664</ele>
        <time>2022-06-08T21:03:46Z</time>
      </trkpt>
      <trkpt lat="44.09453" lon="6.2737">
        <ele>665</ele>
        <time>2022-06-08T21:03:48Z</time>
      </trkpt>
      <trkpt lat="44.0945" lon="6.27409">
        <ele>666</ele>
        <time>2022-06-08T21:03:55Z</time>
      </trkpt>
      <trkpt lat="44.09453" lon="6.27417">
        <ele>666</ele>
        <time>2022-06-08T21:03:56Z</time>
      </trkpt>
      <trkpt lat="44.09475" lon="6.27438">
        <ele>673</ele>
        <time>2022-06-08T21:04:03Z</time>
      </trkpt>
      <trkpt lat="44.09516" lon="6.27437">
        <ele>673</ele>
        <time>2022-06-08T21:04:12Z</time>
      </trkpt>
      <trkpt lat="44.09537" lon="6.27443">
        <ele>676</ele>
        <time>2022-06-08T21:04:17Z</time>
      </trkpt>
      <trkpt lat="44.09561" lon="6.27459">
        <ele>678</ele>
        <time>2022-06-08T21:04:23Z</time>
      </trkpt>
      <trkpt lat="44.09597" lon="6.27473">
        <ele>679</ele>
        <time>2022-06-08T21:04:32Z</time>
      </trkpt>
      <trkpt lat="44.09611" lon="6.27483">
        <ele>679</ele>
        <time>2022-06-08T21:04:36Z</time>
      </trkpt>
      <trkpt lat="44.09637" lon="6.27491">
        <ele>678</ele>
        <time>2022-06-08T21:04:42Z</time>
      </trkpt>
      <trkpt lat="44.09646" lon="6.27491">
        <ele>677</ele>
        <time>2022-06-08T21:04:44Z</time>
      </trkpt>
      <trkpt lat="44.09663" lon="6.27483">
        <ele>678</ele>
        <time>2022-06-08T21:04:48Z</time>
      </trkpt>
      <trkpt lat="44.09692" lon="6.27482">
        <ele>681</ele>
        <time>2022-06-08T21:04:55Z</time>
      </trkpt>
      <trkpt lat="44.09728" lon="6.2753">
        <ele>682</ele>
        <time>2022-06-08T21:05:07Z</time>
      </trkpt>
      <trkpt lat="44.09755" lon="6.27557">
        <ele>681</ele>
        <time>2022-06-08T21:05:15Z</time>
      </trkpt>
      <trkpt lat="44.0976" lon="6.27565">
        <ele>681</ele>
        <time>2022-06-08T21:05:16Z</time>
      </trkpt>
      <trkpt lat="44.09784" lon="6.27585">
        <ele>681</ele>
        <time>2022-06-08T21:05:23Z</time>
      </trkpt>
      <trkpt lat="44.09814" lon="6.27601">
        <ele>682</ele>
        <time>2022-06-08T21:05:30Z</time>
      </trkpt>
      <trkpt lat="44.09835" lon="6.27601">
        <ele>681</ele>
        <time>2022-06-08T21:05:35Z</time>
      </trkpt>
      <trkpt lat="44.09856" lon="6.27615">
        <ele>684</ele>
        <time>2022-06-08T21:05:41Z</time>
      </trkpt>
      <trkpt lat="44.09871" lon="6.27609">
        <ele>685</ele>
        <time>2022-06-08T21:05:44Z</time>
      </trkpt>
      <trkpt lat="44.09889" lon="6.27624">
        <ele>685</ele>
        <time>2022-06-08T21:05:49Z</time>
      </trkpt>
      <trkpt lat="44.09909" lon="6.27632">
        <ele>685</ele>
        <time>2022-06-08T21:05:54Z</time>
      </trkpt>
      <trkpt lat="44.09918" lon="6.27645">
        <ele>684</ele>
        <time>2022-06-08T21:05:57Z</time>
      </trkpt>
      <trkpt lat="44.09968" lon="6.2768">
        <ele>688</ele>
        <time>2022-06-08T21:06:10Z</time>
      </trkpt>
      <trkpt lat="44.0998" lon="6.27696">
        <ele>689</ele>
        <time>2022-06-08T21:06:14Z</time>
      </trkpt>
      <trkpt lat="44.09992" lon="6.27734">
        <ele>689</ele>
        <time>2022-06-08T21:06:21Z</time>
      </trkpt>
      <trkpt lat="44.1001" lon="6.27757">
        <ele>689</ele>
        <time>2022-06-08T21:06:27Z</time>
      </trkpt>
      <trkpt lat="44.10039" lon="6.27772">
        <ele>692</ele>
        <time>2022-06-08T21:06:34Z</time>
      </trkpt>
      <trkpt lat="44.10058" lon="6.27775">
        <ele>692</ele>
        <time>2022-06-08T21:06:38Z</time>
      </trkpt>
      <trkpt lat="44.10064" lon="6.27778">
        <ele>692</ele>
        <time>2022-06-08T21:06:40Z</time>
      </trkpt>
      <trkpt lat="44.1007" lon="6.27787">
        <ele>692</ele>
        <time>2022-06-08T21:06:42Z</time>
      </trkpt>
      <trkpt lat="44.1008" lon="6.27794">
        <ele>692</ele>
        <time>2022-06-08T21:06:45Z</time>
      </trkpt>
      <trkpt lat="44.10085" lon="6.27792">
        <ele>692</ele>
        <time>2022-06-08T21:06:46Z</time>
      </trkpt>
      <trkpt lat="44.10095" lon="6.27795">
        <ele>693</ele>
        <time>2022-06-08T21:06:48Z</time>
      </trkpt>
      <trkpt lat="44.10103" lon="6.27824">
        <ele>692</ele>
        <time>2022-06-08T21:06:53Z</time>
      </trkpt>
      <trkpt lat="44.10104" lon="6.27836">
        <ele>692</ele>
        <time>2022-06-08T21:06:55Z</time>
      </trkpt>
      <trkpt lat="44.10108" lon="6.27845">
        <ele>693</ele>
        <time>2022-06-08T21:06:57Z</time>
      </trkpt>
      <trkpt lat="44.10119" lon="6.27853">
        <ele>694</ele>
        <time>2022-06-08T21:07:00Z</time>
      </trkpt>
      <trkpt lat="44.10132" lon="6.27877">
        <ele>695</ele>
        <time>2022-06-08T21:07:05Z</time>
      </trkpt>
      <trkpt lat="44.1014" lon="6.27885">
        <ele>694</ele>
        <time>2022-06-08T21:07:07Z</time>
      </trkpt>
      <trkpt lat="44.10148" lon="6.27888">
        <ele>694</ele>
        <time>2022-06-08T21:07:09Z</time>
      </trkpt>
      <trkpt lat="44.10191" lon="6.27891">
        <ele>695</ele>
        <time>2022-06-08T21:07:19Z</time>
      </trkpt>
      <trkpt lat="44.10196" lon="6.27896">
        <ele>695</ele>
        <time>2022-06-08T21:07:21Z</time>
      </trkpt>
      <trkpt lat="44.10218" lon="6.27908">
        <ele>697</ele>
        <time>2022-06-08T21:07:26Z</time>
      </trkpt>
      <trkpt lat="44.10234" lon="6.27907">
        <ele>699</ele>
        <time>2022-06-08T21:07:30Z</time>
      </trkpt>
      <trkpt lat="44.10244" lon="6.27915">
        <ele>699</ele>
        <time>2022-06-08T21:07:33Z</time>
      </trkpt>
      <trkpt lat="44.1025" lon="6.27916">
        <ele>699</ele>
        <time>2022-06-08T21:07:34Z</time>
      </trkpt>
      <trkpt lat="44.10253" lon="6.27921">
        <ele>699</ele>
        <time>2022-06-08T21:07:35Z</time>
      </trkpt>
      <trkpt lat="44.10266" lon="6.27925">
        <ele>701</ele>
        <time>2022-06-08T21:07:38Z</time>
      </trkpt>
      <trkpt lat="44.10275" lon="6.27932">
        <ele>703</ele>
        <time>2022-06-08T21:07:41Z</time>
      </trkpt>
      <trkpt lat="44.10287" lon="6.27947">
        <ele>705</ele>
        <time>2022-06-08T21:07:45Z</time>
      </trkpt>
      <trkpt lat="44.10301" lon="6.27955">
        <ele>708</ele>
        <time>2022-06-08T21:07:48Z</time>
      </trkpt>
      <trkpt lat="44.10327" lon="6.27958">
        <ele>713</ele>
        <time>2022-06-08T21:07:54Z</time>
      </trkpt>
      <trkpt lat="44.10339" lon="6.27955">
        <ele>715</ele>
        <time>2022-06-08T21:07:57Z</time>
      </trkpt>
      <trkpt lat="44.1036" lon="6.27949">
        <ele>718</ele>
        <time>2022-06-08T21:08:02Z</time>
      </trkpt>
      <trkpt lat="44.10412" lon="6.27925">
        <ele>725</ele>
        <time>2022-06-08T21:08:15Z</time>
      </trkpt>
      <trkpt lat="44.10429" lon="6.27937">
        <ele>727</ele>
        <time>2022-06-08T21:08:19Z</time>
      </trkpt>
      <trkpt lat="44.10441" lon="6.27935">
        <ele>728</ele>
        <time>2022-06-08T21:08:22Z</time>
      </trkpt>
      <trkpt lat="44.1046" lon="6.27946">
        <ele>730</ele>
        <time>2022-06-08T21:08:27Z</time>
      </trkpt>
      <trkpt lat="44.10492" lon="6.27954">
        <ele>733</ele>
        <time>2022-06-08T21:08:35Z</time>
      </trkpt>
      <trkpt lat="44.1052" lon="6.27956">
        <ele>735</ele>
        <time>2022-06-08T21:08:41Z</time>
      </trkpt>
      <trkpt lat="44.10536" lon="6.27967">
        <ele>737</ele>
        <time>2022-06-08T21:08:45Z</time>
      </trkpt>
      <trkpt lat="44.10553" lon="6.27968">
        <ele>739</ele>
        <time>2022-06-08T21:08:49Z</time>
      </trkpt>
      <trkpt lat="44.10566" lon="6.27999">
        <ele>744</ele>
        <time>2022-06-08T21:08:55Z</time>
      </trkpt>
      <trkpt lat="44.10585" lon="6.28007">
        <ele>746</ele>
        <time>2022-06-08T21:09:00Z</time>
      </trkpt>
      <trkpt lat="44.10596" lon="6.28017">
        <ele>747</ele>
        <time>2022-06-08T21:09:03Z</time>
      </trkpt>
      <trkpt lat="44.10632" lon="6.28021">
        <ele>751</ele>
        <time>2022-06-08T21:09:11Z</time>
      </trkpt>
      <trkpt lat="44.10645" lon="6.28013">
        <ele>753</ele>
        <time>2022-06-08T21:09:15Z</time>
      </trkpt>
      <trkpt lat="44.10658" lon="6.28014">
        <ele>754</ele>
        <time>2022-06-08T21:09:18Z</time>
      </trkpt>
      <trkpt lat="44.10694" lon="6.28031">
        <ele>757</ele>
        <time>2022-06-08T21:09:27Z</time>
      </trkpt>
      <trkpt lat="44.10704" lon="6.28044">
        <ele>758</ele>
        <time>2022-06-08T21:09:30Z</time>
      </trkpt>
      <trkpt lat="44.10732" lon="6.28095">
        <ele>761</ele>
        <time>2022-06-08T21:09:41Z</time>
      </trkpt>
      <trkpt lat="44.10745" lon="6.28098">
        <ele>762</ele>
        <time>2022-06-08T21:09:44Z</time>
      </trkpt>
      <trkpt lat="44.10775" lon="6.28115">
        <ele>766</ele>
        <time>2022-06-08T21:09:51Z</time>
      </trkpt>
      <trkpt lat="44.10807" lon="6.28144">
        <ele>774</ele>
        <time>2022-06-08T21:10:00Z</time>
      </trkpt>
      <trkpt lat="44.10842" lon="6.28204">
        <ele>784</ele>
        <time>2022-06-08T21:10:13Z</time>
      </trkpt>
      <trkpt lat="44.10854" lon="6.28209">
        <ele>786</ele>
        <time>2022-06-08T21:10:16Z</time>
      </trkpt>
      <trkpt lat="44.10858" lon="6.28214">
        <ele>787</ele>
        <time>2022-06-08T21:10:17Z</time>
      </trkpt>
      <trkpt lat="44.10898" lon="6.28232">
        <ele>797</ele>
        <time>2022-06-08T21:10:27Z</time>
      </trkpt>
      <trkpt lat="44.10909" lon="6.28243">
        <ele>800</ele>
        <time>2022-06-08T21:10:30Z</time>
      </trkpt>
      <trkpt lat="44.1092" lon="6.28248">
        <ele>804</ele>
        <time>2022-06-08T21:10:33Z</time>
      </trkpt>
      <trkpt lat="44.10941" lon="6.28252">
        <ele>808</ele>
        <time>2022-06-08T21:10:38Z</time>
      </trkpt>
      <trkpt lat="44.1095" lon="6.28242">
        <ele>809</ele>
        <time>2022-06-08T21:10:41Z</time>
      </trkpt>
      <trkpt lat="44.10974" lon="6.28237">
        <ele>814</ele>
        <time>2022-06-08T21:10:46Z</time>
      </trkpt>
      <trkpt lat="44.10997" lon="6.2825">
        <ele>820</ele>
        <time>2022-06-08T21:10:52Z</time>
      </trkpt>
      <trkpt lat="44.11016" lon="6.28256">
        <ele>821</ele>
        <time>2022-06-08T21:10:57Z</time>
      </trkpt>
      <trkpt lat="44.11024" lon="6.28277">
        <ele>821</ele>
        <time>2022-06-08T21:11:01Z</time>
      </trkpt>
      <trkpt lat="44.11028" lon="6.28296">
        <ele>821</ele>
        <time>2022-06-08T21:11:04Z</time>
      </trkpt>
      <trkpt lat="44.1105" lon="6.28326">
        <ele>823</ele>
        <time>2022-06-08T21:11:11Z</time>
      </trkpt>
      <trkpt lat="44.11063" lon="6.28334">
        <ele>825</ele>
        <time>2022-06-08T21:11:14Z</time>
      </trkpt>
      <trkpt lat="44.11075" lon="6.28354">
        <ele>823</ele>
        <time>2022-06-08T21:11:19Z</time>
      </trkpt>
      <trkpt lat="44.11086" lon="6.28351">
        <ele>824</ele>
        <time>2022-06-08T21:11:21Z</time>
      </trkpt>
      <trkpt lat="44.11106" lon="6.2834">
        <ele>824</ele>
        <time>2022-06-08T21:11:26Z</time>
      </trkpt>
      <trkpt lat="44.11126" lon="6.28342">
        <ele>822</ele>
        <time>2022-06-08T21:11:31Z</time>
      </trkpt>
      <trkpt lat="44.11149" lon="6.28358">
        <ele>820</ele>
        <time>2022-06-08T21:11:37Z</time>
      </trkpt>
      <trkpt lat="44.11177" lon="6.28371">
        <ele>820</ele>
        <time>2022-06-08T21:11:44Z</time>
      </trkpt>
      <trkpt lat="44.11201" lon="6.28373">
        <ele>821</ele>
        <time>2022-06-08T21:11:50Z</time>
      </trkpt>
      <trkpt lat="44.11212" lon="6.28371">
        <ele>822</ele>
        <time>2022-06-08T21:11:52Z</time>
      </trkpt>
      <trkpt lat="44.1124" lon="6.28397">
        <ele>827</ele>
        <time>2022-06-08T21:12:00Z</time>
      </trkpt>
      <trkpt lat="44.11247" lon="6.28412">
        <ele>831</ele>
        <time>2022-06-08T21:12:03Z</time>
      </trkpt>
      <trkpt lat="44.11261" lon="6.28416">
        <ele>833</ele>
        <time>2022-06-08T21:12:06Z</time>
      </trkpt>
      <trkpt lat="44.11265" lon="6.28424">
        <ele>833</ele>
        <time>2022-06-08T21:12:08Z</time>
      </trkpt>
      <trkpt lat="44.11281" lon="6.28431">
        <ele>834</ele>
        <time>2022-06-08T21:12:12Z</time>
      </trkpt>
      <trkpt lat="44.11303" lon="6.28432">
        <ele>836</ele>
        <time>2022-06-08T21:12:17Z</time>
      </trkpt>
      <trkpt lat="44.11304" lon="6.28434">
        <ele>836</ele>
        <time>2022-06-08T21:12:18Z</time>
      </trkpt>
      <trkpt lat="44.11301" lon="6.28437">
        <ele>836</ele>
        <time>2022-06-08T21:12:18Z</time>
      </trkpt>
      <trkpt lat="44.11301" lon="6.28434">
        <ele>836</ele>
        <time>2022-06-08T21:12:19Z</time>
      </trkpt>
      <trkpt lat="44.11297" lon="6.28432">
        <ele>835</ele>
        <time>2022-06-08T21:12:20Z</time>
      </trkpt>
      <trkpt lat="44.11306" lon="6.28436">
        <ele>836</ele>
        <time>2022-06-08T21:12:22Z</time>
      </trkpt>
      <trkpt lat="44.11309" lon="6.2844">
        <ele>836</ele>
        <time>2022-06-08T21:12:23Z</time>
      </trkpt>
      <trkpt lat="44.11327" lon="6.28425">
        <ele>838</ele>
        <time>2022-06-08T21:12:28Z</time>
      </trkpt>
      <trkpt lat="44.11342" lon="6.2843">
        <ele>837</ele>
        <time>2022-06-08T21:12:32Z</time>
      </trkpt>
      <trkpt lat="44.11357" lon="6.28445">
        <ele>837</ele>
        <time>2022-06-08T21:12:36Z</time>
      </trkpt>
      <trkpt lat="44.11394" lon="6.28496">
        <ele>842</ele>
        <time>2022-06-08T21:12:48Z</time>
      </trkpt>
      <trkpt lat="44.11419" lon="6.28512">
        <ele>843</ele>
        <time>2022-06-08T21:12:54Z</time>
      </trkpt>
      <trkpt lat="44.11437" lon="6.28519">
        <ele>843</ele>
        <time>2022-06-08T21:12:59Z</time>
      </trkpt>
      <trkpt lat="44.11456" lon="6.28537">
        <ele>844</ele>
        <time>2022-06-08T21:13:04Z</time>
      </trkpt>
      <trkpt lat="44.1147" lon="6.28546">
        <ele>846</ele>
        <time>2022-06-08T21:13:08Z</time>
      </trkpt>
      <trkpt lat="44.11474" lon="6.28558">
        <ele>848</ele>
        <time>2022-06-08T21:13:10Z</time>
      </trkpt>
      <trkpt lat="44.11498" lon="6.28581">
        <ele>853</ele>
        <time>2022-06-08T21:13:17Z</time>
      </trkpt>
      <trkpt lat="44.11505" lon="6.28592">
        <ele>855</ele>
        <time>2022-06-08T21:13:19Z</time>
      </trkpt>
      <trkpt lat="44.11507" lon="6.28604">
        <ele>855</ele>
        <time>2022-06-08T21:13:21Z</time>
      </trkpt>
      <trkpt lat="44.1153" lon="6.28618">
        <ele>858</ele>
        <time>2022-06-08T21:13:27Z</time>
      </trkpt>
      <trkpt lat="44.11546" lon="6.28639">
        <ele>859</ele>
        <time>2022-06-08T21:13:32Z</time>
      </trkpt>
      <trkpt lat="44.11566" lon="6.28651">
        <ele>861</ele>
        <time>2022-06-08T21:13:37Z</time>
      </trkpt>
      <trkpt lat="44.11577" lon="6.28692">
        <ele>860</ele>
        <time>2022-06-08T21:13:45Z</time>
      </trkpt>
      <trkpt lat="44.11587" lon="6.2875">
        <ele>857</ele>
        <time>2022-06-08T21:13:55Z</time>
      </trkpt>
      <trkpt lat="44.11589" lon="6.28782">
        <ele>855</ele>
        <time>2022-06-08T21:14:00Z</time>
      </trkpt>
      <trkpt lat="44.11587" lon="6.28799">
        <ele>856</ele>
        <time>2022-06-08T21:14:03Z</time>
      </trkpt>
      <trkpt lat="44.11603" lon="6.28897">
        <ele>852</ele>
        <time>2022-06-08T21:14:20Z</time>
      </trkpt>
      <trkpt lat="44.11632" lon="6.28959">
        <ele>852</ele>
        <time>2022-06-08T21:14:32Z</time>
      </trkpt>
      <trkpt lat="44.11635" lon="6.28972">
        <ele>853</ele>
        <time>2022-06-08T21:14:35Z</time>
      </trkpt>
      <trkpt lat="44.11655" lon="6.28997">
        <ele>857</ele>
        <time>2022-06-08T21:14:41Z</time>
      </trkpt>
      <trkpt lat="44.11668" lon="6.29018">
        <ele>859</ele>
        <time>2022-06-08T21:14:45Z</time>
      </trkpt>
      <trkpt lat="44.11673" lon="6.29046">
        <ele>860</ele>
        <time>2022-06-08T21:14:50Z</time>
      </trkpt>
      <trkpt lat="44.11688" lon="6.29076">
        <ele>862</ele>
        <time>2022-06-08T21:14:56Z</time>
      </trkpt>
      <trkpt lat="44.11687" lon="6.29121">
        <ele>861</ele>
        <time>2022-06-08T21:15:04Z</time>
      </trkpt>
      <trkpt lat="44.11678" lon="6.29129">
        <ele>859</ele>
        <time>2022-06-08T21:15:06Z</time>
      </trkpt>
      <trkpt lat="44.1164" lon="6.29135">
        <ele>851</ele>
        <time>2022-06-08T21:15:15Z</time>
      </trkpt>
      <trkpt lat="44.11643" lon="6.29136">
        <ele>852</ele>
        <time>2022-06-08T21:15:16Z</time>
      </trkpt>
      <trkpt lat="44.11582" lon="6.29119">
        <ele>844</ele>
        <time>2022-06-08T21:15:31Z</time>
      </trkpt>
      <trkpt lat="44.11564" lon="6.29116">
        <ele>841</ele>
        <time>2022-06-08T21:15:35Z</time>
      </trkpt>
      <trkpt lat="44.11542" lon="6.29118">
        <ele>838</ele>
        <time>2022-06-08T21:15:40Z</time>
      </trkpt>
      <trkpt lat="44.11512" lon="6.29109">
        <ele>834</ele>
        <time>2022-06-08T21:15:47Z</time>
      </trkpt>
      <trkpt lat="44.11516" lon="6.29113">
        <ele>834</ele>
        <time>2022-06-08T21:15:48Z</time>
      </trkpt>
      <trkpt lat="44.11509" lon="6.29123">
        <ele>832</ele>
        <time>2022-06-08T21:15:51Z</time>
      </trkpt>
      <trkpt lat="44.11491" lon="6.29138">
        <ele>827</ele>
        <time>2022-06-08T21:15:56Z</time>
      </trkpt>
      <trkpt lat="44.1149" lon="6.29144">
        <ele>826</ele>
        <time>2022-06-08T21:15:57Z</time>
      </trkpt>
      <trkpt lat="44.11492" lon="6.2915">
        <ele>826</ele>
        <time>2022-06-08T21:15:58Z</time>
      </trkpt>
      <trkpt lat="44.11502" lon="6.2916">
        <ele>826</ele>
        <time>2022-06-08T21:16:01Z</time>
      </trkpt>
      <trkpt lat="44.11518" lon="6.29186">
        <ele>829</ele>
        <time>2022-06-08T21:16:06Z</time>
      </trkpt>
      <trkpt lat="44.11522" lon="6.29202">
        <ele>830</ele>
        <time>2022-06-08T21:16:09Z</time>
      </trkpt>
      <trkpt lat="44.1152" lon="6.29211">
        <ele>830</ele>
        <time>2022-06-08T21:16:11Z</time>
      </trkpt>
      <trkpt lat="44.11518" lon="6.29211">
        <ele>830</ele>
        <time>2022-06-08T21:16:11Z</time>
      </trkpt>
      <trkpt lat="44.11522" lon="6.29212">
        <ele>830</ele>
        <time>2022-06-08T21:16:12Z</time>
      </trkpt>
      <trkpt lat="44.11529" lon="6.29219">
        <ele>831</ele>
        <time>2022-06-08T21:16:14Z</time>
      </trkpt>
      <trkpt lat="44.11543" lon="6.29254">
        <ele>834</ele>
        <time>2022-06-08T21:16:21Z</time>
      </trkpt>
      <trkpt lat="44.11542" lon="6.29252">
        <ele>833</ele>
        <time>2022-06-08T21:16:21Z</time>
      </trkpt>
      <trkpt lat="44.11535" lon="6.29257">
        <ele>834</ele>
        <time>2022-06-08T21:16:23Z</time>
      </trkpt>
      <trkpt lat="44.11518" lon="6.29249">
        <ele>831</ele>
        <time>2022-06-08T21:16:27Z</time>
      </trkpt>
      <trkpt lat="44.115" lon="6.29245">
        <ele>830</ele>
        <time>2022-06-08T21:16:32Z</time>
      </trkpt>
      <trkpt lat="44.11478" lon="6.2925">
        <ele>829</ele>
        <time>2022-06-08T21:16:37Z</time>
      </trkpt>
      <trkpt lat="44.11464" lon="6.29267">
        <ele>834</ele>
        <time>2022-06-08T21:16:41Z</time>
      </trkpt>
      <trkpt lat="44.11458" lon="6.293">
        <ele>845</ele>
        <time>2022-06-08T21:16:47Z</time>
      </trkpt>
      <trkpt lat="44.11444" lon="6.29321">
        <ele>852</ele>
        <time>2022-06-08T21:16:52Z</time>
      </trkpt>
      <trkpt lat="44.11432" lon="6.29333">
        <ele>855</ele>
        <time>2022-06-08T21:16:55Z</time>
      </trkpt>
      <trkpt lat="44.11415" lon="6.29344">
        <ele>858</ele>
        <time>2022-06-08T21:17:00Z</time>
      </trkpt>
      <trkpt lat="44.11397" lon="6.29362">
        <ele>862</ele>
        <time>2022-06-08T21:17:05Z</time>
      </trkpt>
      <trkpt lat="44.11379" lon="6.29373">
        <ele>864</ele>
        <time>2022-06-08T21:17:09Z</time>
      </trkpt>
      <trkpt lat="44.11363" lon="6.29387">
        <ele>868</ele>
        <time>2022-06-08T21:17:14Z</time>
      </trkpt>
      <trkpt lat="44.1134" lon="6.29399">
        <ele>870</ele>
        <time>2022-06-08T21:17:19Z</time>
      </trkpt>
      <trkpt lat="44.11337" lon="6.29406">
        <ele>873</ele>
        <time>2022-06-08T21:17:21Z</time>
      </trkpt>
      <trkpt lat="44.1133" lon="6.29411">
        <ele>873</ele>
        <time>2022-06-08T21:17:23Z</time>
      </trkpt>
      <trkpt lat="44.11313" lon="6.29417">
        <ele>868</ele>
        <time>2022-06-08T21:17:27Z</time>
      </trkpt>
      <trkpt lat="44.11313" lon="6.29423">
        <ele>870</ele>
        <time>2022-06-08T21:17:28Z</time>
      </trkpt>
      <trkpt lat="44.11323" lon="6.2943">
        <ele>876</ele>
        <time>2022-06-08T21:17:30Z</time>
      </trkpt>
      <trkpt lat="44.11324" lon="6.29434">
        <ele>878</ele>
        <time>2022-06-08T21:17:31Z</time>
      </trkpt>
      <trkpt lat="44.11329" lon="6.29436">
        <ele>880</ele>
        <time>2022-06-08T21:17:32Z</time>
      </trkpt>
      <trkpt lat="44.11328" lon="6.29443">
        <ele>882</ele>
        <time>2022-06-08T21:17:33Z</time>
      </trkpt>
      <trkpt lat="44.11316" lon="6.2946">
        <ele>882</ele>
        <time>2022-06-08T21:17:37Z</time>
      </trkpt>
      <trkpt lat="44.11314" lon="6.29483">
        <ele>888</ele>
        <time>2022-06-08T21:17:41Z</time>
      </trkpt>
      <trkpt lat="44.11308" lon="6.29493">
        <ele>889</ele>
        <time>2022-06-08T21:17:44Z</time>
      </trkpt>
      <trkpt lat="44.11308" lon="6.29513">
        <ele>895</ele>
        <time>2022-06-08T21:17:47Z</time>
      </trkpt>
      <trkpt lat="44.1129" lon="6.29531">
        <ele>891</ele>
        <time>2022-06-08T21:17:52Z</time>
      </trkpt>
      <trkpt lat="44.11282" lon="6.29554">
        <ele>894</ele>
        <time>2022-06-08T21:17:56Z</time>
      </trkpt>
      <trkpt lat="44.11278" lon="6.29594">
        <ele>902</ele>
        <time>2022-06-08T21:18:03Z</time>
      </trkpt>
      <trkpt lat="44.11257" lon="6.29645">
        <ele>903</ele>
        <time>2022-06-08T21:18:13Z</time>
      </trkpt>
      <trkpt lat="44.1125" lon="6.29681">
        <ele>908</ele>
        <time>2022-06-08T21:18:19Z</time>
      </trkpt>
      <trkpt lat="44.11248" lon="6.29709">
        <ele>913</ele>
        <time>2022-06-08T21:18:24Z</time>
      </trkpt>
      <trkpt lat="44.11241" lon="6.29735">
        <ele>915</ele>
        <time>2022-06-08T21:18:29Z</time>
      </trkpt>
      <trkpt lat="44.11199" lon="6.29812">
        <ele>900</ele>
        <time>2022-06-08T21:18:45Z</time>
      </trkpt>
      <trkpt lat="44.11204" lon="6.29844">
        <ele>906</ele>
        <time>2022-06-08T21:18:50Z</time>
      </trkpt>
      <trkpt lat="44.11213" lon="6.29864">
        <ele>910</ele>
        <time>2022-06-08T21:18:54Z</time>
      </trkpt>
      <trkpt lat="44.11231" lon="6.29887">
        <ele>918</ele>
        <time>2022-06-08T21:19:00Z</time>
      </trkpt>
      <trkpt lat="44.11239" lon="6.29903">
        <ele>920</ele>
        <time>2022-06-08T21:19:03Z</time>
      </trkpt>
      <trkpt lat="44.11256" lon="6.29915">
        <ele>929</ele>
        <time>2022-06-08T21:19:08Z</time>
      </trkpt>
      <trkpt lat="44.11263" lon="6.29935">
        <ele>930</ele>
        <time>2022-06-08T21:19:11Z</time>
      </trkpt>
      <trkpt lat="44.11267" lon="6.29959">
        <ele>929</ele>
        <time>2022-06-08T21:19:16Z</time>
      </trkpt>
      <trkpt lat="44.11271" lon="6.29962">
        <ele>930</ele>
        <time>2022-06-08T21:19:17Z</time>
      </trkpt>
      <trkpt lat="44.11278" lon="6.29976">
        <ele>932</ele>
        <time>2022-06-08T21:19:19Z</time>
      </trkpt>
      <trkpt lat="44.11295" lon="6.2999">
        <ele>940</ele>
        <time>2022-06-08T21:19:24Z</time>
      </trkpt>
      <trkpt lat="44.1131" lon="6.30033">
        <ele>940</ele>
        <time>2022-06-08T21:19:32Z</time>
      </trkpt>
      <trkpt lat="44.11328" lon="6.30048">
        <ele>946</ele>
        <time>2022-06-08T21:19:37Z</time>
      </trkpt>
      <trkpt lat="44.11368" lon="6.30071">
        <ele>956</ele>
        <time>2022-06-08T21:19:47Z</time>
      </trkpt>
      <trkpt lat="44.1135" lon="6.30094">
        <ele>947</ele>
        <time>2022-06-08T21:19:53Z</time>
      </trkpt>
      <trkpt lat="44.11343" lon="6.30123">
        <ele>945</ele>
        <time>2022-06-08T21:19:58Z</time>
      </trkpt>
      <trkpt lat="44.11347" lon="6.30142">
        <ele>947</ele>
        <time>2022-06-08T21:20:01Z</time>
      </trkpt>
      <trkpt lat="44.11361" lon="6.30174">
        <ele>954</ele>
        <time>2022-06-08T21:20:08Z</time>
      </trkpt>
      <trkpt lat="44.11372" lon="6.30206">
        <ele>961</ele>
        <time>2022-06-08T21:20:13Z</time>
      </trkpt>
      <trkpt lat="44.11373" lon="6.30215">
        <ele>962</ele>
        <time>2022-06-08T21:20:15Z</time>
      </trkpt>
      <trkpt lat="44.1136" lon="6.30209">
        <ele>958</ele>
        <time>2022-06-08T21:20:18Z</time>
      </trkpt>
      <trkpt lat="44.11344" lon="6.30208">
        <ele>954</ele>
        <time>2022-06-08T21:20:22Z</time>
      </trkpt>
      <trkpt lat="44.11303" lon="6.30225">
        <ele>951</ele>
        <time>2022-06-08T21:20:32Z</time>
      </trkpt>
      <trkpt lat="44.11281" lon="6.30227">
        <ele>948</ele>
        <time>2022-06-08T21:20:37Z</time>
      </trkpt>
      <trkpt lat="44.11282" lon="6.30225">
        <ele>948</ele>
        <time>2022-06-08T21:20:38Z</time>
      </trkpt>
      <trkpt lat="44.11283" lon="6.30229">
        <ele>949</ele>
        <time>2022-06-08T21:20:38Z</time>
      </trkpt>
      <trkpt lat="44.11286" lon="6.30227">
        <ele>949</ele>
        <time>2022-06-08T21:20:39Z</time>
      </trkpt>
      <trkpt lat="44.11285" lon="6.30229">
        <ele>949</ele>
        <time>2022-06-08T21:20:39Z</time>
      </trkpt>
      <trkpt lat="44.11284" lon="6.30227">
        <ele>948</ele>
        <time>2022-06-08T21:20:40Z</time>
      </trkpt>
      <trkpt lat="44.11279" lon="6.3023">
        <ele>948</ele>
        <time>2022-06-08T21:20:41Z</time>
      </trkpt>
      <trkpt lat="44.1127" lon="6.30231">
        <ele>947</ele>
        <time>2022-06-08T21:20:43Z</time>
      </trkpt>
      <trkpt lat="44.11253" lon="6.30269">
        <ele>949</ele>
        <time>2022-06-08T21:20:51Z</time>
      </trkpt>
      <trkpt lat="44.11252" lon="6.30282">
        <ele>948</ele>
        <time>2022-06-08T21:20:53Z</time>
      </trkpt>
      <trkpt lat="44.11247" lon="6.30298">
        <ele>946</ele>
        <time>2022-06-08T21:20:56Z</time>
      </trkpt>
      <trkpt lat="44.11248" lon="6.30307">
        <ele>946</ele>
        <time>2022-06-08T21:20:57Z</time>
      </trkpt>
      <trkpt lat="44.11242" lon="6.30319">
        <ele>945</ele>
        <time>2022-06-08T21:21:00Z</time>
      </trkpt>
      <trkpt lat="44.11241" lon="6.30329">
        <ele>944</ele>
        <time>2022-06-08T21:21:01Z</time>
      </trkpt>
      <trkpt lat="44.11242" lon="6.30335">
        <ele>945</ele>
        <time>2022-06-08T21:21:03Z</time>
      </trkpt>
      <trkpt lat="44.11252" lon="6.30341">
        <ele>947</ele>
        <time>2022-06-08T21:21:05Z</time>
      </trkpt>
      <trkpt lat="44.11257" lon="6.30365">
        <ele>953</ele>
        <time>2022-06-08T21:21:09Z</time>
      </trkpt>
      <trkpt lat="44.11254" lon="6.30365">
        <ele>952</ele>
        <time>2022-06-08T21:21:10Z</time>
      </trkpt>
      <trkpt lat="44.11249" lon="6.30358">
        <ele>950</ele>
        <time>2022-06-08T21:21:12Z</time>
      </trkpt>
      <trkpt lat="44.11225" lon="6.30356">
        <ele>948</ele>
        <time>2022-06-08T21:21:17Z</time>
      </trkpt>
      <trkpt lat="44.11206" lon="6.30359">
        <ele>948</ele>
        <time>2022-06-08T21:21:22Z</time>
      </trkpt>
      <trkpt lat="44.11184" lon="6.30358">
        <ele>946</ele>
        <time>2022-06-08T21:21:27Z</time>
      </trkpt>
      <trkpt lat="44.11139" lon="6.30352">
        <ele>942</ele>
        <time>2022-06-08T21:21:37Z</time>
      </trkpt>
      <trkpt lat="44.11131" lon="6.30354">
        <ele>942</ele>
        <time>2022-06-08T21:21:39Z</time>
      </trkpt>
      <trkpt lat="44.11125" lon="6.3035">
        <ele>940</ele>
        <time>2022-06-08T21:21:41Z</time>
      </trkpt>
      <trkpt lat="44.11114" lon="6.30351">
        <ele>940</ele>
        <time>2022-06-08T21:21:43Z</time>
      </trkpt>
      <trkpt lat="44.11107" lon="6.30364">
        <ele>942</ele>
        <time>2022-06-08T21:21:46Z</time>
      </trkpt>
      <trkpt lat="44.11108" lon="6.30372">
        <ele>943</ele>
        <time>2022-06-08T21:21:47Z</time>
      </trkpt>
      <trkpt lat="44.11126" lon="6.30388">
        <ele>948</ele>
        <time>2022-06-08T21:21:52Z</time>
      </trkpt>
      <trkpt lat="44.1115" lon="6.30422">
        <ele>959</ele>
        <time>2022-06-08T21:22:00Z</time>
      </trkpt>
      <trkpt lat="44.11184" lon="6.30479">
        <ele>962</ele>
        <time>2022-06-08T21:22:13Z</time>
      </trkpt>
      <trkpt lat="44.11187" lon="6.30491">
        <ele>962</ele>
        <time>2022-06-08T21:22:15Z</time>
      </trkpt>
      <trkpt lat="44.11201" lon="6.30505">
        <ele>964</ele>
        <time>2022-06-08T21:22:19Z</time>
      </trkpt>
      <trkpt lat="44.11216" lon="6.30542">
        <ele>961</ele>
        <time>2022-06-08T21:22:26Z</time>
      </trkpt>
      <trkpt lat="44.11223" lon="6.30552">
        <ele>961</ele>
        <time>2022-06-08T21:22:29Z</time>
      </trkpt>
      <trkpt lat="44.11235" lon="6.3056">
        <ele>962</ele>
        <time>2022-06-08T21:22:32Z</time>
      </trkpt>
      <trkpt lat="44.11264" lon="6.30603">
        <ele>961</ele>
        <time>2022-06-08T21:22:42Z</time>
      </trkpt>
      <trkpt lat="44.11295" lon="6.30638">
        <ele>961</ele>
        <time>2022-06-08T21:22:51Z</time>
      </trkpt>
      <trkpt lat="44.11309" lon="6.30649">
        <ele>962</ele>
        <time>2022-06-08T21:22:55Z</time>
      </trkpt>
      <trkpt lat="44.11315" lon="6.30661">
        <ele>961</ele>
        <time>2022-06-08T21:22:57Z</time>
      </trkpt>
      <trkpt lat="44.11337" lon="6.30686">
        <ele>961</ele>
        <time>2022-06-08T21:23:04Z</time>
      </trkpt>
      <trkpt lat="44.11347" lon="6.30708">
        <ele>959</ele>
        <time>2022-06-08T21:23:08Z</time>
      </trkpt>
      <trkpt lat="44.11342" lon="6.30717">
        <ele>956</ele>
        <time>2022-06-08T21:23:10Z</time>
      </trkpt>
      <trkpt lat="44.11341" lon="6.30741">
        <ele>951</ele>
        <time>2022-06-08T21:23:14Z</time>
      </trkpt>
      <trkpt lat="44.11356" lon="6.30789">
        <ele>946</ele>
        <time>2022-06-08T21:23:23Z</time>
      </trkpt>
      <trkpt lat="44.11365" lon="6.30803">
        <ele>944</ele>
        <time>2022-06-08T21:23:26Z</time>
      </trkpt>
      <trkpt lat="44.11392" lon="6.30831">
        <ele>942</ele>
        <time>2022-06-08T21:23:34Z</time>
      </trkpt>
      <trkpt lat="44.1141" lon="6.30842">
        <ele>941</ele>
        <time>2022-06-08T21:23:38Z</time>
      </trkpt>
      <trkpt lat="44.11458" lon="6.30844">
        <ele>945</ele>
        <time>2022-06-08T21:23:50Z</time>
      </trkpt>
      <trkpt lat="44.11476" lon="6.30847">
        <ele>946</ele>
        <time>2022-06-08T21:23:54Z</time>
      </trkpt>
      <trkpt lat="44.11486" lon="6.30854">
        <ele>947</ele>
        <time>2022-06-08T21:23:56Z</time>
      </trkpt>
      <trkpt lat="44.11482" lon="6.30862">
        <ele>946</ele>
        <time>2022-06-08T21:23:58Z</time>
      </trkpt>
      <trkpt lat="44.11466" lon="6.30871">
        <ele>943</ele>
        <time>2022-06-08T21:24:02Z</time>
      </trkpt>
      <trkpt lat="44.11453" lon="6.30885">
        <ele>939</ele>
        <time>2022-06-08T21:24:06Z</time>
      </trkpt>
      <trkpt lat="44.11443" lon="6.30905">
        <ele>935</ele>
        <time>2022-06-08T21:24:10Z</time>
      </trkpt>
      <trkpt lat="44.11445" lon="6.30918">
        <ele>933</ele>
        <time>2022-06-08T21:24:12Z</time>
      </trkpt>
      <trkpt lat="44.11513" lon="6.31043">
        <ele>934</ele>
        <time>2022-06-08T21:24:39Z</time>
      </trkpt>
      <trkpt lat="44.11526" lon="6.31061">
        <ele>934</ele>
        <time>2022-06-08T21:24:43Z</time>
      </trkpt>
      <trkpt lat="44.11529" lon="6.31084">
        <ele>932</ele>
        <time>2022-06-08T21:24:47Z</time>
      </trkpt>
      <trkpt lat="44.11539" lon="6.31116">
        <ele>933</ele>
        <time>2022-06-08T21:24:53Z</time>
      </trkpt>
      <trkpt lat="44.11558" lon="6.31127">
        <ele>935</ele>
        <time>2022-06-08T21:24:57Z</time>
      </trkpt>
      <trkpt lat="44.11571" lon="6.31122">
        <ele>936</ele>
        <time>2022-06-08T21:25:01Z</time>
      </trkpt>
      <trkpt lat="44.11588" lon="6.31122">
        <ele>938</ele>
        <time>2022-06-08T21:25:05Z</time>
      </trkpt>
      <trkpt lat="44.11598" lon="6.31128">
        <ele>940</ele>
        <time>2022-06-08T21:25:07Z</time>
      </trkpt>
      <trkpt lat="44.11618" lon="6.31132">
        <ele>943</ele>
        <time>2022-06-08T21:25:12Z</time>
      </trkpt>
      <trkpt lat="44.11671" lon="6.31164">
        <ele>950</ele>
        <time>2022-06-08T21:25:25Z</time>
      </trkpt>
      <trkpt lat="44.11729" lon="6.31203">
        <ele>956</ele>
        <time>2022-06-08T21:25:40Z</time>
      </trkpt>
      <trkpt lat="44.11755" lon="6.3124">
        <ele>955</ele>
        <time>2022-06-08T21:25:49Z</time>
      </trkpt>
      <trkpt lat="44.1177" lon="6.31256">
        <ele>955</ele>
        <time>2022-06-08T21:25:53Z</time>
      </trkpt>
      <trkpt lat="44.11772" lon="6.31262">
        <ele>955</ele>
        <time>2022-06-08T21:25:55Z</time>
      </trkpt>
      <trkpt lat="44.1177" lon="6.31314">
        <ele>953</ele>
        <time>2022-06-08T21:26:03Z</time>
      </trkpt>
      <trkpt lat="44.11763" lon="6.31339">
        <ele>952</ele>
        <time>2022-06-08T21:26:08Z</time>
      </trkpt>
      <trkpt lat="44.11743" lon="6.31379">
        <ele>955</ele>
        <time>2022-06-08T21:26:16Z</time>
      </trkpt>
      <trkpt lat="44.11745" lon="6.31378">
        <ele>955</ele>
        <time>2022-06-08T21:26:16Z</time>
      </trkpt>
      <trkpt lat="44.11763" lon="6.31393">
        <ele>955</ele>
        <time>2022-06-08T21:26:21Z</time>
      </trkpt>
      <trkpt lat="44.11764" lon="6.31391">
        <ele>954</ele>
        <time>2022-06-08T21:26:22Z</time>
      </trkpt>
      <trkpt lat="44.11773" lon="6.3145">
        <ele>958</ele>
        <time>2022-06-08T21:26:32Z</time>
      </trkpt>
      <trkpt lat="44.11792" lon="6.31469">
        <ele>957</ele>
        <time>2022-06-08T21:26:37Z</time>
      </trkpt>
      <trkpt lat="44.11806" lon="6.31475">
        <ele>956</ele>
        <time>2022-06-08T21:26:41Z</time>
      </trkpt>
      <trkpt lat="44.11813" lon="6.3149">
        <ele>956</ele>
        <time>2022-06-08T21:26:44Z</time>
      </trkpt>
      <trkpt lat="44.11808" lon="6.31535">
        <ele>961</ele>
        <time>2022-06-08T21:26:51Z</time>
      </trkpt>
      <trkpt lat="44.1181" lon="6.31559">
        <ele>963</ele>
        <time>2022-06-08T21:26:55Z</time>
      </trkpt>
      <trkpt lat="44.11857" lon="6.31572">
        <ele>954</ele>
        <time>2022-06-08T21:27:07Z</time>
      </trkpt>
      <trkpt lat="44.11873" lon="6.31596">
        <ele>950</ele>
        <time>2022-06-08T21:27:12Z</time>
      </trkpt>
      <trkpt lat="44.11864" lon="6.31634">
        <ele>953</ele>
        <time>2022-06-08T21:27:19Z</time>
      </trkpt>
      <trkpt lat="44.11857" lon="6.31646">
        <ele>955</ele>
        <time>2022-06-08T21:27:21Z</time>
      </trkpt>
      <trkpt lat="44.11868" lon="6.31656">
        <ele>952</ele>
        <time>2022-06-08T21:27:24Z</time>
      </trkpt>
      <trkpt lat="44.11879" lon="6.3166">
        <ele>949</ele>
        <time>2022-06-08T21:27:27Z</time>
      </trkpt>
      <trkpt lat="44.11887" lon="6.31668">
        <ele>948</ele>
        <time>2022-06-08T21:27:29Z</time>
      </trkpt>
      <trkpt lat="44.1189" lon="6.31684">
        <ele>948</ele>
        <time>2022-06-08T21:27:32Z</time>
      </trkpt>
      <trkpt lat="44.1189" lon="6.31719">
        <ele>949</ele>
        <time>2022-06-08T21:27:38Z</time>
      </trkpt>
      <trkpt lat="44.11888" lon="6.31725">
        <ele>950</ele>
        <time>2022-06-08T21:27:39Z</time>
      </trkpt>
      <trkpt lat="44.11897" lon="6.31738">
        <ele>949</ele>
        <time>2022-06-08T21:27:42Z</time>
      </trkpt>
      <trkpt lat="44.11904" lon="6.31738">
        <ele>948</ele>
        <time>2022-06-08T21:27:44Z</time>
      </trkpt>
      <trkpt lat="44.1191" lon="6.31747">
        <ele>948</ele>
        <time>2022-06-08T21:27:46Z</time>
      </trkpt>
      <trkpt lat="44.11921" lon="6.31745">
        <ele>946</ele>
        <time>2022-06-08T21:27:48Z</time>
      </trkpt>
      <trkpt lat="44.11943" lon="6.31757">
        <ele>947</ele>
        <time>2022-06-08T21:27:54Z</time>
      </trkpt>
      <trkpt lat="44.11967" lon="6.31766">
        <ele>947</ele>
        <time>2022-06-08T21:28:00Z</time>
      </trkpt>
      <trkpt lat="44.11973" lon="6.31784">
        <ele>947</ele>
        <time>2022-06-08T21:28:03Z</time>
      </trkpt>
      <trkpt lat="44.11979" lon="6.31832">
        <ele>949</ele>
        <time>2022-06-08T21:28:11Z</time>
      </trkpt>
      <trkpt lat="44.11984" lon="6.31851">
        <ele>950</ele>
        <time>2022-06-08T21:28:15Z</time>
      </trkpt>
      <trkpt lat="44.12002" lon="6.31871">
        <ele>947</ele>
        <time>2022-06-08T21:28:20Z</time>
      </trkpt>
      <trkpt lat="44.1202" lon="6.31901">
        <ele>948</ele>
        <time>2022-06-08T21:28:27Z</time>
      </trkpt>
      <trkpt lat="44.12028" lon="6.31919">
        <ele>949</ele>
        <time>2022-06-08T21:28:30Z</time>
      </trkpt>
      <trkpt lat="44.12043" lon="6.31925">
        <ele>948</ele>
        <time>2022-06-08T21:28:34Z</time>
      </trkpt>
      <trkpt lat="44.12065" lon="6.3194">
        <ele>948</ele>
        <time>2022-06-08T21:28:40Z</time>
      </trkpt>
      <trkpt lat="44.12069" lon="6.31947">
        <ele>948</ele>
        <time>2022-06-08T21:28:41Z</time>
      </trkpt>
      <trkpt lat="44.1208" lon="6.3197">
        <ele>949</ele>
        <time>2022-06-08T21:28:46Z</time>
      </trkpt>
      <trkpt lat="44.12089" lon="6.31998">
        <ele>951</ele>
        <time>2022-06-08T21:28:51Z</time>
      </trkpt>
      <trkpt lat="44.12095" lon="6.32032">
        <ele>953</ele>
        <time>2022-06-08T21:28:57Z</time>
      </trkpt>
      <trkpt lat="44.12108" lon="6.32063">
        <ele>954</ele>
        <time>2022-06-08T21:29:03Z</time>
      </trkpt>
      <trkpt lat="44.12119" lon="6.32075">
        <ele>955</ele>
        <time>2022-06-08T21:29:06Z</time>
      </trkpt>
      <trkpt lat="44.12153" lon="6.32133">
        <ele>957</ele>
        <time>2022-06-08T21:29:18Z</time>
      </trkpt>
      <trkpt lat="44.12156" lon="6.32149">
        <ele>957</ele>
        <time>2022-06-08T21:29:21Z</time>
      </trkpt>
      <trkpt lat="44.12165" lon="6.32169">
        <ele>958</ele>
        <time>2022-06-08T21:29:25Z</time>
      </trkpt>
      <trkpt lat="44.12163" lon="6.32195">
        <ele>954</ele>
        <time>2022-06-08T21:29:30Z</time>
      </trkpt>
      <trkpt lat="44.12163" lon="6.32179">
        <ele>957</ele>
        <time>2022-06-08T21:29:32Z</time>
      </trkpt>
      <trkpt lat="44.12171" lon="6.32179">
        <ele>957</ele>
        <time>2022-06-08T21:29:34Z</time>
      </trkpt>
      <trkpt lat="44.12178" lon="6.32186">
        <ele>957</ele>
        <time>2022-06-08T21:29:36Z</time>
      </trkpt>
      <trkpt lat="44.12188" lon="6.32162">
        <ele>962</ele>
        <time>2022-06-08T21:29:41Z</time>
      </trkpt>
      <trkpt lat="44.12195" lon="6.32152">
        <ele>962</ele>
        <time>2022-06-08T21:29:43Z</time>
      </trkpt>
      <trkpt lat="44.12205" lon="6.32159">
        <ele>964</ele>
        <time>2022-06-08T21:29:46Z</time>
      </trkpt>
      <trkpt lat="44.12211" lon="6.32172">
        <ele>964</ele>
        <time>2022-06-08T21:29:48Z</time>
      </trkpt>
      <trkpt lat="44.12221" lon="6.32185">
        <ele>962</ele>
        <time>2022-06-08T21:29:52Z</time>
      </trkpt>
      <trkpt lat="44.12226" lon="6.32201">
        <ele>959</ele>
        <time>2022-06-08T21:29:54Z</time>
      </trkpt>
      <trkpt lat="44.12211" lon="6.32196">
        <ele>959</ele>
        <time>2022-06-08T21:29:58Z</time>
      </trkpt>
      <trkpt lat="44.12188" lon="6.32197">
        <ele>956</ele>
        <time>2022-06-08T21:30:03Z</time>
      </trkpt>
      <trkpt lat="44.12185" lon="6.32208">
        <ele>954</ele>
        <time>2022-06-08T21:30:05Z</time>
      </trkpt>
      <trkpt lat="44.1219" lon="6.32223">
        <ele>951</ele>
        <time>2022-06-08T21:30:08Z</time>
      </trkpt>
      <trkpt lat="44.12186" lon="6.32244">
        <ele>947</ele>
        <time>2022-06-08T21:30:12Z</time>
      </trkpt>
      <trkpt lat="44.12186" lon="6.32265">
        <ele>943</ele>
        <time>2022-06-08T21:30:15Z</time>
      </trkpt>
      <trkpt lat="44.1219" lon="6.32289">
        <ele>939</ele>
        <time>2022-06-08T21:30:20Z</time>
      </trkpt>
      <trkpt lat="44.12187" lon="6.323">
        <ele>936</ele>
        <time>2022-06-08T21:30:21Z</time>
      </trkpt>
      <trkpt lat="44.12183" lon="6.32301">
        <ele>936</ele>
        <time>2022-06-08T21:30:22Z</time>
      </trkpt>
      <trkpt lat="44.12189" lon="6.32291">
        <ele>938</ele>
        <time>2022-06-08T21:30:25Z</time>
      </trkpt>
      <trkpt lat="44.12192" lon="6.32273">
        <ele>942</ele>
        <time>2022-06-08T21:30:28Z</time>
      </trkpt>
      <trkpt lat="44.12199" lon="6.32277">
        <ele>942</ele>
        <time>2022-06-08T21:30:29Z</time>
      </trkpt>
      <trkpt lat="44.12202" lon="6.32282">
        <ele>941</ele>
        <time>2022-06-08T21:30:31Z</time>
      </trkpt>
      <trkpt lat="44.12206" lon="6.32313">
        <ele>936</ele>
        <time>2022-06-08T21:30:36Z</time>
      </trkpt>
      <trkpt lat="44.12204" lon="6.32332">
        <ele>932</ele>
        <time>2022-06-08T21:30:39Z</time>
      </trkpt>
      <trkpt lat="44.12215" lon="6.32326">
        <ele>934</ele>
        <time>2022-06-08T21:30:42Z</time>
      </trkpt>
      <trkpt lat="44.12226" lon="6.32343">
        <ele>932</ele>
        <time>2022-06-08T21:30:46Z</time>
      </trkpt>
      <trkpt lat="44.12226" lon="6.32361">
        <ele>930</ele>
        <time>2022-06-08T21:30:49Z</time>
      </trkpt>
      <trkpt lat="44.12231" lon="6.32369">
        <ele>929</ele>
        <time>2022-06-08T21:30:50Z</time>
      </trkpt>
      <trkpt lat="44.12234" lon="6.32366">
        <ele>930</ele>
        <time>2022-06-08T21:30:51Z</time>
      </trkpt>
      <trkpt lat="44.12248" lon="6.32375">
        <ele>930</ele>
        <time>2022-06-08T21:30:55Z</time>
      </trkpt>
      <trkpt lat="44.12255" lon="6.3237">
        <ele>931</ele>
        <time>2022-06-08T21:30:57Z</time>
      </trkpt>
      <trkpt lat="44.12262" lon="6.32412">
        <ele>926</ele>
        <time>2022-06-08T21:31:04Z</time>
      </trkpt>
      <trkpt lat="44.12262" lon="6.32427">
        <ele>923</ele>
        <time>2022-06-08T21:31:07Z</time>
      </trkpt>
      <trkpt lat="44.12271" lon="6.32452">
        <ele>920</ele>
        <time>2022-06-08T21:31:11Z</time>
      </trkpt>
      <trkpt lat="44.12275" lon="6.32475">
        <ele>916</ele>
        <time>2022-06-08T21:31:15Z</time>
      </trkpt>
      <trkpt lat="44.1228" lon="6.32489">
        <ele>913</ele>
        <time>2022-06-08T21:31:18Z</time>
      </trkpt>
      <trkpt lat="44.12283" lon="6.32545">
        <ele>908</ele>
        <time>2022-06-08T21:31:27Z</time>
      </trkpt>
      <trkpt lat="44.12271" lon="6.3258">
        <ele>905</ele>
        <time>2022-06-08T21:31:34Z</time>
      </trkpt>
      <trkpt lat="44.1227" lon="6.32592">
        <ele>904</ele>
        <time>2022-06-08T21:31:36Z</time>
      </trkpt>
      <trkpt lat="44.1226" lon="6.32632">
        <ele>901</ele>
        <time>2022-06-08T21:31:43Z</time>
      </trkpt>
      <trkpt lat="44.1226" lon="6.32645">
        <ele>900</ele>
        <time>2022-06-08T21:31:45Z</time>
      </trkpt>
      <trkpt lat="44.12242" lon="6.32664">
        <ele>899</ele>
        <time>2022-06-08T21:31:50Z</time>
      </trkpt>
      <trkpt lat="44.12245" lon="6.32674">
        <ele>898</ele>
        <time>2022-06-08T21:31:52Z</time>
      </trkpt>
      <trkpt lat="44.12248" lon="6.32707">
        <ele>900</ele>
        <time>2022-06-08T21:31:58Z</time>
      </trkpt>
      <trkpt lat="44.1227" lon="6.32718">
        <ele>899</ele>
        <time>2022-06-08T21:32:03Z</time>
      </trkpt>
      <trkpt lat="44.12277" lon="6.32717">
        <ele>898</ele>
        <time>2022-06-08T21:32:05Z</time>
      </trkpt>
      <trkpt lat="44.12292" lon="6.32705">
        <ele>897</ele>
        <time>2022-06-08T21:32:09Z</time>
      </trkpt>
      <trkpt lat="44.12308" lon="6.32722">
        <ele>896</ele>
        <time>2022-06-08T21:32:14Z</time>
      </trkpt>
      <trkpt lat="44.12321" lon="6.32777">
        <ele>894</ele>
        <time>2022-06-08T21:32:23Z</time>
      </trkpt>
      <trkpt lat="44.12322" lon="6.32793">
        <ele>894</ele>
        <time>2022-06-08T21:32:26Z</time>
      </trkpt>
      <trkpt lat="44.1234" lon="6.32831">
        <ele>893</ele>
        <time>2022-06-08T21:32:34Z</time>
      </trkpt>
      <trkpt lat="44.12349" lon="6.32839">
        <ele>893</ele>
        <time>2022-06-08T21:32:36Z</time>
      </trkpt>
      <trkpt lat="44.1236" lon="6.32855">
        <ele>893</ele>
        <time>2022-06-08T21:32:40Z</time>
      </trkpt>
      <trkpt lat="44.12387" lon="6.32835">
        <ele>890</ele>
        <time>2022-06-08T21:32:47Z</time>
      </trkpt>
      <trkpt lat="44.12413" lon="6.32809">
        <ele>888</ele>
        <time>2022-06-08T21:32:54Z</time>
      </trkpt>
      <trkpt lat="44.12426" lon="6.3282">
        <ele>888</ele>
        <time>2022-06-08T21:32:58Z</time>
      </trkpt>
      <trkpt lat="44.12431" lon="6.32818">
        <ele>888</ele>
        <time>2022-06-08T21:32:59Z</time>
      </trkpt>
      <trkpt lat="44.12438" lon="6.32828">
        <ele>888</ele>
        <time>2022-06-08T21:33:01Z</time>
      </trkpt>
      <trkpt lat="44.1245" lon="6.32827">
        <ele>889</ele>
        <time>2022-06-08T21:33:04Z</time>
      </trkpt>
      <trkpt lat="44.12458" lon="6.3283">
        <ele>889</ele>
        <time>2022-06-08T21:33:06Z</time>
      </trkpt>
      <trkpt lat="44.12458" lon="6.32844">
        <ele>890</ele>
        <time>2022-06-08T21:33:09Z</time>
      </trkpt>
      <trkpt lat="44.12463" lon="6.32857">
        <ele>892</ele>
        <time>2022-06-08T21:33:11Z</time>
      </trkpt>
      <trkpt lat="44.12479" lon="6.32871">
        <ele>894</ele>
        <time>2022-06-08T21:33:15Z</time>
      </trkpt>
      <trkpt lat="44.125" lon="6.32885">
        <ele>897</ele>
        <time>2022-06-08T21:33:21Z</time>
      </trkpt>
      <trkpt lat="44.12504" lon="6.32904">
        <ele>900</ele>
        <time>2022-06-08T21:33:24Z</time>
      </trkpt>
      <trkpt lat="44.12517" lon="6.32925">
        <ele>903</ele>
        <time>2022-06-08T21:33:29Z</time>
      </trkpt>
      <trkpt lat="44.12523" lon="6.32942">
        <ele>905</ele>
        <time>2022-06-08T21:33:32Z</time>
      </trkpt>
      <trkpt lat="44.12548" lon="6.3299">
        <ele>912</ele>
        <time>2022-06-08T21:33:42Z</time>
      </trkpt>
      <trkpt lat="44.1257" lon="6.33001">
        <ele>915</ele>
        <time>2022-06-08T21:33:47Z</time>
      </trkpt>
      <trkpt lat="44.12589" lon="6.33001">
        <ele>917</ele>
        <time>2022-06-08T21:33:52Z</time>
      </trkpt>
      <trkpt lat="44.12588" lon="6.3301">
        <ele>918</ele>
        <time>2022-06-08T21:33:53Z</time>
      </trkpt>
      <trkpt lat="44.12554" lon="6.33044">
        <ele>923</ele>
        <time>2022-06-08T21:34:03Z</time>
      </trkpt>
      <trkpt lat="44.12525" lon="6.33047">
        <ele>921</ele>
        <time>2022-06-08T21:34:10Z</time>
      </trkpt>
      <trkpt lat="44.12461" lon="6.3311">
        <ele>924</ele>
        <time>2022-06-08T21:34:28Z</time>
      </trkpt>
      <trkpt lat="44.12456" lon="6.33147">
        <ele>930</ele>
        <time>2022-06-08T21:34:35Z</time>
      </trkpt>
      <trkpt lat="44.12423" lon="6.33176">
        <ele>928</ele>
        <time>2022-06-08T21:34:44Z</time>
      </trkpt>
      <trkpt lat="44.12417" lon="6.33243">
        <ele>934</ele>
        <time>2022-06-08T21:34:55Z</time>
      </trkpt>
      <trkpt lat="44.12409" lon="6.33287">
        <ele>940</ele>
        <time>2022-06-08T21:35:03Z</time>
      </trkpt>
      <trkpt lat="44.12382" lon="6.33342">
        <ele>946</ele>
        <time>2022-06-08T21:35:14Z</time>
      </trkpt>
      <trkpt lat="44.12345" lon="6.33346">
        <ele>942</ele>
        <time>2022-06-08T21:35:22Z</time>
      </trkpt>
      <trkpt lat="44.12298" lon="6.33363">
        <ele>945</ele>
        <time>2022-06-08T21:35:34Z</time>
      </trkpt>
      <trkpt lat="44.12226" lon="6.33384">
        <ele>951</ele>
        <time>2022-06-08T21:35:51Z</time>
      </trkpt>
      <trkpt lat="44.12183" lon="6.33376">
        <ele>950</ele>
        <time>2022-06-08T21:36:01Z</time>
      </trkpt>
      <trkpt lat="44.12149" lon="6.33379">
        <ele>949</ele>
        <time>2022-06-08T21:36:09Z</time>
      </trkpt>
      <trkpt lat="44.1214" lon="6.33413">
        <ele>954</ele>
        <time>2022-06-08T21:36:15Z</time>
      </trkpt>
      <trkpt lat="44.12142" lon="6.33418">
        <ele>955</ele>
        <time>2022-06-08T21:36:16Z</time>
      </trkpt>
      <trkpt lat="44.12139" lon="6.33418">
        <ele>955</ele>
        <time>2022-06-08T21:36:17Z</time>
      </trkpt>
      <trkpt lat="44.12142" lon="6.33421">
        <ele>955</ele>
        <time>2022-06-08T21:36:18Z</time>
      </trkpt>
      <trkpt lat="44.12139" lon="6.33417">
        <ele>954</ele>
        <time>2022-06-08T21:36:19Z</time>
      </trkpt>
      <trkpt lat="44.1214" lon="6.33421">
        <ele>955</ele>
        <time>2022-06-08T21:36:19Z</time>
      </trkpt>
      <trkpt lat="44.12143" lon="6.33422">
        <ele>956</ele>
        <time>2022-06-08T21:36:20Z</time>
      </trkpt>
      <trkpt lat="44.12139" lon="6.3342">
        <ele>955</ele>
        <time>2022-06-08T21:36:21Z</time>
      </trkpt>
      <trkpt lat="44.12139" lon="6.33415">
        <ele>954</ele>
        <time>2022-06-08T21:36:22Z</time>
      </trkpt>
      <trkpt lat="44.12137" lon="6.33418">
        <ele>954</ele>
        <time>2022-06-08T21:36:23Z</time>
      </trkpt>
      <trkpt lat="44.12141" lon="6.33414">
        <ele>954</ele>
        <time>2022-06-08T21:36:24Z</time>
      </trkpt>
      <trkpt lat="44.12139" lon="6.33416">
        <ele>954</ele>
        <time>2022-06-08T21:36:24Z</time>
      </trkpt>
      <trkpt lat="44.12142" lon="6.33419">
        <ele>955</ele>
        <time>2022-06-08T21:36:25Z</time>
      </trkpt>
      <trkpt lat="44.1214" lon="6.33416">
        <ele>954</ele>
        <time>2022-06-08T21:36:26Z</time>
      </trkpt>
      <trkpt lat="44.1214" lon="6.3342">
        <ele>955</ele>
        <time>2022-06-08T21:36:27Z</time>
      </trkpt>
      <trkpt lat="44.12141" lon="6.33412">
        <ele>954</ele>
        <time>2022-06-08T21:36:28Z</time>
      </trkpt>
      <trkpt lat="44.12137" lon="6.33422">
        <ele>955</ele>
        <time>2022-06-08T21:36:30Z</time>
      </trkpt>
      <trkpt lat="44.12139" lon="6.33424">
        <ele>955</ele>
        <time>2022-06-08T21:36:30Z</time>
      </trkpt>
      <trkpt lat="44.12141" lon="6.33419">
        <ele>955</ele>
        <time>2022-06-08T21:36:31Z</time>
      </trkpt>
      <trkpt lat="44.12139" lon="6.33417">
        <ele>954</ele>
        <time>2022-06-08T21:36:32Z</time>
      </trkpt>
      <trkpt lat="44.12138" lon="6.33421">
        <ele>955</ele>
        <time>2022-06-08T21:36:33Z</time>
      </trkpt>
      <trkpt lat="44.12138" lon="6.33408">
        <ele>953</ele>
        <time>2022-06-08T21:36:35Z</time>
      </trkpt>
      <trkpt lat="44.12144" lon="6.33404">
        <ele>953</ele>
        <time>2022-06-08T21:36:36Z</time>
      </trkpt>
      <trkpt lat="44.12156" lon="6.33404">
        <ele>954</ele>
        <time>2022-06-08T21:36:39Z</time>
      </trkpt>
      <trkpt lat="44.12174" lon="6.33411">
        <ele>957</ele>
        <time>2022-06-08T21:36:44Z</time>
      </trkpt>
      <trkpt lat="44.12195" lon="6.33414">
        <ele>958</ele>
        <time>2022-06-08T21:36:48Z</time>
      </trkpt>
      <trkpt lat="44.12257" lon="6.33436">
        <ele>963</ele>
        <time>2022-06-08T21:37:03Z</time>
      </trkpt>
      <trkpt lat="44.12276" lon="6.33428">
        <ele>962</ele>
        <time>2022-06-08T21:37:08Z</time>
      </trkpt>
      <trkpt lat="44.12329" lon="6.33414">
        <ele>959</ele>
        <time>2022-06-08T21:37:21Z</time>
      </trkpt>
      <trkpt lat="44.12361" lon="6.33403">
        <ele>957</ele>
        <time>2022-06-08T21:37:28Z</time>
      </trkpt>
      <trkpt lat="44.12369" lon="6.33404">
        <ele>958</ele>
        <time>2022-06-08T21:37:30Z</time>
      </trkpt>
      <trkpt lat="44.12394" lon="6.3342">
        <ele>961</ele>
        <time>2022-06-08T21:37:37Z</time>
      </trkpt>
      <trkpt lat="44.1245" lon="6.33448">
        <ele>965</ele>
        <time>2022-06-08T21:37:51Z</time>
      </trkpt>
      <trkpt lat="44.12449" lon="6.33454">
        <ele>965</ele>
        <time>2022-06-08T21:37:52Z</time>
      </trkpt>
      <trkpt lat="44.12469" lon="6.3351">
        <ele>966</ele>
        <time>2022-06-08T21:38:02Z</time>
      </trkpt>
      <trkpt lat="44.12527" lon="6.33576">
        <ele>964</ele>
        <time>2022-06-08T21:38:20Z</time>
      </trkpt>
      <trkpt lat="44.12534" lon="6.33579">
        <ele>964</ele>
        <time>2022-06-08T21:38:21Z</time>
      </trkpt>
      <trkpt lat="44.1254" lon="6.33577">
        <ele>963</ele>
        <time>2022-06-08T21:38:23Z</time>
      </trkpt>
      <trkpt lat="44.12556" lon="6.33579">
        <ele>961</ele>
        <time>2022-06-08T21:38:26Z</time>
      </trkpt>
      <trkpt lat="44.12601" lon="6.33597">
        <ele>960</ele>
        <time>2022-06-08T21:38:37Z</time>
      </trkpt>
      <trkpt lat="44.1263" lon="6.33619">
        <ele>960</ele>
        <time>2022-06-08T21:38:45Z</time>
      </trkpt>
      <trkpt lat="44.12649" lon="6.33643">
        <ele>961</ele>
        <time>2022-06-08T21:38:51Z</time>
      </trkpt>
      <trkpt lat="44.12675" lon="6.33665">
        <ele>960</ele>
        <time>2022-06-08T21:38:58Z</time>
      </trkpt>
      <trkpt lat="44.12692" lon="6.33696">
        <ele>962</ele>
        <time>2022-06-08T21:39:05Z</time>
      </trkpt>
      <trkpt lat="44.12695" lon="6.33734">
        <ele>968</ele>
        <time>2022-06-08T21:39:11Z</time>
      </trkpt>
      <trkpt lat="44.12701" lon="6.3374">
        <ele>969</ele>
        <time>2022-06-08T21:39:13Z</time>
      </trkpt>
      <trkpt lat="44.12722" lon="6.33728">
        <ele>965</ele>
        <time>2022-06-08T21:39:18Z</time>
      </trkpt>
      <trkpt lat="44.12765" lon="6.33718">
        <ele>964</ele>
        <time>2022-06-08T21:39:28Z</time>
      </trkpt>
      <trkpt lat="44.12785" lon="6.33708">
        <ele>966</ele>
        <time>2022-06-08T21:39:33Z</time>
      </trkpt>
      <trkpt lat="44.12834" lon="6.33674">
        <ele>968</ele>
        <time>2022-06-08T21:39:46Z</time>
      </trkpt>
      <trkpt lat="44.12863" lon="6.33646">
        <ele>965</ele>
        <time>2022-06-08T21:39:54Z</time>
      </trkpt>
      <trkpt lat="44.12881" lon="6.33634">
        <ele>965</ele>
        <time>2022-06-08T21:39:59Z</time>
      </trkpt>
      <trkpt lat="44.12901" lon="6.33638">
        <ele>969</ele>
        <time>2022-06-08T21:40:04Z</time>
      </trkpt>
      <trkpt lat="44.1292" lon="6.33661">
        <ele>978</ele>
        <time>2022-06-08T21:40:10Z</time>
      </trkpt>
      <trkpt lat="44.12924" lon="6.33662">
        <ele>978</ele>
        <time>2022-06-08T21:40:10Z</time>
      </trkpt>
      <trkpt lat="44.12957" lon="6.33621">
        <ele>971</ele>
        <time>2022-06-08T21:40:21Z</time>
      </trkpt>
      <trkpt lat="44.12981" lon="6.33609">
        <ele>971</ele>
        <time>2022-06-08T21:40:27Z</time>
      </trkpt>
      <trkpt lat="44.13023" lon="6.33612">
        <ele>972</ele>
        <time>2022-06-08T21:40:37Z</time>
      </trkpt>
      <trkpt lat="44.13034" lon="6.33619">
        <ele>972</ele>
        <time>2022-06-08T21:40:39Z</time>
      </trkpt>
      <trkpt lat="44.13064" lon="6.33649">
        <ele>971</ele>
        <time>2022-06-08T21:40:48Z</time>
      </trkpt>
      <trkpt lat="44.13077" lon="6.33654">
        <ele>970</ele>
        <time>2022-06-08T21:40:51Z</time>
      </trkpt>
      <trkpt lat="44.13107" lon="6.33645">
        <ele>967</ele>
        <time>2022-06-08T21:40:58Z</time>
      </trkpt>
      <trkpt lat="44.13121" lon="6.33647">
        <ele>966</ele>
        <time>2022-06-08T21:41:02Z</time>
      </trkpt>
      <trkpt lat="44.13136" lon="6.33657">
        <ele>965</ele>
        <time>2022-06-08T21:41:06Z</time>
      </trkpt>
      <trkpt lat="44.13164" lon="6.33683">
        <ele>965</ele>
        <time>2022-06-08T21:41:13Z</time>
      </trkpt>
      <trkpt lat="44.13185" lon="6.33695">
        <ele>963</ele>
        <time>2022-06-08T21:41:19Z</time>
      </trkpt>
      <trkpt lat="44.13207" lon="6.33703">
        <ele>961</ele>
        <time>2022-06-08T21:41:24Z</time>
      </trkpt>
      <trkpt lat="44.13223" lon="6.33701">
        <ele>959</ele>
        <time>2022-06-08T21:41:28Z</time>
      </trkpt>
      <trkpt lat="44.13286" lon="6.33683">
        <ele>949</ele>
        <time>2022-06-08T21:41:43Z</time>
      </trkpt>
      <trkpt lat="44.13386" lon="6.33688">
        <ele>939</ele>
        <time>2022-06-08T21:42:06Z</time>
      </trkpt>
      <trkpt lat="44.1342" lon="6.33694">
        <ele>935</ele>
        <time>2022-06-08T21:42:14Z</time>
      </trkpt>
      <trkpt lat="44.13427" lon="6.33753">
        <ele>935</ele>
        <time>2022-06-08T21:42:24Z</time>
      </trkpt>
      <trkpt lat="44.13426" lon="6.33778">
        <ele>930</ele>
        <time>2022-06-08T21:42:28Z</time>
      </trkpt>
      <trkpt lat="44.13406" lon="6.33815">
        <ele>928</ele>
        <time>2022-06-08T21:42:36Z</time>
      </trkpt>
      <trkpt lat="44.13394" lon="6.33831">
        <ele>927</ele>
        <time>2022-06-08T21:42:40Z</time>
      </trkpt>
      <trkpt lat="44.13381" lon="6.3384">
        <ele>927</ele>
        <time>2022-06-08T21:42:43Z</time>
      </trkpt>
      <trkpt lat="44.13373" lon="6.33853">
        <ele>925</ele>
        <time>2022-06-08T21:42:46Z</time>
      </trkpt>
      <trkpt lat="44.13361" lon="6.33877">
        <ele>920</ele>
        <time>2022-06-08T21:42:51Z</time>
      </trkpt>
      <trkpt lat="44.13355" lon="6.33904">
        <ele>913</ele>
        <time>2022-06-08T21:42:56Z</time>
      </trkpt>
      <trkpt lat="44.1332" lon="6.33938">
        <ele>911</ele>
        <time>2022-06-08T21:43:06Z</time>
      </trkpt>
      <trkpt lat="44.13302" lon="6.33968">
        <ele>907</ele>
        <time>2022-06-08T21:43:12Z</time>
      </trkpt>
      <trkpt lat="44.13284" lon="6.33992">
        <ele>906</ele>
        <time>2022-06-08T21:43:18Z</time>
      </trkpt>
      <trkpt lat="44.13267" lon="6.34035">
        <ele>898</ele>
        <time>2022-06-08T21:43:26Z</time>
      </trkpt>
      <trkpt lat="44.13261" lon="6.341">
        <ele>884</ele>
        <time>2022-06-08T21:43:37Z</time>
      </trkpt>
      <trkpt lat="44.13245" lon="6.3416">
        <ele>877</ele>
        <time>2022-06-08T21:43:48Z</time>
      </trkpt>
      <trkpt lat="44.13249" lon="6.34167">
        <ele>874</ele>
        <time>2022-06-08T21:43:50Z</time>
      </trkpt>
      <trkpt lat="44.13268" lon="6.3416">
        <ele>873</ele>
        <time>2022-06-08T21:43:54Z</time>
      </trkpt>
      <trkpt lat="44.13273" lon="6.34161">
        <ele>873</ele>
        <time>2022-06-08T21:43:55Z</time>
      </trkpt>
      <trkpt lat="44.1329" lon="6.34154">
        <ele>872</ele>
        <time>2022-06-08T21:44:00Z</time>
      </trkpt>
      <trkpt lat="44.13299" lon="6.34155">
        <ele>871</ele>
        <time>2022-06-08T21:44:02Z</time>
      </trkpt>
      <trkpt lat="44.13309" lon="6.34162">
        <ele>869</ele>
        <time>2022-06-08T21:44:04Z</time>
      </trkpt>
      <trkpt lat="44.13317" lon="6.34164">
        <ele>868</ele>
        <time>2022-06-08T21:44:06Z</time>
      </trkpt>
      <trkpt lat="44.13339" lon="6.34166">
        <ele>865</ele>
        <time>2022-06-08T21:44:11Z</time>
      </trkpt>
      <trkpt lat="44.13346" lon="6.34187">
        <ele>865</ele>
        <time>2022-06-08T21:44:15Z</time>
      </trkpt>
      <trkpt lat="44.1336" lon="6.34211">
        <ele>864</ele>
        <time>2022-06-08T21:44:20Z</time>
      </trkpt>
      <trkpt lat="44.13407" lon="6.34233">
        <ele>864</ele>
        <time>2022-06-08T21:44:32Z</time>
      </trkpt>
      <trkpt lat="44.13431" lon="6.34251">
        <ele>865</ele>
        <time>2022-06-08T21:44:38Z</time>
      </trkpt>
      <trkpt lat="44.13453" lon="6.34273">
        <ele>866</ele>
        <time>2022-06-08T21:44:45Z</time>
      </trkpt>
      <trkpt lat="44.13447" lon="6.34294">
        <ele>868</ele>
        <time>2022-06-08T21:44:48Z</time>
      </trkpt>
      <trkpt lat="44.13449" lon="6.34294">
        <ele>868</ele>
        <time>2022-06-08T21:44:49Z</time>
      </trkpt>
      <trkpt lat="44.13452" lon="6.34286">
        <ele>867</ele>
        <time>2022-06-08T21:44:50Z</time>
      </trkpt>
      <trkpt lat="44.13465" lon="6.34272">
        <ele>866</ele>
        <time>2022-06-08T21:44:54Z</time>
      </trkpt>
      <trkpt lat="44.13486" lon="6.34282">
        <ele>866</ele>
        <time>2022-06-08T21:44:59Z</time>
      </trkpt>
      <trkpt lat="44.135" lon="6.34297">
        <ele>867</ele>
        <time>2022-06-08T21:45:04Z</time>
      </trkpt>
      <trkpt lat="44.13533" lon="6.34316">
        <ele>863</ele>
        <time>2022-06-08T21:45:12Z</time>
      </trkpt>
      <trkpt lat="44.13549" lon="6.34335">
        <ele>862</ele>
        <time>2022-06-08T21:45:17Z</time>
      </trkpt>
      <trkpt lat="44.13556" lon="6.3434">
        <ele>861</ele>
        <time>2022-06-08T21:45:19Z</time>
      </trkpt>
      <trkpt lat="44.1357" lon="6.34345">
        <ele>860</ele>
        <time>2022-06-08T21:45:22Z</time>
      </trkpt>
      <trkpt lat="44.13585" lon="6.34344">
        <ele>858</ele>
        <time>2022-06-08T21:45:26Z</time>
      </trkpt>
      <trkpt lat="44.13601" lon="6.34332">
        <ele>857</ele>
        <time>2022-06-08T21:45:30Z</time>
      </trkpt>
      <trkpt lat="44.13623" lon="6.34305">
        <ele>855</ele>
        <time>2022-06-08T21:45:37Z</time>
      </trkpt>
      <trkpt lat="44.13644" lon="6.34285">
        <ele>853</ele>
        <time>2022-06-08T21:45:43Z</time>
      </trkpt>
      <trkpt lat="44.13667" lon="6.34269">
        <ele>851</ele>
        <time>2022-06-08T21:45:49Z</time>
      </trkpt>
      <trkpt lat="44.13686" lon="6.34262">
        <ele>849</ele>
        <time>2022-06-08T21:45:53Z</time>
      </trkpt>
      <trkpt lat="44.13698" lon="6.3426">
        <ele>848</ele>
        <time>2022-06-08T21:45:56Z</time>
      </trkpt>
      <trkpt lat="44.13722" lon="6.34261">
        <ele>847</ele>
        <time>2022-06-08T21:46:02Z</time>
      </trkpt>
      <trkpt lat="44.13782" lon="6.34287">
        <ele>841</ele>
        <time>2022-06-08T21:46:16Z</time>
      </trkpt>
      <trkpt lat="44.13868" lon="6.34288">
        <ele>828</ele>
        <time>2022-06-08T21:46:36Z</time>
      </trkpt>
      <trkpt lat="44.139" lon="6.34296">
        <ele>823</ele>
        <time>2022-06-08T21:46:44Z</time>
      </trkpt>
      <trkpt lat="44.13929" lon="6.34298">
        <ele>818</ele>
        <time>2022-06-08T21:46:51Z</time>
      </trkpt>
      <trkpt lat="44.13958" lon="6.34281">
        <ele>813</ele>
        <time>2022-06-08T21:46:58Z</time>
      </trkpt>
      <trkpt lat="44.13963" lon="6.34265">
        <ele>813</ele>
        <time>2022-06-08T21:47:01Z</time>
      </trkpt>
      <trkpt lat="44.13964" lon="6.34245">
        <ele>813</ele>
        <time>2022-06-08T21:47:04Z</time>
      </trkpt>
      <trkpt lat="44.13974" lon="6.34222">
        <ele>813</ele>
        <time>2022-06-08T21:47:09Z</time>
      </trkpt>
      <trkpt lat="44.13982" lon="6.34229">
        <ele>810</ele>
        <time>2022-06-08T21:47:11Z</time>
      </trkpt>
      <trkpt lat="44.14005" lon="6.34237">
        <ele>807</ele>
        <time>2022-06-08T21:47:17Z</time>
      </trkpt>
      <trkpt lat="44.14023" lon="6.34271">
        <ele>811</ele>
        <time>2022-06-08T21:47:24Z</time>
      </trkpt>
      <trkpt lat="44.14037" lon="6.34279">
        <ele>814</ele>
        <time>2022-06-08T21:47:27Z</time>
      </trkpt>
      <trkpt lat="44.14057" lon="6.34301">
        <ele>818</ele>
        <time>2022-06-08T21:47:33Z</time>
      </trkpt>
      <trkpt lat="44.14056" lon="6.34317">
        <ele>816</ele>
        <time>2022-06-08T21:47:36Z</time>
      </trkpt>
      <trkpt lat="44.1406" lon="6.34325">
        <ele>816</ele>
        <time>2022-06-08T21:47:38Z</time>
      </trkpt>
      <trkpt lat="44.14065" lon="6.34329">
        <ele>817</ele>
        <time>2022-06-08T21:47:39Z</time>
      </trkpt>
      <trkpt lat="44.1408" lon="6.34334">
        <ele>819</ele>
        <time>2022-06-08T21:47:42Z</time>
      </trkpt>
      <trkpt lat="44.14086" lon="6.34346">
        <ele>820</ele>
        <time>2022-06-08T21:47:45Z</time>
      </trkpt>
      <trkpt lat="44.1409" lon="6.34348">
        <ele>820</ele>
        <time>2022-06-08T21:47:46Z</time>
      </trkpt>
      <trkpt lat="44.14118" lon="6.34411">
        <ele>818</ele>
        <time>2022-06-08T21:47:58Z</time>
      </trkpt>
      <trkpt lat="44.14147" lon="6.34429">
        <ele>819</ele>
        <time>2022-06-08T21:48:06Z</time>
      </trkpt>
      <trkpt lat="44.14162" lon="6.34417">
        <ele>821</ele>
        <time>2022-06-08T21:48:10Z</time>
      </trkpt>
      <trkpt lat="44.14166" lon="6.34402">
        <ele>824</ele>
        <time>2022-06-08T21:48:12Z</time>
      </trkpt>
      <trkpt lat="44.14172" lon="6.34393">
        <ele>827</ele>
        <time>2022-06-08T21:48:15Z</time>
      </trkpt>
      <trkpt lat="44.14178" lon="6.34397">
        <ele>827</ele>
        <time>2022-06-08T21:48:16Z</time>
      </trkpt>
      <trkpt lat="44.14186" lon="6.34408">
        <ele>826</ele>
        <time>2022-06-08T21:48:19Z</time>
      </trkpt>
      <trkpt lat="44.14193" lon="6.34435">
        <ele>825</ele>
        <time>2022-06-08T21:48:24Z</time>
      </trkpt>
      <trkpt lat="44.14216" lon="6.3443">
        <ele>829</ele>
        <time>2022-06-08T21:48:29Z</time>
      </trkpt>
      <trkpt lat="44.14225" lon="6.34441">
        <ele>829</ele>
        <time>2022-06-08T21:48:32Z</time>
      </trkpt>
      <trkpt lat="44.14249" lon="6.34453">
        <ele>832</ele>
        <time>2022-06-08T21:48:38Z</time>
      </trkpt>
      <trkpt lat="44.14257" lon="6.34464">
        <ele>832</ele>
        <time>2022-06-08T21:48:40Z</time>
      </trkpt>
      <trkpt lat="44.14307" lon="6.34504">
        <ele>837</ele>
        <time>2022-06-08T21:48:54Z</time>
      </trkpt>
      <trkpt lat="44.14313" lon="6.34512">
        <ele>838</ele>
        <time>2022-06-08T21:48:56Z</time>
      </trkpt>
      <trkpt lat="44.14341" lon="6.34513">
        <ele>842</ele>
        <time>2022-06-08T21:49:02Z</time>
      </trkpt>
      <trkpt lat="44.14347" lon="6.34521">
        <ele>842</ele>
        <time>2022-06-08T21:49:04Z</time>
      </trkpt>
      <trkpt lat="44.14343" lon="6.34529">
        <ele>841</ele>
        <time>2022-06-08T21:49:06Z</time>
      </trkpt>
      <trkpt lat="44.14355" lon="6.34558">
        <ele>839</ele>
        <time>2022-06-08T21:49:11Z</time>
      </trkpt>
      <trkpt lat="44.1437" lon="6.34556">
        <ele>841</ele>
        <time>2022-06-08T21:49:15Z</time>
      </trkpt>
      <trkpt lat="44.14375" lon="6.34568">
        <ele>840</ele>
        <time>2022-06-08T21:49:17Z</time>
      </trkpt>
      <trkpt lat="44.14369" lon="6.34588">
        <ele>838</ele>
        <time>2022-06-08T21:49:21Z</time>
      </trkpt>
      <trkpt lat="44.14365" lon="6.34655">
        <ele>844</ele>
        <time>2022-06-08T21:49:32Z</time>
      </trkpt>
      <trkpt lat="44.14381" lon="6.34704">
        <ele>845</ele>
        <time>2022-06-08T21:49:41Z</time>
      </trkpt>
      <trkpt lat="44.14394" lon="6.34717">
        <ele>846</ele>
        <time>2022-06-08T21:49:45Z</time>
      </trkpt>
      <trkpt lat="44.14422" lon="6.34732">
        <ele>847</ele>
        <time>2022-06-08T21:49:52Z</time>
      </trkpt>
      <trkpt lat="44.14432" lon="6.34757">
        <ele>847</ele>
        <time>2022-06-08T21:49:57Z</time>
      </trkpt>
      <trkpt lat="44.14439" lon="6.34762">
        <ele>848</ele>
        <time>2022-06-08T21:49:59Z</time>
      </trkpt>
      <trkpt lat="44.14457" lon="6.34783">
        <ele>849</ele>
        <time>2022-06-08T21:50:04Z</time>
      </trkpt>
      <trkpt lat="44.14453" lon="6.34797">
        <ele>846</ele>
        <time>2022-06-08T21:50:07Z</time>
      </trkpt>
      <trkpt lat="44.14477" lon="6.34796">
        <ele>851</ele>
        <time>2022-06-08T21:50:12Z</time>
      </trkpt>
      <trkpt lat="44.14497" lon="6.34803">
        <ele>853</ele>
        <time>2022-06-08T21:50:17Z</time>
      </trkpt>
      <trkpt lat="44.145" lon="6.34806">
        <ele>853</ele>
        <time>2022-06-08T21:50:18Z</time>
      </trkpt>
      <trkpt lat="44.14517" lon="6.34802">
        <ele>857</ele>
        <time>2022-06-08T21:50:22Z</time>
      </trkpt>
      <trkpt lat="44.14527" lon="6.34815">
        <ele>857</ele>
        <time>2022-06-08T21:50:25Z</time>
      </trkpt>
      <trkpt lat="44.1454" lon="6.34819">
        <ele>858</ele>
        <time>2022-06-08T21:50:28Z</time>
      </trkpt>
      <trkpt lat="44.14563" lon="6.34834">
        <ele>860</ele>
        <time>2022-06-08T21:50:34Z</time>
      </trkpt>
      <trkpt lat="44.14594" lon="6.34845">
        <ele>865</ele>
        <time>2022-06-08T21:50:42Z</time>
      </trkpt>
      <trkpt lat="44.1461" lon="6.34856">
        <ele>867</ele>
        <time>2022-06-08T21:50:46Z</time>
      </trkpt>
      <trkpt lat="44.14618" lon="6.34866">
        <ele>868</ele>
        <time>2022-06-08T21:50:48Z</time>
      </trkpt>
      <trkpt lat="44.14619" lon="6.34871">
        <ele>868</ele>
        <time>2022-06-08T21:50:49Z</time>
      </trkpt>
      <trkpt lat="44.146" lon="6.34885">
        <ele>862</ele>
        <time>2022-06-08T21:50:54Z</time>
      </trkpt>
      <trkpt lat="44.14593" lon="6.34886">
        <ele>860</ele>
        <time>2022-06-08T21:50:56Z</time>
      </trkpt>
      <trkpt lat="44.1459" lon="6.34896">
        <ele>858</ele>
        <time>2022-06-08T21:50:58Z</time>
      </trkpt>
      <trkpt lat="44.14602" lon="6.34928">
        <ele>858</ele>
        <time>2022-06-08T21:51:04Z</time>
      </trkpt>
      <trkpt lat="44.14637" lon="6.3497">
        <ele>866</ele>
        <time>2022-06-08T21:51:14Z</time>
      </trkpt>
      <trkpt lat="44.14639" lon="6.34988">
        <ele>865</ele>
        <time>2022-06-08T21:51:18Z</time>
      </trkpt>
      <trkpt lat="44.14655" lon="6.35004">
        <ele>869</ele>
        <time>2022-06-08T21:51:22Z</time>
      </trkpt>
      <trkpt lat="44.14659" lon="6.35012">
        <ele>869</ele>
        <time>2022-06-08T21:51:24Z</time>
      </trkpt>
      <trkpt lat="44.14669" lon="6.35011">
        <ele>871</ele>
        <time>2022-06-08T21:51:26Z</time>
      </trkpt>
      <trkpt lat="44.14688" lon="6.35001">
        <ele>875</ele>
        <time>2022-06-08T21:51:31Z</time>
      </trkpt>
      <trkpt lat="44.14698" lon="6.34992">
        <ele>877</ele>
        <time>2022-06-08T21:51:34Z</time>
      </trkpt>
      <trkpt lat="44.14718" lon="6.34985">
        <ele>880</ele>
        <time>2022-06-08T21:51:38Z</time>
      </trkpt>
      <trkpt lat="44.14727" lon="6.34983">
        <ele>881</ele>
        <time>2022-06-08T21:51:41Z</time>
      </trkpt>
      <trkpt lat="44.14752" lon="6.34987">
        <ele>885</ele>
        <time>2022-06-08T21:51:46Z</time>
      </trkpt>
      <trkpt lat="44.14745" lon="6.35001">
        <ele>882</ele>
        <time>2022-06-08T21:51:49Z</time>
      </trkpt>
      <trkpt lat="44.14714" lon="6.35026">
        <ele>877</ele>
        <time>2022-06-08T21:51:58Z</time>
      </trkpt>
      <trkpt lat="44.14706" lon="6.3505">
        <ele>875</ele>
        <time>2022-06-08T21:52:02Z</time>
      </trkpt>
      <trkpt lat="44.14714" lon="6.35087">
        <ele>874</ele>
        <time>2022-06-08T21:52:09Z</time>
      </trkpt>
      <trkpt lat="44.14742" lon="6.35112">
        <ele>877</ele>
        <time>2022-06-08T21:52:16Z</time>
      </trkpt>
      <trkpt lat="44.14748" lon="6.3512">
        <ele>878</ele>
        <time>2022-06-08T21:52:18Z</time>
      </trkpt>
      <trkpt lat="44.14746" lon="6.35148">
        <ele>874</ele>
        <time>2022-06-08T21:52:23Z</time>
      </trkpt>
      <trkpt lat="44.14749" lon="6.35164">
        <ele>873</ele>
        <time>2022-06-08T21:52:26Z</time>
      </trkpt>
      <trkpt lat="44.14743" lon="6.35187">
        <ele>870</ele>
        <time>2022-06-08T21:52:30Z</time>
      </trkpt>
      <trkpt lat="44.14719" lon="6.35204">
        <ele>865</ele>
        <time>2022-06-08T21:52:36Z</time>
      </trkpt>
      <trkpt lat="44.14728" lon="6.35238">
        <ele>863</ele>
        <time>2022-06-08T21:52:42Z</time>
      </trkpt>
      <trkpt lat="44.14769" lon="6.35265">
        <ele>867</ele>
        <time>2022-06-08T21:52:53Z</time>
      </trkpt>
      <trkpt lat="44.14789" lon="6.35288">
        <ele>870</ele>
        <time>2022-06-08T21:52:59Z</time>
      </trkpt>
      <trkpt lat="44.1481" lon="6.35332">
        <ele>871</ele>
        <time>2022-06-08T21:53:08Z</time>
      </trkpt>
      <trkpt lat="44.14807" lon="6.35362">
        <ele>871</ele>
        <time>2022-06-08T21:53:13Z</time>
      </trkpt>
      <trkpt lat="44.14819" lon="6.35397">
        <ele>872</ele>
        <time>2022-06-08T21:53:19Z</time>
      </trkpt>
      <trkpt lat="44.14863" lon="6.35453">
        <ele>877</ele>
        <time>2022-06-08T21:53:33Z</time>
      </trkpt>
      <trkpt lat="44.14884" lon="6.35458">
        <ele>878</ele>
        <time>2022-06-08T21:53:38Z</time>
      </trkpt>
      <trkpt lat="44.14893" lon="6.35452">
        <ele>879</ele>
        <time>2022-06-08T21:53:41Z</time>
      </trkpt>
      <trkpt lat="44.14913" lon="6.35432">
        <ele>880</ele>
        <time>2022-06-08T21:53:46Z</time>
      </trkpt>
      <trkpt lat="44.14922" lon="6.35432">
        <ele>881</ele>
        <time>2022-06-08T21:53:48Z</time>
      </trkpt>
      <trkpt lat="44.14929" lon="6.35439">
        <ele>882</ele>
        <time>2022-06-08T21:53:50Z</time>
      </trkpt>
      <trkpt lat="44.1494" lon="6.35473">
        <ele>883</ele>
        <time>2022-06-08T21:53:57Z</time>
      </trkpt>
      <trkpt lat="44.1496" lon="6.35487">
        <ele>885</ele>
        <time>2022-06-08T21:54:02Z</time>
      </trkpt>
      <trkpt lat="44.14982" lon="6.35492">
        <ele>887</ele>
        <time>2022-06-08T21:54:07Z</time>
      </trkpt>
      <trkpt lat="44.14997" lon="6.35503">
        <ele>889</ele>
        <time>2022-06-08T21:54:11Z</time>
      </trkpt>
      <trkpt lat="44.15001" lon="6.35511">
        <ele>889</ele>
        <time>2022-06-08T21:54:13Z</time>
      </trkpt>
      <trkpt lat="44.15007" lon="6.35515">
        <ele>890</ele>
        <time>2022-06-08T21:54:14Z</time>
      </trkpt>
      <trkpt lat="44.15036" lon="6.35553">
        <ele>892</ele>
        <time>2022-06-08T21:54:24Z</time>
      </trkpt>
      <trkpt lat="44.15048" lon="6.35577">
        <ele>892</ele>
        <time>2022-06-08T21:54:28Z</time>
      </trkpt>
      <trkpt lat="44.15071" lon="6.35591">
        <ele>894</ele>
        <time>2022-06-08T21:54:34Z</time>
      </trkpt>
      <trkpt lat="44.15093" lon="6.356">
        <ele>895</ele>
        <time>2022-06-08T21:54:40Z</time>
      </trkpt>
      <trkpt lat="44.15156" lon="6.356">
        <ele>898</ele>
        <time>2022-06-08T21:54:54Z</time>
      </trkpt>
      <trkpt lat="44.15198" lon="6.35612">
        <ele>901</ele>
        <time>2022-06-08T21:55:04Z</time>
      </trkpt>
      <trkpt lat="44.15217" lon="6.35612">
        <ele>902</ele>
        <time>2022-06-08T21:55:09Z</time>
      </trkpt>
      <trkpt lat="44.15256" lon="6.35633">
        <ele>904</ele>
        <time>2022-06-08T21:55:19Z</time>
      </trkpt>
      <trkpt lat="44.15279" lon="6.35666">
        <ele>904</ele>
        <time>2022-06-08T21:55:26Z</time>
      </trkpt>
      <trkpt lat="44.15312" lon="6.35739">
        <ele>905</ele>
        <time>2022-06-08T21:55:41Z</time>
      </trkpt>
      <trkpt lat="44.15342" lon="6.35767">
        <ele>905</ele>
        <time>2022-06-08T21:55:49Z</time>
      </trkpt>
      <trkpt lat="44.15356" lon="6.3577">
        <ele>904</ele>
        <time>2022-06-08T21:55:52Z</time>
      </trkpt>
      <trkpt lat="44.15377" lon="6.35769">
        <ele>903</ele>
        <time>2022-06-08T21:55:57Z</time>
      </trkpt>
      <trkpt lat="44.1542" lon="6.35758">
        <ele>901</ele>
        <time>2022-06-08T21:56:08Z</time>
      </trkpt>
      <trkpt lat="44.15427" lon="6.35758">
        <ele>901</ele>
        <time>2022-06-08T21:56:09Z</time>
      </trkpt>
      <trkpt lat="44.15442" lon="6.35765">
        <ele>900</ele>
        <time>2022-06-08T21:56:13Z</time>
      </trkpt>
      <trkpt lat="44.15455" lon="6.35779">
        <ele>899</ele>
        <time>2022-06-08T21:56:17Z</time>
      </trkpt>
      <trkpt lat="44.15478" lon="6.35818">
        <ele>896</ele>
        <time>2022-06-08T21:56:25Z</time>
      </trkpt>
      <trkpt lat="44.15516" lon="6.35858">
        <ele>893</ele>
        <time>2022-06-08T21:56:36Z</time>
      </trkpt>
      <trkpt lat="44.15605" lon="6.35908">
        <ele>888</ele>
        <time>2022-06-08T21:56:59Z</time>
      </trkpt>
      <trkpt lat="44.15612" lon="6.35914">
        <ele>887</ele>
        <time>2022-06-08T21:57:01Z</time>
      </trkpt>
      <trkpt lat="44.15632" lon="6.35945">
        <ele>888</ele>
        <time>2022-06-08T21:57:08Z</time>
      </trkpt>
      <trkpt lat="44.15643" lon="6.35955">
        <ele>887</ele>
        <time>2022-06-08T21:57:11Z</time>
      </trkpt>
      <trkpt lat="44.1566" lon="6.35962">
        <ele>886</ele>
        <time>2022-06-08T21:57:15Z</time>
      </trkpt>
      <trkpt lat="44.15741" lon="6.35982">
        <ele>884</ele>
        <time>2022-06-08T21:57:34Z</time>
      </trkpt>
      <trkpt lat="44.15756" lon="6.35983">
        <ele>884</ele>
        <time>2022-06-08T21:57:38Z</time>
      </trkpt>
      <trkpt lat="44.15785" lon="6.3598">
        <ele>885</ele>
        <time>2022-06-08T21:57:44Z</time>
      </trkpt>
      <trkpt lat="44.15804" lon="6.35986">
        <ele>884</ele>
        <time>2022-06-08T21:57:49Z</time>
      </trkpt>
      <trkpt lat="44.1586" lon="6.36046">
        <ele>881</ele>
        <time>2022-06-08T21:58:05Z</time>
      </trkpt>
      <trkpt lat="44.15901" lon="6.36109">
        <ele>877</ele>
        <time>2022-06-08T21:58:20Z</time>
      </trkpt>
      <trkpt lat="44.15908" lon="6.36152">
        <ele>875</ele>
        <time>2022-06-08T21:58:27Z</time>
      </trkpt>
      <trkpt lat="44.15931" lon="6.36256">
        <ele>873</ele>
        <time>2022-06-08T21:58:45Z</time>
      </trkpt>
      <trkpt lat="44.15935" lon="6.36264">
        <ele>872</ele>
        <time>2022-06-08T21:58:47Z</time>
      </trkpt>
      <trkpt lat="44.15944" lon="6.36278">
        <ele>872</ele>
        <time>2022-06-08T21:58:50Z</time>
      </trkpt>
      <trkpt lat="44.16022" lon="6.36357">
        <ele>866</ele>
        <time>2022-06-08T21:59:13Z</time>
      </trkpt>
      <trkpt lat="44.16035" lon="6.36363">
        <ele>866</ele>
        <time>2022-06-08T21:59:16Z</time>
      </trkpt>
      <trkpt lat="44.16068" lon="6.36355">
        <ele>863</ele>
        <time>2022-06-08T21:59:24Z</time>
      </trkpt>
      <trkpt lat="44.1609" lon="6.36358">
        <ele>862</ele>
        <time>2022-06-08T21:59:29Z</time>
      </trkpt>
      <trkpt lat="44.16106" lon="6.36354">
        <ele>861</ele>
        <time>2022-06-08T21:59:33Z</time>
      </trkpt>
      <trkpt lat="44.16122" lon="6.36344">
        <ele>860</ele>
        <time>2022-06-08T21:59:37Z</time>
      </trkpt>
      <trkpt lat="44.16136" lon="6.36318">
        <ele>860</ele>
        <time>2022-06-08T21:59:42Z</time>
      </trkpt>
      <trkpt lat="44.16174" lon="6.36279">
        <ele>858</ele>
        <time>2022-06-08T21:59:53Z</time>
      </trkpt>
      <trkpt lat="44.16178" lon="6.36278">
        <ele>858</ele>
        <time>2022-06-08T21:59:54Z</time>
      </trkpt>
      <trkpt lat="44.16197" lon="6.36292">
        <ele>856</ele>
        <time>2022-06-08T21:59:59Z</time>
      </trkpt>
      <trkpt lat="44.16224" lon="6.36327">
        <ele>854</ele>
        <time>2022-06-08T22:00:08Z</time>
      </trkpt>
      <trkpt lat="44.16228" lon="6.36343">
        <ele>853</ele>
        <time>2022-06-08T22:00:11Z</time>
      </trkpt>
      <trkpt lat="44.16222" lon="6.36387">
        <ele>854</ele>
        <time>2022-06-08T22:00:18Z</time>
      </trkpt>
      <trkpt lat="44.16224" lon="6.36393">
        <ele>854</ele>
        <time>2022-06-08T22:00:19Z</time>
      </trkpt>
      <trkpt lat="44.16227" lon="6.36396">
        <ele>854</ele>
        <time>2022-06-08T22:00:20Z</time>
      </trkpt>
      <trkpt lat="44.16231" lon="6.36396">
        <ele>854</ele>
        <time>2022-06-08T22:00:21Z</time>
      </trkpt>
      <trkpt lat="44.16237" lon="6.3639">
        <ele>853</ele>
        <time>2022-06-08T22:00:23Z</time>
      </trkpt>
      <trkpt lat="44.1624" lon="6.36374">
        <ele>853</ele>
        <time>2022-06-08T22:00:25Z</time>
      </trkpt>
      <trkpt lat="44.16258" lon="6.36336">
        <ele>851</ele>
        <time>2022-06-08T22:00:33Z</time>
      </trkpt>
      <trkpt lat="44.16268" lon="6.3633">
        <ele>851</ele>
        <time>2022-06-08T22:00:36Z</time>
      </trkpt>
      <trkpt lat="44.16287" lon="6.36333">
        <ele>851</ele>
        <time>2022-06-08T22:00:40Z</time>
      </trkpt>
      <trkpt lat="44.16294" lon="6.36332">
        <ele>851</ele>
        <time>2022-06-08T22:00:42Z</time>
      </trkpt>
      <trkpt lat="44.163" lon="6.36327">
        <ele>851</ele>
        <time>2022-06-08T22:00:43Z</time>
      </trkpt>
      <trkpt lat="44.16305" lon="6.36319">
        <ele>851</ele>
        <time>2022-06-08T22:00:45Z</time>
      </trkpt>
      <trkpt lat="44.16311" lon="6.36291">
        <ele>850</ele>
        <time>2022-06-08T22:00:50Z</time>
      </trkpt>
      <trkpt lat="44.1632" lon="6.36279">
        <ele>849</ele>
        <time>2022-06-08T22:00:53Z</time>
      </trkpt>
      <trkpt lat="44.16325" lon="6.36278">
        <ele>849</ele>
        <time>2022-06-08T22:00:54Z</time>
      </trkpt>
      <trkpt lat="44.16348" lon="6.36284">
        <ele>849</ele>
        <time>2022-06-08T22:01:00Z</time>
      </trkpt>
      <trkpt lat="44.16399" lon="6.36292">
        <ele>851</ele>
        <time>2022-06-08T22:01:12Z</time>
      </trkpt>
      <trkpt lat="44.16432" lon="6.36311">
        <ele>851</ele>
        <time>2022-06-08T22:01:20Z</time>
      </trkpt>
      <trkpt lat="44.16437" lon="6.36311">
        <ele>851</ele>
        <time>2022-06-08T22:01:21Z</time>
      </trkpt>
      <trkpt lat="44.16452" lon="6.36303">
        <ele>850</ele>
        <time>2022-06-08T22:01:25Z</time>
      </trkpt>
      <trkpt lat="44.16468" lon="6.36267">
        <ele>847</ele>
        <time>2022-06-08T22:01:32Z</time>
      </trkpt>
      <trkpt lat="44.16476" lon="6.36257">
        <ele>846</ele>
        <time>2022-06-08T22:01:34Z</time>
      </trkpt>
      <trkpt lat="44.16485" lon="6.36252">
        <ele>845</ele>
        <time>2022-06-08T22:01:37Z</time>
      </trkpt>
      <trkpt lat="44.16493" lon="6.36254">
        <ele>845</ele>
        <time>2022-06-08T22:01:39Z</time>
      </trkpt>
      <trkpt lat="44.16513" lon="6.36267">
        <ele>845</ele>
        <time>2022-06-08T22:01:44Z</time>
      </trkpt>
      <trkpt lat="44.16519" lon="6.36268">
        <ele>846</ele>
        <time>2022-06-08T22:01:45Z</time>
      </trkpt>
      <trkpt lat="44.16531" lon="6.36265">
        <ele>845</ele>
        <time>2022-06-08T22:01:48Z</time>
      </trkpt>
      <trkpt lat="44.16549" lon="6.36253">
        <ele>843</ele>
        <time>2022-06-08T22:01:53Z</time>
      </trkpt>
      <trkpt lat="44.16563" lon="6.36248">
        <ele>843</ele>
        <time>2022-06-08T22:01:56Z</time>
      </trkpt>
      <trkpt lat="44.16575" lon="6.36248">
        <ele>843</ele>
        <time>2022-06-08T22:01:59Z</time>
      </trkpt>
      <trkpt lat="44.16606" lon="6.36257">
        <ele>843</ele>
        <time>2022-06-08T22:02:06Z</time>
      </trkpt>
      <trkpt lat="44.1662" lon="6.36255">
        <ele>842</ele>
        <time>2022-06-08T22:02:10Z</time>
      </trkpt>
      <trkpt lat="44.16641" lon="6.36247">
        <ele>841</ele>
        <time>2022-06-08T22:02:15Z</time>
      </trkpt>
      <trkpt lat="44.16658" lon="6.3625">
        <ele>839</ele>
        <time>2022-06-08T22:02:19Z</time>
      </trkpt>
      <trkpt lat="44.16664" lon="6.36249">
        <ele>839</ele>
        <time>2022-06-08T22:02:20Z</time>
      </trkpt>
      <trkpt lat="44.16692" lon="6.36238">
        <ele>838</ele>
        <time>2022-06-08T22:02:27Z</time>
      </trkpt>
      <trkpt lat="44.16713" lon="6.36226">
        <ele>836</ele>
        <time>2022-06-08T22:02:32Z</time>
      </trkpt>
      <trkpt lat="44.16743" lon="6.36184">
        <ele>834</ele>
        <time>2022-06-08T22:02:42Z</time>
      </trkpt>
      <trkpt lat="44.16766" lon="6.36157">
        <ele>832</ele>
        <time>2022-06-08T22:02:49Z</time>
      </trkpt>
      <trkpt lat="44.16785" lon="6.36117">
        <ele>834</ele>
        <time>2022-06-08T22:02:57Z</time>
      </trkpt>
      <trkpt lat="44.16807" lon="6.36086">
        <ele>830</ele>
        <time>2022-06-08T22:03:04Z</time>
      </trkpt>
      <trkpt lat="44.16818" lon="6.36033">
        <ele>827</ele>
        <time>2022-06-08T22:03:14Z</time>
      </trkpt>
      <trkpt lat="44.16819" lon="6.35964">
        <ele>829</ele>
        <time>2022-06-08T22:03:25Z</time>
      </trkpt>
      <trkpt lat="44.16831" lon="6.35799">
        <ele>827</ele>
        <time>2022-06-08T22:03:53Z</time>
      </trkpt>
      <trkpt lat="44.1684" lon="6.35756">
        <ele>829</ele>
        <time>2022-06-08T22:04:00Z</time>
      </trkpt>
      <trkpt lat="44.1686" lon="6.35729">
        <ele>826</ele>
        <time>2022-06-08T22:04:07Z</time>
      </trkpt>
      <trkpt lat="44.16867" lon="6.35691">
        <ele>826</ele>
        <time>2022-06-08T22:04:14Z</time>
      </trkpt>
      <trkpt lat="44.16866" lon="6.35653">
        <ele>826</ele>
        <time>2022-06-08T22:04:20Z</time>
      </trkpt>
      <trkpt lat="44.16879" lon="6.35607">
        <ele>824</ele>
        <time>2022-06-08T22:04:28Z</time>
      </trkpt>
      <trkpt lat="44.16886" lon="6.35545">
        <ele>825</ele>
        <time>2022-06-08T22:04:39Z</time>
      </trkpt>
      <trkpt lat="44.16893" lon="6.35522">
        <ele>824</ele>
        <time>2022-06-08T22:04:43Z</time>
      </trkpt>
      <trkpt lat="44.16906" lon="6.35494">
        <ele>823</ele>
        <time>2022-06-08T22:04:48Z</time>
      </trkpt>
      <trkpt lat="44.1693" lon="6.35467">
        <ele>823</ele>
        <time>2022-06-08T22:04:56Z</time>
      </trkpt>
      <trkpt lat="44.1697" lon="6.35411">
        <ele>820</ele>
        <time>2022-06-08T22:05:09Z</time>
      </trkpt>
      <trkpt lat="44.16993" lon="6.35369">
        <ele>816</ele>
        <time>2022-06-08T22:05:18Z</time>
      </trkpt>
      <trkpt lat="44.16999" lon="6.35338">
        <ele>815</ele>
        <time>2022-06-08T22:05:23Z</time>
      </trkpt>
      <trkpt lat="44.17035" lon="6.35242">
        <ele>816</ele>
        <time>2022-06-08T22:05:41Z</time>
      </trkpt>
      <trkpt lat="44.17039" lon="6.35218">
        <ele>815</ele>
        <time>2022-06-08T22:05:45Z</time>
      </trkpt>
      <trkpt lat="44.17031" lon="6.35185">
        <ele>818</ele>
        <time>2022-06-08T22:05:51Z</time>
      </trkpt>
      <trkpt lat="44.17026" lon="6.35135">
        <ele>818</ele>
        <time>2022-06-08T22:06:00Z</time>
      </trkpt>
      <trkpt lat="44.17028" lon="6.35103">
        <ele>817</ele>
        <time>2022-06-08T22:06:05Z</time>
      </trkpt>
      <trkpt lat="44.17034" lon="6.35092">
        <ele>815</ele>
        <time>2022-06-08T22:06:07Z</time>
      </trkpt>
      <trkpt lat="44.17046" lon="6.35086">
        <ele>813</ele>
        <time>2022-06-08T22:06:10Z</time>
      </trkpt>
      <trkpt lat="44.17053" lon="6.35079">
        <ele>812</ele>
        <time>2022-06-08T22:06:12Z</time>
      </trkpt>
      <trkpt lat="44.17062" lon="6.35064">
        <ele>814</ele>
        <time>2022-06-08T22:06:16Z</time>
      </trkpt>
      <trkpt lat="44.17072" lon="6.35053">
        <ele>813</ele>
        <time>2022-06-08T22:06:19Z</time>
      </trkpt>
      <trkpt lat="44.17094" lon="6.35038">
        <ele>811</ele>
        <time>2022-06-08T22:06:24Z</time>
      </trkpt>
      <trkpt lat="44.17103" lon="6.35029">
        <ele>811</ele>
        <time>2022-06-08T22:06:27Z</time>
      </trkpt>
      <trkpt lat="44.1711" lon="6.35018">
        <ele>812</ele>
        <time>2022-06-08T22:06:29Z</time>
      </trkpt>
      <trkpt lat="44.17133" lon="6.34967">
        <ele>809</ele>
        <time>2022-06-08T22:06:40Z</time>
      </trkpt>
      <trkpt lat="44.17177" lon="6.34999">
        <ele>804</ele>
        <time>2022-06-08T22:06:51Z</time>
      </trkpt>
      <trkpt lat="44.1718" lon="6.35005">
        <ele>804</ele>
        <time>2022-06-08T22:06:52Z</time>
      </trkpt>
      <trkpt lat="44.17198" lon="6.35018">
        <ele>803</ele>
        <time>2022-06-08T22:06:57Z</time>
      </trkpt>
      <trkpt lat="44.17263" lon="6.3506">
        <ele>802</ele>
        <time>2022-06-08T22:07:14Z</time>
      </trkpt>
      <trkpt lat="44.17275" lon="6.35066">
        <ele>802</ele>
        <time>2022-06-08T22:07:17Z</time>
      </trkpt>
      <trkpt lat="44.17353" lon="6.35089">
        <ele>802</ele>
        <time>2022-06-08T22:07:35Z</time>
      </trkpt>
      <trkpt lat="44.17388" lon="6.35107">
        <ele>805</ele>
        <time>2022-06-08T22:07:44Z</time>
      </trkpt>
      <trkpt lat="44.17388" lon="6.35104">
        <ele>805</ele>
        <time>2022-06-08T22:07:45Z</time>
      </trkpt>
      <trkpt lat="44.17391" lon="6.35103">
        <ele>805</ele>
        <time>2022-06-08T22:07:45Z</time>
      </trkpt>
      <trkpt lat="44.17392" lon="6.35106">
        <ele>806</ele>
        <time>2022-06-08T22:07:46Z</time>
      </trkpt>
      <trkpt lat="44.17387" lon="6.35109">
        <ele>806</ele>
        <time>2022-06-08T22:07:47Z</time>
      </trkpt>
      <trkpt lat="44.17388" lon="6.35117">
        <ele>807</ele>
        <time>2022-06-08T22:07:49Z</time>
      </trkpt>
      <trkpt lat="44.17384" lon="6.3511">
        <ele>806</ele>
        <time>2022-06-08T22:07:50Z</time>
      </trkpt>
      <trkpt lat="44.17384" lon="6.35115">
        <ele>806</ele>
        <time>2022-06-08T22:07:51Z</time>
      </trkpt>
      <trkpt lat="44.17388" lon="6.35112">
        <ele>806</ele>
        <time>2022-06-08T22:07:52Z</time>
      </trkpt>
      <trkpt lat="44.1739" lon="6.35116">
        <ele>807</ele>
        <time>2022-06-08T22:07:53Z</time>
      </trkpt>
      <trkpt lat="44.17387" lon="6.35117">
        <ele>806</ele>
        <time>2022-06-08T22:07:53Z</time>
      </trkpt>
      <trkpt lat="44.17391" lon="6.35114">
        <ele>806</ele>
        <time>2022-06-08T22:07:55Z</time>
      </trkpt>
      <trkpt lat="44.17383" lon="6.35112">
        <ele>806</ele>
        <time>2022-06-08T22:07:56Z</time>
      </trkpt>
      <trkpt lat="44.17384" lon="6.35114">
        <ele>806</ele>
        <time>2022-06-08T22:07:57Z</time>
      </trkpt>
      <trkpt lat="44.17381" lon="6.3511">
        <ele>805</ele>
        <time>2022-06-08T22:07:58Z</time>
      </trkpt>
      <trkpt lat="44.17383" lon="6.35114">
        <ele>806</ele>
        <time>2022-06-08T22:07:59Z</time>
      </trkpt>
      <trkpt lat="44.17387" lon="6.35111">
        <ele>806</ele>
        <time>2022-06-08T22:08:00Z</time>
      </trkpt>
      <trkpt lat="44.17393" lon="6.35117">
        <ele>807</ele>
        <time>2022-06-08T22:08:01Z</time>
      </trkpt>
      <trkpt lat="44.17387" lon="6.35115">
        <ele>806</ele>
        <time>2022-06-08T22:08:03Z</time>
      </trkpt>
      <trkpt lat="44.17392" lon="6.35118">
        <ele>807</ele>
        <time>2022-06-08T22:08:04Z</time>
      </trkpt>
      <trkpt lat="44.17386" lon="6.35112">
        <ele>806</ele>
        <time>2022-06-08T22:08:06Z</time>
      </trkpt>
      <trkpt lat="44.17393" lon="6.35112">
        <ele>806</ele>
        <time>2022-06-08T22:08:07Z</time>
      </trkpt>
      <trkpt lat="44.17391" lon="6.35117">
        <ele>807</ele>
        <time>2022-06-08T22:08:08Z</time>
      </trkpt>
      <trkpt lat="44.17387" lon="6.35115">
        <ele>806</ele>
        <time>2022-06-08T22:08:09Z</time>
      </trkpt>
      <trkpt lat="44.17387" lon="6.35119">
        <ele>807</ele>
        <time>2022-06-08T22:08:10Z</time>
      </trkpt>
      <trkpt lat="44.1739" lon="6.35114">
        <ele>806</ele>
        <time>2022-06-08T22:08:11Z</time>
      </trkpt>
      <trkpt lat="44.1739" lon="6.35116">
        <ele>807</ele>
        <time>2022-06-08T22:08:12Z</time>
      </trkpt>
      <trkpt lat="44.17391" lon="6.35101">
        <ele>805</ele>
        <time>2022-06-08T22:08:14Z</time>
      </trkpt>
      <trkpt lat="44.174" lon="6.35102">
        <ele>806</ele>
        <time>2022-06-08T22:08:16Z</time>
      </trkpt>
      <trkpt lat="44.17443" lon="6.35066">
        <ele>804</ele>
        <time>2022-06-08T22:08:28Z</time>
      </trkpt>
      <trkpt lat="44.1748" lon="6.3513">
        <ele>808</ele>
        <time>2022-06-08T22:08:42Z</time>
      </trkpt>
      <trkpt lat="44.175" lon="6.35153">
        <ele>808</ele>
        <time>2022-06-08T22:08:48Z</time>
      </trkpt>
      <trkpt lat="44.17507" lon="6.35132">
        <ele>807</ele>
        <time>2022-06-08T22:08:52Z</time>
      </trkpt>
      <trkpt lat="44.175" lon="6.35066">
        <ele>804</ele>
        <time>2022-06-08T22:09:03Z</time>
      </trkpt>
      <trkpt lat="44.17536" lon="6.35034">
        <ele>804</ele>
        <time>2022-06-08T22:09:13Z</time>
      </trkpt>
      <trkpt lat="44.17523" lon="6.34977">
        <ele>802</ele>
        <time>2022-06-08T22:09:23Z</time>
      </trkpt>
      <trkpt lat="44.17594" lon="6.34925">
        <ele>801</ele>
        <time>2022-06-08T22:09:41Z</time>
      </trkpt>
      <trkpt lat="44.17633" lon="6.34883">
        <ele>801</ele>
        <time>2022-06-08T22:09:53Z</time>
      </trkpt>
      <trkpt lat="44.17679" lon="6.34795">
        <ele>799</ele>
        <time>2022-06-08T22:10:11Z</time>
      </trkpt>
      <trkpt lat="44.17724" lon="6.34726">
        <ele>797</ele>
        <time>2022-06-08T22:10:27Z</time>
      </trkpt>
      <trkpt lat="44.17826" lon="6.3463">
        <ele>795</ele>
        <time>2022-06-08T22:10:56Z</time>
      </trkpt>
      <trkpt lat="44.17874" lon="6.34591">
        <ele>797</ele>
        <time>2022-06-08T22:11:09Z</time>
      </trkpt>
      <trkpt lat="44.17904" lon="6.34557">
        <ele>796</ele>
        <time>2022-06-08T22:11:18Z</time>
      </trkpt>
      <trkpt lat="44.17954" lon="6.3452">
        <ele>796</ele>
        <time>2022-06-08T22:11:31Z</time>
      </trkpt>
      <trkpt lat="44.18005" lon="6.34469">
        <ele>795</ele>
        <time>2022-06-08T22:11:45Z</time>
      </trkpt>
      <trkpt lat="44.18044" lon="6.34426">
        <ele>795</ele>
        <time>2022-06-08T22:11:57Z</time>
      </trkpt>
      <trkpt lat="44.18085" lon="6.34395">
        <ele>795</ele>
        <time>2022-06-08T22:12:08Z</time>
      </trkpt>
      <trkpt lat="44.18101" lon="6.34388">
        <ele>796</ele>
        <time>2022-06-08T22:12:12Z</time>
      </trkpt>
      <trkpt lat="44.18102" lon="6.34384">
        <ele>796</ele>
        <time>2022-06-08T22:12:13Z</time>
      </trkpt>
      <trkpt lat="44.18103" lon="6.34386">
        <ele>796</ele>
        <time>2022-06-08T22:12:13Z</time>
      </trkpt>
      <trkpt lat="44.18105" lon="6.34385">
        <ele>796</ele>
        <time>2022-06-08T22:12:13Z</time>
      </trkpt>
      <trkpt lat="44.18104" lon="6.34389">
        <ele>796</ele>
        <time>2022-06-08T22:12:14Z</time>
      </trkpt>
      <trkpt lat="44.18107" lon="6.34391">
        <ele>796</ele>
        <time>2022-06-08T22:12:15Z</time>
      </trkpt>
      <trkpt lat="44.18168" lon="6.34381">
        <ele>798</ele>
        <time>2022-06-08T22:12:29Z</time>
      </trkpt>
      <trkpt lat="44.18259" lon="6.34326">
        <ele>803</ele>
        <time>2022-06-08T22:12:52Z</time>
      </trkpt>
      <trkpt lat="44.18291" lon="6.3431">
        <ele>807</ele>
        <time>2022-06-08T22:13:00Z</time>
      </trkpt>
      <trkpt lat="44.18315" lon="6.3429">
        <ele>808</ele>
        <time>2022-06-08T22:13:07Z</time>
      </trkpt>
      <trkpt lat="44.18336" lon="6.34266">
        <ele>807</ele>
        <time>2022-06-08T22:13:13Z</time>
      </trkpt>
      <trkpt lat="44.18339" lon="6.34254">
        <ele>806</ele>
        <time>2022-06-08T22:13:15Z</time>
      </trkpt>
      <trkpt lat="44.18339" lon="6.34214">
        <ele>805</ele>
        <time>2022-06-08T22:13:22Z</time>
      </trkpt>
      <trkpt lat="44.18343" lon="6.34202">
        <ele>804</ele>
        <time>2022-06-08T22:13:24Z</time>
      </trkpt>
      <trkpt lat="44.18347" lon="6.34199">
        <ele>805</ele>
        <time>2022-06-08T22:13:25Z</time>
      </trkpt>
      <trkpt lat="44.18359" lon="6.34197">
        <ele>805</ele>
        <time>2022-06-08T22:13:28Z</time>
      </trkpt>
      <trkpt lat="44.18412" lon="6.34216">
        <ele>810</ele>
        <time>2022-06-08T22:13:41Z</time>
      </trkpt>
      <trkpt lat="44.18488" lon="6.34192">
        <ele>812</ele>
        <time>2022-06-08T22:13:59Z</time>
      </trkpt>
      <trkpt lat="44.18537" lon="6.34147">
        <ele>812</ele>
        <time>2022-06-08T22:14:13Z</time>
      </trkpt>
      <trkpt lat="44.18542" lon="6.34116">
        <ele>811</ele>
        <time>2022-06-08T22:14:18Z</time>
      </trkpt>
      <trkpt lat="44.18546" lon="6.34109">
        <ele>811</ele>
        <time>2022-06-08T22:14:20Z</time>
      </trkpt>
      <trkpt lat="44.18563" lon="6.34098">
        <ele>811</ele>
        <time>2022-06-08T22:14:24Z</time>
      </trkpt>
      <trkpt lat="44.18578" lon="6.34097">
        <ele>812</ele>
        <time>2022-06-08T22:14:28Z</time>
      </trkpt>
      <trkpt lat="44.18614" lon="6.34106">
        <ele>814</ele>
        <time>2022-06-08T22:14:36Z</time>
      </trkpt>
      <trkpt lat="44.1867" lon="6.34105">
        <ele>817</ele>
        <time>2022-06-08T22:14:49Z</time>
      </trkpt>
      <trkpt lat="44.18723" lon="6.34097">
        <ele>819</ele>
        <time>2022-06-08T22:15:02Z</time>
      </trkpt>
      <trkpt lat="44.18818" lon="6.34068">
        <ele>825</ele>
        <time>2022-06-08T22:15:24Z</time>
      </trkpt>
      <trkpt lat="44.18854" lon="6.34061">
        <ele>828</ele>
        <time>2022-06-08T22:15:33Z</time>
      </trkpt>
      <trkpt lat="44.18885" lon="6.34067">
        <ele>829</ele>
        <time>2022-06-08T22:15:40Z</time>
      </trkpt>
      <trkpt lat="44.1891" lon="6.34079">
        <ele>828</ele>
        <time>2022-06-08T22:15:46Z</time>
      </trkpt>
      <trkpt lat="44.18918" lon="6.34078">
        <ele>829</ele>
        <time>2022-06-08T22:15:48Z</time>
      </trkpt>
      <trkpt lat="44.18939" lon="6.34059">
        <ele>835</ele>
        <time>2022-06-08T22:15:54Z</time>
      </trkpt>
      <trkpt lat="44.18962" lon="6.34058">
        <ele>837</ele>
        <time>2022-06-08T22:15:59Z</time>
      </trkpt>
      <trkpt lat="44.18981" lon="6.34053">
        <ele>839</ele>
        <time>2022-06-08T22:16:04Z</time>
      </trkpt>
      <trkpt lat="44.19002" lon="6.34042">
        <ele>842</ele>
        <time>2022-06-08T22:16:09Z</time>
      </trkpt>
      <trkpt lat="44.19019" lon="6.34046">
        <ele>844</ele>
        <time>2022-06-08T22:16:13Z</time>
      </trkpt>
      <trkpt lat="44.19038" lon="6.34043">
        <ele>846</ele>
        <time>2022-06-08T22:16:18Z</time>
      </trkpt>
      <trkpt lat="44.19084" lon="6.34032">
        <ele>853</ele>
        <time>2022-06-08T22:16:29Z</time>
      </trkpt>
      <trkpt lat="44.19117" lon="6.34018">
        <ele>860</ele>
        <time>2022-06-08T22:16:37Z</time>
      </trkpt>
      <trkpt lat="44.19148" lon="6.34017">
        <ele>865</ele>
        <time>2022-06-08T22:16:44Z</time>
      </trkpt>
      <trkpt lat="44.19165" lon="6.34023">
        <ele>867</ele>
        <time>2022-06-08T22:16:48Z</time>
      </trkpt>
      <trkpt lat="44.19184" lon="6.34035">
        <ele>867</ele>
        <time>2022-06-08T22:16:53Z</time>
      </trkpt>
      <trkpt lat="44.1921" lon="6.34045">
        <ele>868</ele>
        <time>2022-06-08T22:16:59Z</time>
      </trkpt>
      <trkpt lat="44.19241" lon="6.34047">
        <ele>872</ele>
        <time>2022-06-08T22:17:06Z</time>
      </trkpt>
      <trkpt lat="44.19283" lon="6.3406">
        <ele>874</ele>
        <time>2022-06-08T22:17:16Z</time>
      </trkpt>
      <trkpt lat="44.19307" lon="6.34061">
        <ele>877</ele>
        <time>2022-06-08T22:17:22Z</time>
      </trkpt>
      <trkpt lat="44.19364" lon="6.34053">
        <ele>885</ele>
        <time>2022-06-08T22:17:35Z</time>
      </trkpt>
      <trkpt lat="44.19429" lon="6.34053">
        <ele>894</ele>
        <time>2022-06-08T22:17:51Z</time>
      </trkpt>
      <trkpt lat="44.19457" lon="6.34072">
        <ele>896</ele>
        <time>2022-06-08T22:17:58Z</time>
      </trkpt>
      <trkpt lat="44.19467" lon="6.34072">
        <ele>898</ele>
        <time>2022-06-08T22:18:00Z</time>
      </trkpt>
      <trkpt lat="44.19487" lon="6.34062">
        <ele>902</ele>
        <time>2022-06-08T22:18:05Z</time>
      </trkpt>
      <trkpt lat="44.19508" lon="6.34071">
        <ele>903</ele>
        <time>2022-06-08T22:18:10Z</time>
      </trkpt>
      <trkpt lat="44.19556" lon="6.34078">
        <ele>907</ele>
        <time>2022-06-08T22:18:22Z</time>
      </trkpt>
      <trkpt lat="44.19574" lon="6.34086">
        <ele>907</ele>
        <time>2022-06-08T22:18:26Z</time>
      </trkpt>
      <trkpt lat="44.19603" lon="6.34109">
        <ele>912</ele>
        <time>2022-06-08T22:18:34Z</time>
      </trkpt>
      <trkpt lat="44.19609" lon="6.34124">
        <ele>913</ele>
        <time>2022-06-08T22:18:37Z</time>
      </trkpt>
      <trkpt lat="44.19617" lon="6.34134">
        <ele>914</ele>
        <time>2022-06-08T22:18:39Z</time>
      </trkpt>
      <trkpt lat="44.19628" lon="6.34134">
        <ele>915</ele>
        <time>2022-06-08T22:18:42Z</time>
      </trkpt>
      <trkpt lat="44.19654" lon="6.34151">
        <ele>917</ele>
        <time>2022-06-08T22:18:48Z</time>
      </trkpt>
      <trkpt lat="44.19705" lon="6.34173">
        <ele>921</ele>
        <time>2022-06-08T22:19:01Z</time>
      </trkpt>
      <trkpt lat="44.19709" lon="6.34179">
        <ele>922</ele>
        <time>2022-06-08T22:19:02Z</time>
      </trkpt>
      <trkpt lat="44.1971" lon="6.34199">
        <ele>925</ele>
        <time>2022-06-08T22:19:06Z</time>
      </trkpt>
      <trkpt lat="44.19723" lon="6.34228">
        <ele>929</ele>
        <time>2022-06-08T22:19:11Z</time>
      </trkpt>
      <trkpt lat="44.19744" lon="6.3424">
        <ele>932</ele>
        <time>2022-06-08T22:19:17Z</time>
      </trkpt>
      <trkpt lat="44.19839" lon="6.34227">
        <ele>941</ele>
        <time>2022-06-08T22:19:39Z</time>
      </trkpt>
      <trkpt lat="44.19854" lon="6.34233">
        <ele>943</ele>
        <time>2022-06-08T22:19:43Z</time>
      </trkpt>
      <trkpt lat="44.19865" lon="6.34247">
        <ele>943</ele>
        <time>2022-06-08T22:19:46Z</time>
      </trkpt>
      <trkpt lat="44.19878" lon="6.34245">
        <ele>944</ele>
        <time>2022-06-08T22:19:49Z</time>
      </trkpt>
      <trkpt lat="44.19884" lon="6.34232">
        <ele>946</ele>
        <time>2022-06-08T22:19:52Z</time>
      </trkpt>
      <trkpt lat="44.19867" lon="6.34197">
        <ele>947</ele>
        <time>2022-06-08T22:19:59Z</time>
      </trkpt>
      <trkpt lat="44.19867" lon="6.34191">
        <ele>947</ele>
        <time>2022-06-08T22:20:00Z</time>
      </trkpt>
      <trkpt lat="44.19851" lon="6.34173">
        <ele>945</ele>
        <time>2022-06-08T22:20:05Z</time>
      </trkpt>
      <trkpt lat="44.19854" lon="6.34162">
        <ele>947</ele>
        <time>2022-06-08T22:20:07Z</time>
      </trkpt>
      <trkpt lat="44.19847" lon="6.34147">
        <ele>948</ele>
        <time>2022-06-08T22:20:10Z</time>
      </trkpt>
      <trkpt lat="44.19851" lon="6.34137">
        <ele>951</ele>
        <time>2022-06-08T22:20:11Z</time>
      </trkpt>
      <trkpt lat="44.19858" lon="6.3413">
        <ele>954</ele>
        <time>2022-06-08T22:20:13Z</time>
      </trkpt>
      <trkpt lat="44.19878" lon="6.34139">
        <ele>957</ele>
        <time>2022-06-08T22:20:18Z</time>
      </trkpt>
      <trkpt lat="44.1989" lon="6.34134">
        <ele>961</ele>
        <time>2022-06-08T22:20:21Z</time>
      </trkpt>
      <trkpt lat="44.19897" lon="6.34137">
        <ele>962</ele>
        <time>2022-06-08T22:20:23Z</time>
      </trkpt>
      <trkpt lat="44.19909" lon="6.34137">
        <ele>965</ele>
        <time>2022-06-08T22:20:26Z</time>
      </trkpt>
      <trkpt lat="44.19923" lon="6.34126">
        <ele>970</ele>
        <time>2022-06-08T22:20:30Z</time>
      </trkpt>
      <trkpt lat="44.19927" lon="6.34138">
        <ele>969</ele>
        <time>2022-06-08T22:20:32Z</time>
      </trkpt>
      <trkpt lat="44.19935" lon="6.34135">
        <ele>972</ele>
        <time>2022-06-08T22:20:34Z</time>
      </trkpt>
      <trkpt lat="44.1994" lon="6.34138">
        <ele>973</ele>
        <time>2022-06-08T22:20:35Z</time>
      </trkpt>
      <trkpt lat="44.19953" lon="6.34139">
        <ele>976</ele>
        <time>2022-06-08T22:20:38Z</time>
      </trkpt>
      <trkpt lat="44.19966" lon="6.34137">
        <ele>980</ele>
        <time>2022-06-08T22:20:41Z</time>
      </trkpt>
      <trkpt lat="44.19973" lon="6.34131">
        <ele>982</ele>
        <time>2022-06-08T22:20:43Z</time>
      </trkpt>
      <trkpt lat="44.19981" lon="6.34129">
        <ele>984</ele>
        <time>2022-06-08T22:20:45Z</time>
      </trkpt>
      <trkpt lat="44.20002" lon="6.34131">
        <ele>990</ele>
        <time>2022-06-08T22:20:50Z</time>
      </trkpt>
      <trkpt lat="44.20011" lon="6.34133">
        <ele>992</ele>
        <time>2022-06-08T22:20:52Z</time>
      </trkpt>
      <trkpt lat="44.20023" lon="6.34143">
        <ele>994</ele>
        <time>2022-06-08T22:20:55Z</time>
      </trkpt>
      <trkpt lat="44.2004" lon="6.34148">
        <ele>998</ele>
        <time>2022-06-08T22:20:59Z</time>
      </trkpt>
      <trkpt lat="44.20057" lon="6.34157">
        <ele>1001</ele>
        <time>2022-06-08T22:21:04Z</time>
      </trkpt>
      <trkpt lat="44.20064" lon="6.34164">
        <ele>1002</ele>
        <time>2022-06-08T22:21:06Z</time>
      </trkpt>
      <trkpt lat="44.20081" lon="6.34165">
        <ele>1006</ele>
        <time>2022-06-08T22:21:09Z</time>
      </trkpt>
      <trkpt lat="44.20097" lon="6.34169">
        <ele>1008</ele>
        <time>2022-06-08T22:21:13Z</time>
      </trkpt>
      <trkpt lat="44.20095" lon="6.34176">
        <ele>1009</ele>
        <time>2022-06-08T22:21:15Z</time>
      </trkpt>
      <trkpt lat="44.20094" lon="6.34171">
        <ele>1008</ele>
        <time>2022-06-08T22:21:15Z</time>
      </trkpt>
      <trkpt lat="44.20098" lon="6.34173">
        <ele>1009</ele>
        <time>2022-06-08T22:21:16Z</time>
      </trkpt>
      <trkpt lat="44.20096" lon="6.34172">
        <ele>1008</ele>
        <time>2022-06-08T22:21:17Z</time>
      </trkpt>
      <trkpt lat="44.20095" lon="6.34174">
        <ele>1008</ele>
        <time>2022-06-08T22:21:17Z</time>
      </trkpt>
      <trkpt lat="44.20099" lon="6.34169">
        <ele>1008</ele>
        <time>2022-06-08T22:21:19Z</time>
      </trkpt>
      <trkpt lat="44.20098" lon="6.34166">
        <ele>1008</ele>
        <time>2022-06-08T22:21:19Z</time>
      </trkpt>
      <trkpt lat="44.20115" lon="6.34163">
        <ele>1010</ele>
        <time>2022-06-08T22:21:23Z</time>
      </trkpt>
      <trkpt lat="44.20141" lon="6.34169">
        <ele>1013</ele>
        <time>2022-06-08T22:21:29Z</time>
      </trkpt>
      <trkpt lat="44.20155" lon="6.34169">
        <ele>1014</ele>
        <time>2022-06-08T22:21:33Z</time>
      </trkpt>
      <trkpt lat="44.20168" lon="6.34174">
        <ele>1017</ele>
        <time>2022-06-08T22:21:36Z</time>
      </trkpt>
      <trkpt lat="44.20182" lon="6.34174">
        <ele>1018</ele>
        <time>2022-06-08T22:21:39Z</time>
      </trkpt>
      <trkpt lat="44.20209" lon="6.34179">
        <ele>1022</ele>
        <time>2022-06-08T22:21:45Z</time>
      </trkpt>
      <trkpt lat="44.20212" lon="6.34178">
        <ele>1022</ele>
        <time>2022-06-08T22:21:46Z</time>
      </trkpt>
      <trkpt lat="44.20208" lon="6.34167">
        <ele>1020</ele>
        <time>2022-06-08T22:21:48Z</time>
      </trkpt>
      <trkpt lat="44.2021" lon="6.34159">
        <ele>1022</ele>
        <time>2022-06-08T22:21:50Z</time>
      </trkpt>
      <trkpt lat="44.20215" lon="6.34164">
        <ele>1021</ele>
        <time>2022-06-08T22:21:51Z</time>
      </trkpt>
      <trkpt lat="44.2022" lon="6.34159">
        <ele>1023</ele>
        <time>2022-06-08T22:21:52Z</time>
      </trkpt>
      <trkpt lat="44.20221" lon="6.3415">
        <ele>1025</ele>
        <time>2022-06-08T22:21:54Z</time>
      </trkpt>
      <trkpt lat="44.20237" lon="6.34155">
        <ele>1026</ele>
        <time>2022-06-08T22:21:58Z</time>
      </trkpt>
      <trkpt lat="44.20248" lon="6.34155">
        <ele>1028</ele>
        <time>2022-06-08T22:22:00Z</time>
      </trkpt>
      <trkpt lat="44.20285" lon="6.34162">
        <ele>1030</ele>
        <time>2022-06-08T22:22:09Z</time>
      </trkpt>
      <trkpt lat="44.20289" lon="6.3415">
        <ele>1032</ele>
        <time>2022-06-08T22:22:11Z</time>
      </trkpt>
      <trkpt lat="44.20293" lon="6.34147">
        <ele>1033</ele>
        <time>2022-06-08T22:22:12Z</time>
      </trkpt>
      <trkpt lat="44.20306" lon="6.34154">
        <ele>1033</ele>
        <time>2022-06-08T22:22:16Z</time>
      </trkpt>
      <trkpt lat="44.20319" lon="6.34157">
        <ele>1034</ele>
        <time>2022-06-08T22:22:19Z</time>
      </trkpt>
      <trkpt lat="44.20336" lon="6.34134">
        <ele>1038</ele>
        <time>2022-06-08T22:22:24Z</time>
      </trkpt>
      <trkpt lat="44.20375" lon="6.34095">
        <ele>1047</ele>
        <time>2022-06-08T22:22:35Z</time>
      </trkpt>
      <trkpt lat="44.20374" lon="6.34085">
        <ele>1047</ele>
        <time>2022-06-08T22:22:37Z</time>
      </trkpt>
      <trkpt lat="44.20376" lon="6.34081">
        <ele>1047</ele>
        <time>2022-06-08T22:22:38Z</time>
      </trkpt>
      <trkpt lat="44.20402" lon="6.34055">
        <ele>1044</ele>
        <time>2022-06-08T22:22:45Z</time>
      </trkpt>
      <trkpt lat="44.20436" lon="6.3403">
        <ele>1038</ele>
        <time>2022-06-08T22:22:54Z</time>
      </trkpt>
      <trkpt lat="44.20447" lon="6.34025">
        <ele>1037</ele>
        <time>2022-06-08T22:22:57Z</time>
      </trkpt>
      <trkpt lat="44.20476" lon="6.34018">
        <ele>1036</ele>
        <time>2022-06-08T22:23:04Z</time>
      </trkpt>
      <trkpt lat="44.20504" lon="6.34022">
        <ele>1038</ele>
        <time>2022-06-08T22:23:10Z</time>
      </trkpt>
      <trkpt lat="44.20543" lon="6.34039">
        <ele>1039</ele>
        <time>2022-06-08T22:23:20Z</time>
      </trkpt>
      <trkpt lat="44.20569" lon="6.3406">
        <ele>1040</ele>
        <time>2022-06-08T22:23:27Z</time>
      </trkpt>
      <trkpt lat="44.20592" lon="6.34091">
        <ele>1042</ele>
        <time>2022-06-08T22:23:35Z</time>
      </trkpt>
      <trkpt lat="44.20618" lon="6.3411">
        <ele>1044</ele>
        <time>2022-06-08T22:23:41Z</time>
      </trkpt>
      <trkpt lat="44.2062" lon="6.34109">
        <ele>1043</ele>
        <time>2022-06-08T22:23:42Z</time>
      </trkpt>
      <trkpt lat="44.20631" lon="6.34131">
        <ele>1045</ele>
        <time>2022-06-08T22:23:46Z</time>
      </trkpt>
      <trkpt lat="44.20649" lon="6.34157">
        <ele>1045</ele>
        <time>2022-06-08T22:23:52Z</time>
      </trkpt>
      <trkpt lat="44.20674" lon="6.34208">
        <ele>1048</ele>
        <time>2022-06-08T22:24:03Z</time>
      </trkpt>
      <trkpt lat="44.20682" lon="6.34211">
        <ele>1049</ele>
        <time>2022-06-08T22:24:05Z</time>
      </trkpt>
      <trkpt lat="44.20705" lon="6.34232">
        <ele>1052</ele>
        <time>2022-06-08T22:24:11Z</time>
      </trkpt>
      <trkpt lat="44.20708" lon="6.34241">
        <ele>1053</ele>
        <time>2022-06-08T22:24:13Z</time>
      </trkpt>
      <trkpt lat="44.20718" lon="6.34252">
        <ele>1055</ele>
        <time>2022-06-08T22:24:16Z</time>
      </trkpt>
      <trkpt lat="44.20722" lon="6.3422">
        <ele>1052</ele>
        <time>2022-06-08T22:24:21Z</time>
      </trkpt>
      <trkpt lat="44.2074" lon="6.34206">
        <ele>1051</ele>
        <time>2022-06-08T22:24:26Z</time>
      </trkpt>
      <trkpt lat="44.20747" lon="6.34207">
        <ele>1052</ele>
        <time>2022-06-08T22:24:28Z</time>
      </trkpt>
      <trkpt lat="44.20761" lon="6.34203">
        <ele>1054</ele>
        <time>2022-06-08T22:24:31Z</time>
      </trkpt>
      <trkpt lat="44.20782" lon="6.34194">
        <ele>1057</ele>
        <time>2022-06-08T22:24:36Z</time>
      </trkpt>
      <trkpt lat="44.20807" lon="6.34158">
        <ele>1059</ele>
        <time>2022-06-08T22:24:44Z</time>
      </trkpt>
      <trkpt lat="44.20811" lon="6.34147">
        <ele>1058</ele>
        <time>2022-06-08T22:24:47Z</time>
      </trkpt>
      <trkpt lat="44.20825" lon="6.34134">
        <ele>1060</ele>
        <time>2022-06-08T22:24:50Z</time>
      </trkpt>
      <trkpt lat="44.20838" lon="6.34126">
        <ele>1060</ele>
        <time>2022-06-08T22:24:54Z</time>
      </trkpt>
      <trkpt lat="44.2085" lon="6.34122">
        <ele>1059</ele>
        <time>2022-06-08T22:24:57Z</time>
      </trkpt>
      <trkpt lat="44.20849" lon="6.34113">
        <ele>1058</ele>
        <time>2022-06-08T22:24:58Z</time>
      </trkpt>
      <trkpt lat="44.20853" lon="6.34123">
        <ele>1059</ele>
        <time>2022-06-08T22:25:00Z</time>
      </trkpt>
      <trkpt lat="44.20867" lon="6.34125">
        <ele>1058</ele>
        <time>2022-06-08T22:25:03Z</time>
      </trkpt>
      <trkpt lat="44.20874" lon="6.3413">
        <ele>1059</ele>
        <time>2022-06-08T22:25:05Z</time>
      </trkpt>
      <trkpt lat="44.20879" lon="6.3413">
        <ele>1058</ele>
        <time>2022-06-08T22:25:06Z</time>
      </trkpt>
      <trkpt lat="44.20899" lon="6.34149">
        <ele>1061</ele>
        <time>2022-06-08T22:25:12Z</time>
      </trkpt>
      <trkpt lat="44.20908" lon="6.34161">
        <ele>1064</ele>
        <time>2022-06-08T22:25:15Z</time>
      </trkpt>
      <trkpt lat="44.20932" lon="6.342">
        <ele>1070</ele>
        <time>2022-06-08T22:25:24Z</time>
      </trkpt>
      <trkpt lat="44.20936" lon="6.34243">
        <ele>1075</ele>
        <time>2022-06-08T22:25:31Z</time>
      </trkpt>
      <trkpt lat="44.20955" lon="6.34282">
        <ele>1078</ele>
        <time>2022-06-08T22:25:39Z</time>
      </trkpt>
      <trkpt lat="44.21002" lon="6.34347">
        <ele>1080</ele>
        <time>2022-06-08T22:25:54Z</time>
      </trkpt>
      <trkpt lat="44.21005" lon="6.34355">
        <ele>1082</ele>
        <time>2022-06-08T22:25:56Z</time>
      </trkpt>
      <trkpt lat="44.21018" lon="6.34365">
        <ele>1085</ele>
        <time>2022-06-08T22:25:59Z</time>
      </trkpt>
      <trkpt lat="44.21022" lon="6.34377">
        <ele>1086</ele>
        <time>2022-06-08T22:26:01Z</time>
      </trkpt>
      <trkpt lat="44.21027" lon="6.34382">
        <ele>1087</ele>
        <time>2022-06-08T22:26:03Z</time>
      </trkpt>
      <trkpt lat="44.21052" lon="6.34388">
        <ele>1089</ele>
        <time>2022-06-08T22:26:09Z</time>
      </trkpt>
      <trkpt lat="44.21081" lon="6.34403">
        <ele>1089</ele>
        <time>2022-06-08T22:26:16Z</time>
      </trkpt>
      <trkpt lat="44.21088" lon="6.34403">
        <ele>1090</ele>
        <time>2022-06-08T22:26:18Z</time>
      </trkpt>
      <trkpt lat="44.21092" lon="6.344">
        <ele>1091</ele>
        <time>2022-06-08T22:26:19Z</time>
      </trkpt>
      <trkpt lat="44.21125" lon="6.34407">
        <ele>1095</ele>
        <time>2022-06-08T22:26:26Z</time>
      </trkpt>
      <trkpt lat="44.21138" lon="6.34423">
        <ele>1096</ele>
        <time>2022-06-08T22:26:31Z</time>
      </trkpt>
      <trkpt lat="44.21153" lon="6.34431">
        <ele>1099</ele>
        <time>2022-06-08T22:26:34Z</time>
      </trkpt>
      <trkpt lat="44.21189" lon="6.34443">
        <ele>1105</ele>
        <time>2022-06-08T22:26:43Z</time>
      </trkpt>
      <trkpt lat="44.21222" lon="6.34462">
        <ele>1110</ele>
        <time>2022-06-08T22:26:51Z</time>
      </trkpt>
      <trkpt lat="44.21242" lon="6.34467">
        <ele>1113</ele>
        <time>2022-06-08T22:26:56Z</time>
      </trkpt>
      <trkpt lat="44.21256" lon="6.34467">
        <ele>1115</ele>
        <time>2022-06-08T22:26:59Z</time>
      </trkpt>
      <trkpt lat="44.2128" lon="6.34482">
        <ele>1119</ele>
        <time>2022-06-08T22:27:05Z</time>
      </trkpt>
      <trkpt lat="44.2129" lon="6.34486">
        <ele>1121</ele>
        <time>2022-06-08T22:27:08Z</time>
      </trkpt>
      <trkpt lat="44.21297" lon="6.34486">
        <ele>1123</ele>
        <time>2022-06-08T22:27:09Z</time>
      </trkpt>
      <trkpt lat="44.21305" lon="6.34483">
        <ele>1125</ele>
        <time>2022-06-08T22:27:11Z</time>
      </trkpt>
      <trkpt lat="44.21307" lon="6.3447">
        <ele>1128</ele>
        <time>2022-06-08T22:27:14Z</time>
      </trkpt>
      <trkpt lat="44.21313" lon="6.34461">
        <ele>1131</ele>
        <time>2022-06-08T22:27:16Z</time>
      </trkpt>
      <trkpt lat="44.21311" lon="6.34453">
        <ele>1132</ele>
        <time>2022-06-08T22:27:17Z</time>
      </trkpt>
      <trkpt lat="44.21262" lon="6.34397">
        <ele>1129</ele>
        <time>2022-06-08T22:27:32Z</time>
      </trkpt>
      <trkpt lat="44.21233" lon="6.34337">
        <ele>1135</ele>
        <time>2022-06-08T22:27:44Z</time>
      </trkpt>
      <trkpt lat="44.2123" lon="6.34328">
        <ele>1135</ele>
        <time>2022-06-08T22:27:46Z</time>
      </trkpt>
      <trkpt lat="44.21231" lon="6.3432">
        <ele>1136</ele>
        <time>2022-06-08T22:27:47Z</time>
      </trkpt>
      <trkpt lat="44.21252" lon="6.34311">
        <ele>1142</ele>
        <time>2022-06-08T22:27:52Z</time>
      </trkpt>
      <trkpt lat="44.21287" lon="6.34316">
        <ele>1149</ele>
        <time>2022-06-08T22:28:00Z</time>
      </trkpt>
      <trkpt lat="44.21303" lon="6.34312">
        <ele>1151</ele>
        <time>2022-06-08T22:28:04Z</time>
      </trkpt>
      <trkpt lat="44.21315" lon="6.34315">
        <ele>1154</ele>
        <time>2022-06-08T22:28:07Z</time>
      </trkpt>
      <trkpt lat="44.21356" lon="6.3434">
        <ele>1161</ele>
        <time>2022-06-08T22:28:17Z</time>
      </trkpt>
      <trkpt lat="44.21391" lon="6.3434">
        <ele>1164</ele>
        <time>2022-06-08T22:28:26Z</time>
      </trkpt>
      <trkpt lat="44.214" lon="6.34346">
        <ele>1165</ele>
        <time>2022-06-08T22:28:28Z</time>
      </trkpt>
      <trkpt lat="44.21405" lon="6.34353">
        <ele>1165</ele>
        <time>2022-06-08T22:28:30Z</time>
      </trkpt>
      <trkpt lat="44.21404" lon="6.34358">
        <ele>1165</ele>
        <time>2022-06-08T22:28:30Z</time>
      </trkpt>
      <trkpt lat="44.21411" lon="6.3436">
        <ele>1166</ele>
        <time>2022-06-08T22:28:32Z</time>
      </trkpt>
      <trkpt lat="44.2141" lon="6.34358">
        <ele>1166</ele>
        <time>2022-06-08T22:28:33Z</time>
      </trkpt>
      <trkpt lat="44.21407" lon="6.34359">
        <ele>1165</ele>
        <time>2022-06-08T22:28:33Z</time>
      </trkpt>
      <trkpt lat="44.2142" lon="6.34359">
        <ele>1167</ele>
        <time>2022-06-08T22:28:36Z</time>
      </trkpt>
      <trkpt lat="44.21417" lon="6.34363">
        <ele>1167</ele>
        <time>2022-06-08T22:28:37Z</time>
      </trkpt>
      <trkpt lat="44.21416" lon="6.3436">
        <ele>1167</ele>
        <time>2022-06-08T22:28:38Z</time>
      </trkpt>
      <trkpt lat="44.21407" lon="6.34361">
        <ele>1165</ele>
        <time>2022-06-08T22:28:40Z</time>
      </trkpt>
      <trkpt lat="44.21415" lon="6.3436">
        <ele>1166</ele>
        <time>2022-06-08T22:28:42Z</time>
      </trkpt>
      <trkpt lat="44.2141" lon="6.34362">
        <ele>1166</ele>
        <time>2022-06-08T22:28:43Z</time>
      </trkpt>
      <trkpt lat="44.21432" lon="6.34367">
        <ele>1169</ele>
        <time>2022-06-08T22:28:48Z</time>
      </trkpt>
      <trkpt lat="44.21456" lon="6.34379">
        <ele>1173</ele>
        <time>2022-06-08T22:28:54Z</time>
      </trkpt>
      <trkpt lat="44.21503" lon="6.34414">
        <ele>1188</ele>
        <time>2022-06-08T22:29:07Z</time>
      </trkpt>
      <trkpt lat="44.21518" lon="6.34438">
        <ele>1188</ele>
        <time>2022-06-08T22:29:12Z</time>
      </trkpt>
      <trkpt lat="44.21601" lon="6.34525">
        <ele>1205</ele>
        <time>2022-06-08T22:29:36Z</time>
      </trkpt>
      <trkpt lat="44.21655" lon="6.34567">
        <ele>1210</ele>
        <time>2022-06-08T22:29:51Z</time>
      </trkpt>
      <trkpt lat="44.21693" lon="6.34602">
        <ele>1214</ele>
        <time>2022-06-08T22:30:01Z</time>
      </trkpt>
      <trkpt lat="44.21752" lon="6.34627">
        <ele>1221</ele>
        <time>2022-06-08T22:30:16Z</time>
      </trkpt>
      <trkpt lat="44.21823" lon="6.34649">
        <ele>1226</ele>
        <time>2022-06-08T22:30:33Z</time>
      </trkpt>
      <trkpt lat="44.2185" lon="6.34664">
        <ele>1228</ele>
        <time>2022-06-08T22:30:39Z</time>
      </trkpt>
      <trkpt lat="44.21876" lon="6.34687">
        <ele>1234</ele>
        <time>2022-06-08T22:30:47Z</time>
      </trkpt>
      <trkpt lat="44.21901" lon="6.34705">
        <ele>1237</ele>
        <time>2022-06-08T22:30:53Z</time>
      </trkpt>
      <trkpt lat="44.21932" lon="6.34724">
        <ele>1241</ele>
        <time>2022-06-08T22:31:01Z</time>
      </trkpt>
      <trkpt lat="44.21989" lon="6.34753">
        <ele>1240</ele>
        <time>2022-06-08T22:31:15Z</time>
      </trkpt>
      <trkpt lat="44.22012" lon="6.34748">
        <ele>1238</ele>
        <time>2022-06-08T22:31:21Z</time>
      </trkpt>
      <trkpt lat="44.22037" lon="6.34717">
        <ele>1239</ele>
        <time>2022-06-08T22:31:29Z</time>
      </trkpt>
      <trkpt lat="44.22042" lon="6.34717">
        <ele>1239</ele>
        <time>2022-06-08T22:31:30Z</time>
      </trkpt>
      <trkpt lat="44.22088" lon="6.34758">
        <ele>1229</ele>
        <time>2022-06-08T22:31:42Z</time>
      </trkpt>
      <trkpt lat="44.2211" lon="6.34769">
        <ele>1224</ele>
        <time>2022-06-08T22:31:48Z</time>
      </trkpt>
      <trkpt lat="44.22122" lon="6.34772">
        <ele>1222</ele>
        <time>2022-06-08T22:31:51Z</time>
      </trkpt>
      <trkpt lat="44.22134" lon="6.34771">
        <ele>1220</ele>
        <time>2022-06-08T22:31:54Z</time>
      </trkpt>
      <trkpt lat="44.22164" lon="6.3475">
        <ele>1220</ele>
        <time>2022-06-08T22:32:01Z</time>
      </trkpt>
      <trkpt lat="44.2217" lon="6.34748">
        <ele>1220</ele>
        <time>2022-06-08T22:32:03Z</time>
      </trkpt>
      <trkpt lat="44.2219" lon="6.34748">
        <ele>1219</ele>
        <time>2022-06-08T22:32:08Z</time>
      </trkpt>
      <trkpt lat="44.22215" lon="6.34753">
        <ele>1216</ele>
        <time>2022-06-08T22:32:13Z</time>
      </trkpt>
      <trkpt lat="44.22239" lon="6.3477">
        <ele>1210</ele>
        <time>2022-06-08T22:32:20Z</time>
      </trkpt>
      <trkpt lat="44.22268" lon="6.34779">
        <ele>1205</ele>
        <time>2022-06-08T22:32:27Z</time>
      </trkpt>
      <trkpt lat="44.22278" lon="6.34779">
        <ele>1204</ele>
        <time>2022-06-08T22:32:29Z</time>
      </trkpt>
      <trkpt lat="44.22317" lon="6.34767">
        <ele>1203</ele>
        <time>2022-06-08T22:32:38Z</time>
      </trkpt>
      <trkpt lat="44.2234" lon="6.34747">
        <ele>1206</ele>
        <time>2022-06-08T22:32:45Z</time>
      </trkpt>
      <trkpt lat="44.22354" lon="6.34728">
        <ele>1211</ele>
        <time>2022-06-08T22:32:49Z</time>
      </trkpt>
      <trkpt lat="44.22382" lon="6.34715">
        <ele>1215</ele>
        <time>2022-06-08T22:32:56Z</time>
      </trkpt>
      <trkpt lat="44.22428" lon="6.3476">
        <ele>1202</ele>
        <time>2022-06-08T22:33:09Z</time>
      </trkpt>
      <trkpt lat="44.22455" lon="6.34782">
        <ele>1199</ele>
        <time>2022-06-08T22:33:16Z</time>
      </trkpt>
      <trkpt lat="44.22468" lon="6.34788">
        <ele>1199</ele>
        <time>2022-06-08T22:33:20Z</time>
      </trkpt>
      <trkpt lat="44.22483" lon="6.3479">
        <ele>1200</ele>
        <time>2022-06-08T22:33:23Z</time>
      </trkpt>
      <trkpt lat="44.22503" lon="6.34786">
        <ele>1202</ele>
        <time>2022-06-08T22:33:28Z</time>
      </trkpt>
      <trkpt lat="44.22516" lon="6.34778">
        <ele>1203</ele>
        <time>2022-06-08T22:33:31Z</time>
      </trkpt>
      <trkpt lat="44.22552" lon="6.34727">
        <ele>1210</ele>
        <time>2022-06-08T22:33:43Z</time>
      </trkpt>
      <trkpt lat="44.22562" lon="6.34719">
        <ele>1210</ele>
        <time>2022-06-08T22:33:46Z</time>
      </trkpt>
      <trkpt lat="44.22566" lon="6.3472">
        <ele>1209</ele>
        <time>2022-06-08T22:33:47Z</time>
      </trkpt>
      <trkpt lat="44.2257" lon="6.34724">
        <ele>1209</ele>
        <time>2022-06-08T22:33:48Z</time>
      </trkpt>
      <trkpt lat="44.22573" lon="6.34733">
        <ele>1207</ele>
        <time>2022-06-08T22:33:50Z</time>
      </trkpt>
      <trkpt lat="44.22572" lon="6.34741">
        <ele>1206</ele>
        <time>2022-06-08T22:33:51Z</time>
      </trkpt>
      <trkpt lat="44.22564" lon="6.3476">
        <ele>1205</ele>
        <time>2022-06-08T22:33:55Z</time>
      </trkpt>
      <trkpt lat="44.22564" lon="6.34768">
        <ele>1204</ele>
        <time>2022-06-08T22:33:56Z</time>
      </trkpt>
      <trkpt lat="44.22586" lon="6.34819">
        <ele>1199</ele>
        <time>2022-06-08T22:34:06Z</time>
      </trkpt>
      <trkpt lat="44.2261" lon="6.34852">
        <ele>1207</ele>
        <time>2022-06-08T22:34:14Z</time>
      </trkpt>
      <trkpt lat="44.22623" lon="6.3488">
        <ele>1210</ele>
        <time>2022-06-08T22:34:19Z</time>
      </trkpt>
      <trkpt lat="44.22631" lon="6.34891">
        <ele>1213</ele>
        <time>2022-06-08T22:34:22Z</time>
      </trkpt>
      <trkpt lat="44.22633" lon="6.34901">
        <ele>1213</ele>
        <time>2022-06-08T22:34:24Z</time>
      </trkpt>
      <trkpt lat="44.22631" lon="6.34924">
        <ele>1210</ele>
        <time>2022-06-08T22:34:28Z</time>
      </trkpt>
      <trkpt lat="44.22632" lon="6.34954">
        <ele>1209</ele>
        <time>2022-06-08T22:34:33Z</time>
      </trkpt>
      <trkpt lat="44.22646" lon="6.34987">
        <ele>1214</ele>
        <time>2022-06-08T22:34:39Z</time>
      </trkpt>
      <trkpt lat="44.22652" lon="6.35044">
        <ele>1211</ele>
        <time>2022-06-08T22:34:49Z</time>
      </trkpt>
      <trkpt lat="44.22663" lon="6.35081">
        <ele>1210</ele>
        <time>2022-06-08T22:34:56Z</time>
      </trkpt>
      <trkpt lat="44.22687" lon="6.35108">
        <ele>1215</ele>
        <time>2022-06-08T22:35:03Z</time>
      </trkpt>
      <trkpt lat="44.22724" lon="6.35169">
        <ele>1218</ele>
        <time>2022-06-08T22:35:16Z</time>
      </trkpt>
      <trkpt lat="44.22765" lon="6.35227">
        <ele>1220</ele>
        <time>2022-06-08T22:35:30Z</time>
      </trkpt>
      <trkpt lat="44.22787" lon="6.35242">
        <ele>1220</ele>
        <time>2022-06-08T22:35:35Z</time>
      </trkpt>
      <trkpt lat="44.22817" lon="6.35248">
        <ele>1224</ele>
        <time>2022-06-08T22:35:43Z</time>
      </trkpt>
      <trkpt lat="44.22845" lon="6.35245">
        <ele>1229</ele>
        <time>2022-06-08T22:35:49Z</time>
      </trkpt>
      <trkpt lat="44.22882" lon="6.35236">
        <ele>1231</ele>
        <time>2022-06-08T22:35:58Z</time>
      </trkpt>
      <trkpt lat="44.22914" lon="6.35237">
        <ele>1231</ele>
        <time>2022-06-08T22:36:05Z</time>
      </trkpt>
      <trkpt lat="44.22928" lon="6.35229">
        <ele>1232</ele>
        <time>2022-06-08T22:36:09Z</time>
      </trkpt>
      <trkpt lat="44.22952" lon="6.35206">
        <ele>1237</ele>
        <time>2022-06-08T22:36:16Z</time>
      </trkpt>
      <trkpt lat="44.23006" lon="6.35173">
        <ele>1245</ele>
        <time>2022-06-08T22:36:29Z</time>
      </trkpt>
      <trkpt lat="44.23038" lon="6.35163">
        <ele>1244</ele>
        <time>2022-06-08T22:36:37Z</time>
      </trkpt>
      <trkpt lat="44.23073" lon="6.35146">
        <ele>1245</ele>
        <time>2022-06-08T22:36:46Z</time>
      </trkpt>
      <trkpt lat="44.23117" lon="6.35134">
        <ele>1244</ele>
        <time>2022-06-08T22:36:56Z</time>
      </trkpt>
      <trkpt lat="44.23173" lon="6.35127">
        <ele>1239</ele>
        <time>2022-06-08T22:37:09Z</time>
      </trkpt>
      <trkpt lat="44.2322" lon="6.35103">
        <ele>1237</ele>
        <time>2022-06-08T22:37:21Z</time>
      </trkpt>
      <trkpt lat="44.23252" lon="6.3508">
        <ele>1237</ele>
        <time>2022-06-08T22:37:29Z</time>
      </trkpt>
      <trkpt lat="44.23298" lon="6.35067">
        <ele>1230</ele>
        <time>2022-06-08T22:37:40Z</time>
      </trkpt>
      <trkpt lat="44.2331" lon="6.35045">
        <ele>1235</ele>
        <time>2022-06-08T22:37:45Z</time>
      </trkpt>
      <trkpt lat="44.23315" lon="6.35042">
        <ele>1235</ele>
        <time>2022-06-08T22:37:46Z</time>
      </trkpt>
      <trkpt lat="44.23321" lon="6.3504">
        <ele>1234</ele>
        <time>2022-06-08T22:37:48Z</time>
      </trkpt>
      <trkpt lat="44.23337" lon="6.35047">
        <ele>1229</ele>
        <time>2022-06-08T22:37:52Z</time>
      </trkpt>
      <trkpt lat="44.23342" lon="6.35047">
        <ele>1229</ele>
        <time>2022-06-08T22:37:53Z</time>
      </trkpt>
      <trkpt lat="44.23348" lon="6.35046">
        <ele>1230</ele>
        <time>2022-06-08T22:37:54Z</time>
      </trkpt>
      <trkpt lat="44.23357" lon="6.35038">
        <ele>1233</ele>
        <time>2022-06-08T22:37:57Z</time>
      </trkpt>
      <trkpt lat="44.23366" lon="6.35035">
        <ele>1235</ele>
        <time>2022-06-08T22:37:59Z</time>
      </trkpt>
      <trkpt lat="44.23373" lon="6.3504">
        <ele>1234</ele>
        <time>2022-06-08T22:38:01Z</time>
      </trkpt>
      <trkpt lat="44.23377" lon="6.35051">
        <ele>1231</ele>
        <time>2022-06-08T22:38:03Z</time>
      </trkpt>
      <trkpt lat="44.23376" lon="6.35069">
        <ele>1226</ele>
        <time>2022-06-08T22:38:06Z</time>
      </trkpt>
      <trkpt lat="44.23379" lon="6.35081">
        <ele>1223</ele>
        <time>2022-06-08T22:38:08Z</time>
      </trkpt>
      <trkpt lat="44.23385" lon="6.3509">
        <ele>1221</ele>
        <time>2022-06-08T22:38:10Z</time>
      </trkpt>
      <trkpt lat="44.23398" lon="6.35098">
        <ele>1221</ele>
        <time>2022-06-08T22:38:13Z</time>
      </trkpt>
      <trkpt lat="44.23403" lon="6.35109">
        <ele>1220</ele>
        <time>2022-06-08T22:38:15Z</time>
      </trkpt>
      <trkpt lat="44.23404" lon="6.35129">
        <ele>1217</ele>
        <time>2022-06-08T22:38:19Z</time>
      </trkpt>
      <trkpt lat="44.23409" lon="6.35151">
        <ele>1214</ele>
        <time>2022-06-08T22:38:23Z</time>
      </trkpt>
      <trkpt lat="44.23399" lon="6.35194">
        <ele>1205</ele>
        <time>2022-06-08T22:38:30Z</time>
      </trkpt>
      <trkpt lat="44.23399" lon="6.35242">
        <ele>1198</ele>
        <time>2022-06-08T22:38:38Z</time>
      </trkpt>
      <trkpt lat="44.23414" lon="6.35276">
        <ele>1193</ele>
        <time>2022-06-08T22:38:45Z</time>
      </trkpt>
      <trkpt lat="44.23434" lon="6.35298">
        <ele>1189</ele>
        <time>2022-06-08T22:38:51Z</time>
      </trkpt>
      <trkpt lat="44.2346" lon="6.35316">
        <ele>1186</ele>
        <time>2022-06-08T22:38:58Z</time>
      </trkpt>
      <trkpt lat="44.23475" lon="6.35317">
        <ele>1187</ele>
        <time>2022-06-08T22:39:01Z</time>
      </trkpt>
      <trkpt lat="44.235" lon="6.35312">
        <ele>1192</ele>
        <time>2022-06-08T22:39:07Z</time>
      </trkpt>
      <trkpt lat="44.23528" lon="6.35301">
        <ele>1189</ele>
        <time>2022-06-08T22:39:14Z</time>
      </trkpt>
      <trkpt lat="44.23564" lon="6.35284">
        <ele>1186</ele>
        <time>2022-06-08T22:39:23Z</time>
      </trkpt>
      <trkpt lat="44.23607" lon="6.35252">
        <ele>1180</ele>
        <time>2022-06-08T22:39:34Z</time>
      </trkpt>
      <trkpt lat="44.23628" lon="6.35225">
        <ele>1175</ele>
        <time>2022-06-08T22:39:41Z</time>
      </trkpt>
      <trkpt lat="44.23642" lon="6.35197">
        <ele>1172</ele>
        <time>2022-06-08T22:39:47Z</time>
      </trkpt>
      <trkpt lat="44.23661" lon="6.35167">
        <ele>1165</ele>
        <time>2022-06-08T22:39:53Z</time>
      </trkpt>
      <trkpt lat="44.23665" lon="6.35158">
        <ele>1164</ele>
        <time>2022-06-08T22:39:55Z</time>
      </trkpt>
      <trkpt lat="44.23667" lon="6.35144">
        <ele>1164</ele>
        <time>2022-06-08T22:39:57Z</time>
      </trkpt>
      <trkpt lat="44.2367" lon="6.35098">
        <ele>1166</ele>
        <time>2022-06-08T22:40:05Z</time>
      </trkpt>
      <trkpt lat="44.23669" lon="6.35075">
        <ele>1169</ele>
        <time>2022-06-08T22:40:09Z</time>
      </trkpt>
      <trkpt lat="44.23678" lon="6.35056">
        <ele>1166</ele>
        <time>2022-06-08T22:40:13Z</time>
      </trkpt>
      <trkpt lat="44.23704" lon="6.35049">
        <ele>1154</ele>
        <time>2022-06-08T22:40:19Z</time>
      </trkpt>
      <trkpt lat="44.2371" lon="6.3504">
        <ele>1152</ele>
        <time>2022-06-08T22:40:21Z</time>
      </trkpt>
      <trkpt lat="44.23708" lon="6.34974">
        <ele>1159</ele>
        <time>2022-06-08T22:40:32Z</time>
      </trkpt>
      <trkpt lat="44.23715" lon="6.34965">
        <ele>1156</ele>
        <time>2022-06-08T22:40:34Z</time>
      </trkpt>
      <trkpt lat="44.2372" lon="6.34964">
        <ele>1154</ele>
        <time>2022-06-08T22:40:35Z</time>
      </trkpt>
      <trkpt lat="44.2374" lon="6.34969">
        <ele>1145</ele>
        <time>2022-06-08T22:40:40Z</time>
      </trkpt>
      <trkpt lat="44.2375" lon="6.34966">
        <ele>1140</ele>
        <time>2022-06-08T22:40:43Z</time>
      </trkpt>
      <trkpt lat="44.23755" lon="6.34962">
        <ele>1140</ele>
        <time>2022-06-08T22:40:44Z</time>
      </trkpt>
      <trkpt lat="44.23767" lon="6.34943">
        <ele>1139</ele>
        <time>2022-06-08T22:40:48Z</time>
      </trkpt>
      <trkpt lat="44.23771" lon="6.34931">
        <ele>1140</ele>
        <time>2022-06-08T22:40:50Z</time>
      </trkpt>
      <trkpt lat="44.23774" lon="6.34918">
        <ele>1140</ele>
        <time>2022-06-08T22:40:53Z</time>
      </trkpt>
      <trkpt lat="44.23765" lon="6.34875">
        <ele>1142</ele>
        <time>2022-06-08T22:41:00Z</time>
      </trkpt>
      <trkpt lat="44.23761" lon="6.3484">
        <ele>1142</ele>
        <time>2022-06-08T22:41:06Z</time>
      </trkpt>
      <trkpt lat="44.23765" lon="6.3483">
        <ele>1142</ele>
        <time>2022-06-08T22:41:08Z</time>
      </trkpt>
      <trkpt lat="44.23772" lon="6.34829">
        <ele>1142</ele>
        <time>2022-06-08T22:41:10Z</time>
      </trkpt>
      <trkpt lat="44.23779" lon="6.34832">
        <ele>1141</ele>
        <time>2022-06-08T22:41:11Z</time>
      </trkpt>
      <trkpt lat="44.23806" lon="6.34854">
        <ele>1138</ele>
        <time>2022-06-08T22:41:19Z</time>
      </trkpt>
      <trkpt lat="44.23813" lon="6.34866">
        <ele>1136</ele>
        <time>2022-06-08T22:41:21Z</time>
      </trkpt>
      <trkpt lat="44.23817" lon="6.34908">
        <ele>1133</ele>
        <time>2022-06-08T22:41:28Z</time>
      </trkpt>
      <trkpt lat="44.23817" lon="6.34939">
        <ele>1130</ele>
        <time>2022-06-08T22:41:34Z</time>
      </trkpt>
      <trkpt lat="44.23825" lon="6.3496">
        <ele>1126</ele>
        <time>2022-06-08T22:41:38Z</time>
      </trkpt>
      <trkpt lat="44.23832" lon="6.3499">
        <ele>1122</ele>
        <time>2022-06-08T22:41:43Z</time>
      </trkpt>
      <trkpt lat="44.23832" lon="6.35002">
        <ele>1121</ele>
        <time>2022-06-08T22:41:45Z</time>
      </trkpt>
      <trkpt lat="44.23807" lon="6.35135">
        <ele>1113</ele>
        <time>2022-06-08T22:42:08Z</time>
      </trkpt>
      <trkpt lat="44.238" lon="6.35308">
        <ele>1097</ele>
        <time>2022-06-08T22:42:37Z</time>
      </trkpt>
      <trkpt lat="44.2381" lon="6.35344">
        <ele>1092</ele>
        <time>2022-06-08T22:42:43Z</time>
      </trkpt>
      <trkpt lat="44.23821" lon="6.35412">
        <ele>1084</ele>
        <time>2022-06-08T22:42:55Z</time>
      </trkpt>
      <trkpt lat="44.23827" lon="6.35431">
        <ele>1081</ele>
        <time>2022-06-08T22:42:58Z</time>
      </trkpt>
      <trkpt lat="44.23856" lon="6.3547">
        <ele>1080</ele>
        <time>2022-06-08T22:43:08Z</time>
      </trkpt>
      <trkpt lat="44.23873" lon="6.35499">
        <ele>1080</ele>
        <time>2022-06-08T22:43:14Z</time>
      </trkpt>
      <trkpt lat="44.23884" lon="6.35536">
        <ele>1079</ele>
        <time>2022-06-08T22:43:21Z</time>
      </trkpt>
      <trkpt lat="44.23902" lon="6.35556">
        <ele>1080</ele>
        <time>2022-06-08T22:43:26Z</time>
      </trkpt>
      <trkpt lat="44.23917" lon="6.35553">
        <ele>1082</ele>
        <time>2022-06-08T22:43:30Z</time>
      </trkpt>
      <trkpt lat="44.23955" lon="6.35523">
        <ele>1086</ele>
        <time>2022-06-08T22:43:40Z</time>
      </trkpt>
      <trkpt lat="44.23971" lon="6.35504">
        <ele>1090</ele>
        <time>2022-06-08T22:43:45Z</time>
      </trkpt>
      <trkpt lat="44.24004" lon="6.35456">
        <ele>1100</ele>
        <time>2022-06-08T22:43:56Z</time>
      </trkpt>
      <trkpt lat="44.24028" lon="6.35438">
        <ele>1103</ele>
        <time>2022-06-08T22:44:02Z</time>
      </trkpt>
      <trkpt lat="44.24081" lon="6.35435">
        <ele>1103</ele>
        <time>2022-06-08T22:44:15Z</time>
      </trkpt>
      <trkpt lat="44.24086" lon="6.35431">
        <ele>1103</ele>
        <time>2022-06-08T22:44:16Z</time>
      </trkpt>
      <trkpt lat="44.24086" lon="6.35421">
        <ele>1105</ele>
        <time>2022-06-08T22:44:18Z</time>
      </trkpt>
      <trkpt lat="44.2408" lon="6.35413">
        <ele>1107</ele>
        <time>2022-06-08T22:44:20Z</time>
      </trkpt>
      <trkpt lat="44.24093" lon="6.35415">
        <ele>1106</ele>
        <time>2022-06-08T22:44:23Z</time>
      </trkpt>
      <trkpt lat="44.24083" lon="6.3541">
        <ele>1107</ele>
        <time>2022-06-08T22:44:25Z</time>
      </trkpt>
      <trkpt lat="44.24064" lon="6.35393">
        <ele>1111</ele>
        <time>2022-06-08T22:44:30Z</time>
      </trkpt>
      <trkpt lat="44.2406" lon="6.35414">
        <ele>1107</ele>
        <time>2022-06-08T22:44:34Z</time>
      </trkpt>
      <trkpt lat="44.24065" lon="6.35405">
        <ele>1108</ele>
        <time>2022-06-08T22:44:36Z</time>
      </trkpt>
      <trkpt lat="44.24068" lon="6.35409">
        <ele>1108</ele>
        <time>2022-06-08T22:44:37Z</time>
      </trkpt>
      <trkpt lat="44.24068" lon="6.354">
        <ele>1109</ele>
        <time>2022-06-08T22:44:38Z</time>
      </trkpt>
      <trkpt lat="44.24067" lon="6.35405">
        <ele>1108</ele>
        <time>2022-06-08T22:44:39Z</time>
      </trkpt>
      <trkpt lat="44.24064" lon="6.35404">
        <ele>1109</ele>
        <time>2022-06-08T22:44:40Z</time>
      </trkpt>
      <trkpt lat="44.24068" lon="6.35393">
        <ele>1111</ele>
        <time>2022-06-08T22:44:42Z</time>
      </trkpt>
      <trkpt lat="44.24062" lon="6.35398">
        <ele>1110</ele>
        <time>2022-06-08T22:44:44Z</time>
      </trkpt>
      <trkpt lat="44.24062" lon="6.35404">
        <ele>1109</ele>
        <time>2022-06-08T22:44:45Z</time>
      </trkpt>
      <trkpt lat="44.24061" lon="6.354">
        <ele>1109</ele>
        <time>2022-06-08T22:44:45Z</time>
      </trkpt>
      <trkpt lat="44.24063" lon="6.35409">
        <ele>1108</ele>
        <time>2022-06-08T22:44:47Z</time>
      </trkpt>
      <trkpt lat="44.24061" lon="6.35409">
        <ele>1108</ele>
        <time>2022-06-08T22:44:47Z</time>
      </trkpt>
      <trkpt lat="44.24065" lon="6.35396">
        <ele>1110</ele>
        <time>2022-06-08T22:44:50Z</time>
      </trkpt>
      <trkpt lat="44.24064" lon="6.35403">
        <ele>1109</ele>
        <time>2022-06-08T22:44:51Z</time>
      </trkpt>
      <trkpt lat="44.24066" lon="6.35405">
        <ele>1108</ele>
        <time>2022-06-08T22:44:52Z</time>
      </trkpt>
      <trkpt lat="44.24066" lon="6.35401">
        <ele>1109</ele>
        <time>2022-06-08T22:44:52Z</time>
      </trkpt>
      <trkpt lat="44.24064" lon="6.35406">
        <ele>1108</ele>
        <time>2022-06-08T22:44:53Z</time>
      </trkpt>
      <trkpt lat="44.24067" lon="6.35398">
        <ele>1110</ele>
        <time>2022-06-08T22:44:55Z</time>
      </trkpt>
      <trkpt lat="44.24064" lon="6.35399">
        <ele>1110</ele>
        <time>2022-06-08T22:44:55Z</time>
      </trkpt>
      <trkpt lat="44.24066" lon="6.35402">
        <ele>1109</ele>
        <time>2022-06-08T22:44:56Z</time>
      </trkpt>
      <trkpt lat="44.24063" lon="6.35409">
        <ele>1108</ele>
        <time>2022-06-08T22:44:58Z</time>
      </trkpt>
      <trkpt lat="44.24067" lon="6.35403">
        <ele>1109</ele>
        <time>2022-06-08T22:44:59Z</time>
      </trkpt>
      <trkpt lat="44.24064" lon="6.35404">
        <ele>1109</ele>
        <time>2022-06-08T22:45:00Z</time>
      </trkpt>
      <trkpt lat="44.24066" lon="6.35396">
        <ele>1110</ele>
        <time>2022-06-08T22:45:01Z</time>
      </trkpt>
      <trkpt lat="44.24062" lon="6.35401">
        <ele>1109</ele>
        <time>2022-06-08T22:45:02Z</time>
      </trkpt>
      <trkpt lat="44.24065" lon="6.35394">
        <ele>1111</ele>
        <time>2022-06-08T22:45:04Z</time>
      </trkpt>
      <trkpt lat="44.24065" lon="6.354">
        <ele>1109</ele>
        <time>2022-06-08T22:45:05Z</time>
      </trkpt>
      <trkpt lat="44.24059" lon="6.35411">
        <ele>1107</ele>
        <time>2022-06-08T22:45:07Z</time>
      </trkpt>
      <trkpt lat="44.24064" lon="6.35397">
        <ele>1110</ele>
        <time>2022-06-08T22:45:10Z</time>
      </trkpt>
      <trkpt lat="44.24059" lon="6.35401">
        <ele>1109</ele>
        <time>2022-06-08T22:45:11Z</time>
      </trkpt>
      <trkpt lat="44.24058" lon="6.35405">
        <ele>1108</ele>
        <time>2022-06-08T22:45:12Z</time>
      </trkpt>
      <trkpt lat="44.24059" lon="6.35399">
        <ele>1110</ele>
        <time>2022-06-08T22:45:13Z</time>
      </trkpt>
      <trkpt lat="44.24053" lon="6.35391">
        <ele>1111</ele>
        <time>2022-06-08T22:45:15Z</time>
      </trkpt>
      <trkpt lat="44.24051" lon="6.35379">
        <ele>1114</ele>
        <time>2022-06-08T22:45:17Z</time>
      </trkpt>
      <trkpt lat="44.24043" lon="6.35358">
        <ele>1119</ele>
        <time>2022-06-08T22:45:21Z</time>
      </trkpt>
      <trkpt lat="44.24021" lon="6.3536">
        <ele>1119</ele>
        <time>2022-06-08T22:45:26Z</time>
      </trkpt>
      <trkpt lat="44.24015" lon="6.35357">
        <ele>1120</ele>
        <time>2022-06-08T22:45:27Z</time>
      </trkpt>
      <trkpt lat="44.24013" lon="6.35348">
        <ele>1122</ele>
        <time>2022-06-08T22:45:29Z</time>
      </trkpt>
      <trkpt lat="44.24019" lon="6.35332">
        <ele>1125</ele>
        <time>2022-06-08T22:45:32Z</time>
      </trkpt>
      <trkpt lat="44.24025" lon="6.35325">
        <ele>1127</ele>
        <time>2022-06-08T22:45:34Z</time>
      </trkpt>
      <trkpt lat="44.24031" lon="6.35324">
        <ele>1127</ele>
        <time>2022-06-08T22:45:35Z</time>
      </trkpt>
      <trkpt lat="44.24074" lon="6.35297">
        <ele>1132</ele>
        <time>2022-06-08T22:45:46Z</time>
      </trkpt>
      <trkpt lat="44.24095" lon="6.35279">
        <ele>1136</ele>
        <time>2022-06-08T22:45:52Z</time>
      </trkpt>
      <trkpt lat="44.2412" lon="6.35283">
        <ele>1133</ele>
        <time>2022-06-08T22:45:58Z</time>
      </trkpt>
      <trkpt lat="44.24124" lon="6.35277">
        <ele>1134</ele>
        <time>2022-06-08T22:45:59Z</time>
      </trkpt>
      <trkpt lat="44.24122" lon="6.35265">
        <ele>1137</ele>
        <time>2022-06-08T22:46:01Z</time>
      </trkpt>
      <trkpt lat="44.241" lon="6.35257">
        <ele>1141</ele>
        <time>2022-06-08T22:46:07Z</time>
      </trkpt>
      <trkpt lat="44.24051" lon="6.35254">
        <ele>1144</ele>
        <time>2022-06-08T22:46:18Z</time>
      </trkpt>
      <trkpt lat="44.24039" lon="6.35246">
        <ele>1146</ele>
        <time>2022-06-08T22:46:21Z</time>
      </trkpt>
      <trkpt lat="44.24039" lon="6.35242">
        <ele>1147</ele>
        <time>2022-06-08T22:46:22Z</time>
      </trkpt>
      <trkpt lat="44.24042" lon="6.35234">
        <ele>1149</ele>
        <time>2022-06-08T22:46:23Z</time>
      </trkpt>
      <trkpt lat="44.24105" lon="6.35199">
        <ele>1157</ele>
        <time>2022-06-08T22:46:39Z</time>
      </trkpt>
      <trkpt lat="44.24124" lon="6.35186">
        <ele>1157</ele>
        <time>2022-06-08T22:46:44Z</time>
      </trkpt>
      <trkpt lat="44.24149" lon="6.35151">
        <ele>1160</ele>
        <time>2022-06-08T22:46:52Z</time>
      </trkpt>
      <trkpt lat="44.24166" lon="6.3512">
        <ele>1160</ele>
        <time>2022-06-08T22:46:59Z</time>
      </trkpt>
      <trkpt lat="44.24173" lon="6.35089">
        <ele>1163</ele>
        <time>2022-06-08T22:47:04Z</time>
      </trkpt>
      <trkpt lat="44.24205" lon="6.35025">
        <ele>1161</ele>
        <time>2022-06-08T22:47:17Z</time>
      </trkpt>
      <trkpt lat="44.24202" lon="6.34982">
        <ele>1164</ele>
        <time>2022-06-08T22:47:25Z</time>
      </trkpt>
      <trkpt lat="44.24195" lon="6.34938">
        <ele>1169</ele>
        <time>2022-06-08T22:47:32Z</time>
      </trkpt>
      <trkpt lat="44.24184" lon="6.34913">
        <ele>1173</ele>
        <time>2022-06-08T22:47:37Z</time>
      </trkpt>
      <trkpt lat="44.24184" lon="6.34905">
        <ele>1174</ele>
        <time>2022-06-08T22:47:38Z</time>
      </trkpt>
      <trkpt lat="44.24193" lon="6.34871">
        <ele>1175</ele>
        <time>2022-06-08T22:47:44Z</time>
      </trkpt>
      <trkpt lat="44.24207" lon="6.34852">
        <ele>1176</ele>
        <time>2022-06-08T22:47:49Z</time>
      </trkpt>
      <trkpt lat="44.24211" lon="6.34851">
        <ele>1175</ele>
        <time>2022-06-08T22:47:50Z</time>
      </trkpt>
      <trkpt lat="44.24228" lon="6.34855">
        <ele>1173</ele>
        <time>2022-06-08T22:47:54Z</time>
      </trkpt>
      <trkpt lat="44.24241" lon="6.34867">
        <ele>1169</ele>
        <time>2022-06-08T22:47:58Z</time>
      </trkpt>
      <trkpt lat="44.2425" lon="6.34869">
        <ele>1167</ele>
        <time>2022-06-08T22:48:00Z</time>
      </trkpt>
      <trkpt lat="44.24261" lon="6.34863">
        <ele>1167</ele>
        <time>2022-06-08T22:48:02Z</time>
      </trkpt>
      <trkpt lat="44.2427" lon="6.3485">
        <ele>1169</ele>
        <time>2022-06-08T22:48:05Z</time>
      </trkpt>
      <trkpt lat="44.24287" lon="6.34833">
        <ele>1172</ele>
        <time>2022-06-08T22:48:10Z</time>
      </trkpt>
      <trkpt lat="44.24315" lon="6.34812">
        <ele>1176</ele>
        <time>2022-06-08T22:48:18Z</time>
      </trkpt>
      <trkpt lat="44.2432" lon="6.34811">
        <ele>1176</ele>
        <time>2022-06-08T22:48:19Z</time>
      </trkpt>
      <trkpt lat="44.2433" lon="6.348">
        <ele>1178</ele>
        <time>2022-06-08T22:48:22Z</time>
      </trkpt>
      <trkpt lat="44.24348" lon="6.34769">
        <ele>1181</ele>
        <time>2022-06-08T22:48:29Z</time>
      </trkpt>
      <trkpt lat="44.24363" lon="6.34757">
        <ele>1179</ele>
        <time>2022-06-08T22:48:33Z</time>
      </trkpt>
      <trkpt lat="44.24372" lon="6.3474">
        <ele>1179</ele>
        <time>2022-06-08T22:48:36Z</time>
      </trkpt>
      <trkpt lat="44.244" lon="6.34732">
        <ele>1168</ele>
        <time>2022-06-08T22:48:43Z</time>
      </trkpt>
      <trkpt lat="44.24409" lon="6.34708">
        <ele>1168</ele>
        <time>2022-06-08T22:48:47Z</time>
      </trkpt>
      <trkpt lat="44.24415" lon="6.34681">
        <ele>1168</ele>
        <time>2022-06-08T22:48:52Z</time>
      </trkpt>
      <trkpt lat="44.24428" lon="6.34602">
        <ele>1182</ele>
        <time>2022-06-08T22:49:06Z</time>
      </trkpt>
      <trkpt lat="44.24433" lon="6.34599">
        <ele>1182</ele>
        <time>2022-06-08T22:49:07Z</time>
      </trkpt>
      <trkpt lat="44.24443" lon="6.346">
        <ele>1179</ele>
        <time>2022-06-08T22:49:09Z</time>
      </trkpt>
      <trkpt lat="44.24454" lon="6.34595">
        <ele>1176</ele>
        <time>2022-06-08T22:49:12Z</time>
      </trkpt>
      <trkpt lat="44.24501" lon="6.34584">
        <ele>1165</ele>
        <time>2022-06-08T22:49:23Z</time>
      </trkpt>
      <trkpt lat="44.24507" lon="6.34576">
        <ele>1168</ele>
        <time>2022-06-08T22:49:25Z</time>
      </trkpt>
      <trkpt lat="44.24518" lon="6.34546">
        <ele>1178</ele>
        <time>2022-06-08T22:49:31Z</time>
      </trkpt>
      <trkpt lat="44.24523" lon="6.34545">
        <ele>1179</ele>
        <time>2022-06-08T22:49:32Z</time>
      </trkpt>
      <trkpt lat="44.24538" lon="6.34553">
        <ele>1179</ele>
        <time>2022-06-08T22:49:36Z</time>
      </trkpt>
      <trkpt lat="44.24553" lon="6.34535">
        <ele>1185</ele>
        <time>2022-06-08T22:49:40Z</time>
      </trkpt>
      <trkpt lat="44.24599" lon="6.34501">
        <ele>1197</ele>
        <time>2022-06-08T22:49:52Z</time>
      </trkpt>
      <trkpt lat="44.24625" lon="6.34475">
        <ele>1207</ele>
        <time>2022-06-08T22:50:00Z</time>
      </trkpt>
      <trkpt lat="44.24633" lon="6.34477">
        <ele>1208</ele>
        <time>2022-06-08T22:50:02Z</time>
      </trkpt>
      <trkpt lat="44.24635" lon="6.34482">
        <ele>1207</ele>
        <time>2022-06-08T22:50:03Z</time>
      </trkpt>
      <trkpt lat="44.24628" lon="6.34521">
        <ele>1203</ele>
        <time>2022-06-08T22:50:09Z</time>
      </trkpt>
      <trkpt lat="44.24622" lon="6.34536">
        <ele>1201</ele>
        <time>2022-06-08T22:50:12Z</time>
      </trkpt>
      <trkpt lat="44.24612" lon="6.34551">
        <ele>1196</ele>
        <time>2022-06-08T22:50:16Z</time>
      </trkpt>
      <trkpt lat="44.246" lon="6.3456">
        <ele>1190</ele>
        <time>2022-06-08T22:50:19Z</time>
      </trkpt>
      <trkpt lat="44.24592" lon="6.34602">
        <ele>1185</ele>
        <time>2022-06-08T22:50:26Z</time>
      </trkpt>
      <trkpt lat="44.24595" lon="6.34617">
        <ele>1187</ele>
        <time>2022-06-08T22:50:29Z</time>
      </trkpt>
      <trkpt lat="44.24613" lon="6.34628">
        <ele>1197</ele>
        <time>2022-06-08T22:50:33Z</time>
      </trkpt>
      <trkpt lat="44.2462" lon="6.34667">
        <ele>1204</ele>
        <time>2022-06-08T22:50:40Z</time>
      </trkpt>
      <trkpt lat="44.24597" lon="6.34703">
        <ele>1196</ele>
        <time>2022-06-08T22:50:48Z</time>
      </trkpt>
      <trkpt lat="44.24596" lon="6.34719">
        <ele>1197</ele>
        <time>2022-06-08T22:50:51Z</time>
      </trkpt>
      <trkpt lat="44.24626" lon="6.34861">
        <ele>1213</ele>
        <time>2022-06-08T22:51:16Z</time>
      </trkpt>
      <trkpt lat="44.24649" lon="6.34927">
        <ele>1220</ele>
        <time>2022-06-08T22:51:28Z</time>
      </trkpt>
      <trkpt lat="44.24652" lon="6.34942">
        <ele>1219</ele>
        <time>2022-06-08T22:51:31Z</time>
      </trkpt>
      <trkpt lat="44.24682" lon="6.34999">
        <ele>1224</ele>
        <time>2022-06-08T22:51:42Z</time>
      </trkpt>
      <trkpt lat="44.2471" lon="6.35034">
        <ele>1226</ele>
        <time>2022-06-08T22:51:51Z</time>
      </trkpt>
      <trkpt lat="44.24746" lon="6.35064">
        <ele>1230</ele>
        <time>2022-06-08T22:52:01Z</time>
      </trkpt>
      <trkpt lat="44.24769" lon="6.35114">
        <ele>1223</ele>
        <time>2022-06-08T22:52:11Z</time>
      </trkpt>
      <trkpt lat="44.24803" lon="6.35132">
        <ele>1228</ele>
        <time>2022-06-08T22:52:19Z</time>
      </trkpt>
      <trkpt lat="44.24824" lon="6.35129">
        <ele>1235</ele>
        <time>2022-06-08T22:52:24Z</time>
      </trkpt>
      <trkpt lat="44.24828" lon="6.35134">
        <ele>1234</ele>
        <time>2022-06-08T22:52:26Z</time>
      </trkpt>
      <trkpt lat="44.24833" lon="6.35151">
        <ele>1230</ele>
        <time>2022-06-08T22:52:29Z</time>
      </trkpt>
      <trkpt lat="44.24843" lon="6.35162">
        <ele>1228</ele>
        <time>2022-06-08T22:52:32Z</time>
      </trkpt>
      <trkpt lat="44.24868" lon="6.35178">
        <ele>1228</ele>
        <time>2022-06-08T22:52:38Z</time>
      </trkpt>
      <trkpt lat="44.24881" lon="6.35183">
        <ele>1228</ele>
        <time>2022-06-08T22:52:41Z</time>
      </trkpt>
      <trkpt lat="44.24895" lon="6.35184">
        <ele>1231</ele>
        <time>2022-06-08T22:52:44Z</time>
      </trkpt>
      <trkpt lat="44.24925" lon="6.35173">
        <ele>1240</ele>
        <time>2022-06-08T22:52:52Z</time>
      </trkpt>
      <trkpt lat="44.24931" lon="6.35168">
        <ele>1243</ele>
        <time>2022-06-08T22:52:53Z</time>
      </trkpt>
      <trkpt lat="44.24939" lon="6.35152">
        <ele>1250</ele>
        <time>2022-06-08T22:52:57Z</time>
      </trkpt>
      <trkpt lat="44.24951" lon="6.35145">
        <ele>1255</ele>
        <time>2022-06-08T22:53:00Z</time>
      </trkpt>
      <trkpt lat="44.24969" lon="6.35149">
        <ele>1256</ele>
        <time>2022-06-08T22:53:04Z</time>
      </trkpt>
      <trkpt lat="44.24986" lon="6.35142">
        <ele>1262</ele>
        <time>2022-06-08T22:53:08Z</time>
      </trkpt>
      <trkpt lat="44.24998" lon="6.35157">
        <ele>1258</ele>
        <time>2022-06-08T22:53:12Z</time>
      </trkpt>
      <trkpt lat="44.25001" lon="6.35165">
        <ele>1256</ele>
        <time>2022-06-08T22:53:13Z</time>
      </trkpt>
      <trkpt lat="44.25003" lon="6.35186">
        <ele>1251</ele>
        <time>2022-06-08T22:53:17Z</time>
      </trkpt>
      <trkpt lat="44.25023" lon="6.35223">
        <ele>1247</ele>
        <time>2022-06-08T22:53:25Z</time>
      </trkpt>
      <trkpt lat="44.25041" lon="6.3524">
        <ele>1248</ele>
        <time>2022-06-08T22:53:30Z</time>
      </trkpt>
      <trkpt lat="44.25073" lon="6.35248">
        <ele>1257</ele>
        <time>2022-06-08T22:53:37Z</time>
      </trkpt>
      <trkpt lat="44.25087" lon="6.35264">
        <ele>1258</ele>
        <time>2022-06-08T22:53:41Z</time>
      </trkpt>
      <trkpt lat="44.25091" lon="6.35265">
        <ele>1259</ele>
        <time>2022-06-08T22:53:42Z</time>
      </trkpt>
      <trkpt lat="44.25174" lon="6.35269">
        <ele>1272</ele>
        <time>2022-06-08T22:54:02Z</time>
      </trkpt>
      <trkpt lat="44.25222" lon="6.35292">
        <ele>1271</ele>
        <time>2022-06-08T22:54:14Z</time>
      </trkpt>
      <trkpt lat="44.25235" lon="6.35302">
        <ele>1271</ele>
        <time>2022-06-08T22:54:17Z</time>
      </trkpt>
      <trkpt lat="44.25247" lon="6.35304">
        <ele>1270</ele>
        <time>2022-06-08T22:54:20Z</time>
      </trkpt>
      <trkpt lat="44.2528" lon="6.35327">
        <ele>1261</ele>
        <time>2022-06-08T22:54:29Z</time>
      </trkpt>
      <trkpt lat="44.25312" lon="6.35337">
        <ele>1253</ele>
        <time>2022-06-08T22:54:36Z</time>
      </trkpt>
      <trkpt lat="44.25322" lon="6.35336">
        <ele>1251</ele>
        <time>2022-06-08T22:54:39Z</time>
      </trkpt>
      <trkpt lat="44.25334" lon="6.3533">
        <ele>1249</ele>
        <time>2022-06-08T22:54:42Z</time>
      </trkpt>
      <trkpt lat="44.25347" lon="6.35318">
        <ele>1250</ele>
        <time>2022-06-08T22:54:45Z</time>
      </trkpt>
      <trkpt lat="44.25352" lon="6.35284">
        <ele>1255</ele>
        <time>2022-06-08T22:54:51Z</time>
      </trkpt>
      <trkpt lat="44.25356" lon="6.35276">
        <ele>1256</ele>
        <time>2022-06-08T22:54:53Z</time>
      </trkpt>
      <trkpt lat="44.25359" lon="6.35275">
        <ele>1255</ele>
        <time>2022-06-08T22:54:53Z</time>
      </trkpt>
      <trkpt lat="44.25365" lon="6.35277">
        <ele>1254</ele>
        <time>2022-06-08T22:54:55Z</time>
      </trkpt>
      <trkpt lat="44.2537" lon="6.35284">
        <ele>1252</ele>
        <time>2022-06-08T22:54:56Z</time>
      </trkpt>
      <trkpt lat="44.25431" lon="6.3534">
        <ele>1233</ele>
        <time>2022-06-08T22:55:14Z</time>
      </trkpt>
      <trkpt lat="44.25452" lon="6.35345">
        <ele>1230</ele>
        <time>2022-06-08T22:55:18Z</time>
      </trkpt>
      <trkpt lat="44.25482" lon="6.35343">
        <ele>1227</ele>
        <time>2022-06-08T22:55:25Z</time>
      </trkpt>
      <trkpt lat="44.25511" lon="6.35332">
        <ele>1224</ele>
        <time>2022-06-08T22:55:33Z</time>
      </trkpt>
      <trkpt lat="44.25566" lon="6.35307">
        <ele>1210</ele>
        <time>2022-06-08T22:55:46Z</time>
      </trkpt>
      <trkpt lat="44.25603" lon="6.35287">
        <ele>1203</ele>
        <time>2022-06-08T22:55:55Z</time>
      </trkpt>
      <trkpt lat="44.25608" lon="6.3528">
        <ele>1203</ele>
        <time>2022-06-08T22:55:57Z</time>
      </trkpt>
      <trkpt lat="44.25622" lon="6.3527">
        <ele>1200</ele>
        <time>2022-06-08T22:56:01Z</time>
      </trkpt>
      <trkpt lat="44.25631" lon="6.35267">
        <ele>1198</ele>
        <time>2022-06-08T22:56:03Z</time>
      </trkpt>
      <trkpt lat="44.25653" lon="6.35283">
        <ele>1190</ele>
        <time>2022-06-08T22:56:09Z</time>
      </trkpt>
      <trkpt lat="44.25674" lon="6.3529">
        <ele>1185</ele>
        <time>2022-06-08T22:56:14Z</time>
      </trkpt>
      <trkpt lat="44.25687" lon="6.35303">
        <ele>1183</ele>
        <time>2022-06-08T22:56:17Z</time>
      </trkpt>
      <trkpt lat="44.25717" lon="6.35306">
        <ele>1180</ele>
        <time>2022-06-08T22:56:24Z</time>
      </trkpt>
      <trkpt lat="44.25726" lon="6.35326">
        <ele>1178</ele>
        <time>2022-06-08T22:56:28Z</time>
      </trkpt>
      <trkpt lat="44.25735" lon="6.35332">
        <ele>1177</ele>
        <time>2022-06-08T22:56:31Z</time>
      </trkpt>
      <trkpt lat="44.25752" lon="6.3533">
        <ele>1176</ele>
        <time>2022-06-08T22:56:35Z</time>
      </trkpt>
      <trkpt lat="44.25748" lon="6.3531">
        <ele>1177</ele>
        <time>2022-06-08T22:56:38Z</time>
      </trkpt>
      <trkpt lat="44.25749" lon="6.35313">
        <ele>1177</ele>
        <time>2022-06-08T22:56:39Z</time>
      </trkpt>
      <trkpt lat="44.25747" lon="6.35315">
        <ele>1177</ele>
        <time>2022-06-08T22:56:39Z</time>
      </trkpt>
      <trkpt lat="44.25773" lon="6.35306">
        <ele>1176</ele>
        <time>2022-06-08T22:56:45Z</time>
      </trkpt>
      <trkpt lat="44.25796" lon="6.35307">
        <ele>1175</ele>
        <time>2022-06-08T22:56:51Z</time>
      </trkpt>
      <trkpt lat="44.25819" lon="6.35302">
        <ele>1174</ele>
        <time>2022-06-08T22:56:56Z</time>
      </trkpt>
      <trkpt lat="44.2584" lon="6.35312">
        <ele>1172</ele>
        <time>2022-06-08T22:57:01Z</time>
      </trkpt>
      <trkpt lat="44.25873" lon="6.35322">
        <ele>1170</ele>
        <time>2022-06-08T22:57:09Z</time>
      </trkpt>
      <trkpt lat="44.25876" lon="6.35319">
        <ele>1169</ele>
        <time>2022-06-08T22:57:10Z</time>
      </trkpt>
      <trkpt lat="44.25913" lon="6.35305">
        <ele>1166</ele>
        <time>2022-06-08T22:57:19Z</time>
      </trkpt>
      <trkpt lat="44.25945" lon="6.35279">
        <ele>1161</ele>
        <time>2022-06-08T22:57:28Z</time>
      </trkpt>
      <trkpt lat="44.25968" lon="6.35252">
        <ele>1155</ele>
        <time>2022-06-08T22:57:35Z</time>
      </trkpt>
      <trkpt lat="44.25983" lon="6.35239">
        <ele>1154</ele>
        <time>2022-06-08T22:57:39Z</time>
      </trkpt>
      <trkpt lat="44.26" lon="6.35233">
        <ele>1152</ele>
        <time>2022-06-08T22:57:43Z</time>
      </trkpt>
      <trkpt lat="44.26023" lon="6.35234">
        <ele>1150</ele>
        <time>2022-06-08T22:57:48Z</time>
      </trkpt>
      <trkpt lat="44.26035" lon="6.35232">
        <ele>1149</ele>
        <time>2022-06-08T22:57:51Z</time>
      </trkpt>
      <trkpt lat="44.26078" lon="6.3521">
        <ele>1144</ele>
        <time>2022-06-08T22:58:02Z</time>
      </trkpt>
      <trkpt lat="44.26114" lon="6.35184">
        <ele>1141</ele>
        <time>2022-06-08T22:58:11Z</time>
      </trkpt>
      <trkpt lat="44.26134" lon="6.35133">
        <ele>1140</ele>
        <time>2022-06-08T22:58:21Z</time>
      </trkpt>
      <trkpt lat="44.26141" lon="6.35103">
        <ele>1140</ele>
        <time>2022-06-08T22:58:26Z</time>
      </trkpt>
      <trkpt lat="44.26146" lon="6.35015">
        <ele>1142</ele>
        <time>2022-06-08T22:58:41Z</time>
      </trkpt>
      <trkpt lat="44.26155" lon="6.34977">
        <ele>1141</ele>
        <time>2022-06-08T22:58:48Z</time>
      </trkpt>
      <trkpt lat="44.26151" lon="6.34949">
        <ele>1143</ele>
        <time>2022-06-08T22:58:53Z</time>
      </trkpt>
      <trkpt lat="44.26157" lon="6.34883">
        <ele>1144</ele>
        <time>2022-06-08T22:59:04Z</time>
      </trkpt>
      <trkpt lat="44.26173" lon="6.34824">
        <ele>1143</ele>
        <time>2022-06-08T22:59:14Z</time>
      </trkpt>
      <trkpt lat="44.26174" lon="6.34796">
        <ele>1145</ele>
        <time>2022-06-08T22:59:19Z</time>
      </trkpt>
      <trkpt lat="44.26192" lon="6.34747">
        <ele>1144</ele>
        <time>2022-06-08T22:59:28Z</time>
      </trkpt>
      <trkpt lat="44.26205" lon="6.34719">
        <ele>1143</ele>
        <time>2022-06-08T22:59:34Z</time>
      </trkpt>
      <trkpt lat="44.26213" lon="6.3469">
        <ele>1142</ele>
        <time>2022-06-08T22:59:39Z</time>
      </trkpt>
      <trkpt lat="44.26231" lon="6.34598">
        <ele>1136</ele>
        <time>2022-06-08T22:59:55Z</time>
      </trkpt>
      <trkpt lat="44.26232" lon="6.34568">
        <ele>1135</ele>
        <time>2022-06-08T23:00:00Z</time>
      </trkpt>
      <trkpt lat="44.26219" lon="6.34465">
        <ele>1134</ele>
        <time>2022-06-08T23:00:17Z</time>
      </trkpt>
      <trkpt lat="44.26216" lon="6.34447">
        <ele>1133</ele>
        <time>2022-06-08T23:00:21Z</time>
      </trkpt>
      <trkpt lat="44.26195" lon="6.34373">
        <ele>1131</ele>
        <time>2022-06-08T23:00:34Z</time>
      </trkpt>
      <trkpt lat="44.26199" lon="6.34337">
        <ele>1126</ele>
        <time>2022-06-08T23:00:40Z</time>
      </trkpt>
      <trkpt lat="44.26198" lon="6.34286">
        <ele>1125</ele>
        <time>2022-06-08T23:00:49Z</time>
      </trkpt>
      <trkpt lat="44.26203" lon="6.34273">
        <ele>1124</ele>
        <time>2022-06-08T23:00:51Z</time>
      </trkpt>
      <trkpt lat="44.26216" lon="6.34262">
        <ele>1124</ele>
        <time>2022-06-08T23:00:55Z</time>
      </trkpt>
      <trkpt lat="44.26263" lon="6.34249">
        <ele>1125</ele>
        <time>2022-06-08T23:01:06Z</time>
      </trkpt>
      <trkpt lat="44.26261" lon="6.34252">
        <ele>1125</ele>
        <time>2022-06-08T23:01:06Z</time>
      </trkpt>
      <trkpt lat="44.26296" lon="6.34237">
        <ele>1129</ele>
        <time>2022-06-08T23:01:15Z</time>
      </trkpt>
      <trkpt lat="44.26307" lon="6.34169">
        <ele>1127</ele>
        <time>2022-06-08T23:01:27Z</time>
      </trkpt>
      <trkpt lat="44.26327" lon="6.34118">
        <ele>1127</ele>
        <time>2022-06-08T23:01:36Z</time>
      </trkpt>
      <trkpt lat="44.26377" lon="6.34135">
        <ele>1130</ele>
        <time>2022-06-08T23:01:48Z</time>
      </trkpt>
      <trkpt lat="44.26494" lon="6.34168">
        <ele>1131</ele>
        <time>2022-06-08T23:02:16Z</time>
      </trkpt>
      <trkpt lat="44.26555" lon="6.34161">
        <ele>1135</ele>
        <time>2022-06-08T23:02:31Z</time>
      </trkpt>
      <trkpt lat="44.26535" lon="6.34163">
        <ele>1134</ele>
        <time>2022-06-08T23:02:35Z</time>
      </trkpt>
      <trkpt lat="44.26533" lon="6.34171">
        <ele>1133</ele>
        <time>2022-06-08T23:02:37Z</time>
      </trkpt>
      <trkpt lat="44.26535" lon="6.34193">
        <ele>1133</ele>
        <time>2022-06-08T23:02:40Z</time>
      </trkpt>
      <trkpt lat="44.26536" lon="6.34195">
        <ele>1133</ele>
        <time>2022-06-08T23:02:41Z</time>
      </trkpt>
      <trkpt lat="44.26536" lon="6.34191">
        <ele>1133</ele>
        <time>2022-06-08T23:02:41Z</time>
      </trkpt>
      <trkpt lat="44.26537" lon="6.34195">
        <ele>1133</ele>
        <time>2022-06-08T23:02:42Z</time>
      </trkpt>
      <trkpt lat="44.26538" lon="6.34193">
        <ele>1133</ele>
        <time>2022-06-08T23:02:43Z</time>
      </trkpt>
      <trkpt lat="44.26536" lon="6.34192">
        <ele>1133</ele>
        <time>2022-06-08T23:02:43Z</time>
      </trkpt>
      <trkpt lat="44.26536" lon="6.34197">
        <ele>1133</ele>
        <time>2022-06-08T23:02:44Z</time>
      </trkpt>
      <trkpt lat="44.26539" lon="6.34191">
        <ele>1133</ele>
        <time>2022-06-08T23:02:45Z</time>
      </trkpt>
      <trkpt lat="44.26536" lon="6.34187">
        <ele>1133</ele>
        <time>2022-06-08T23:02:46Z</time>
      </trkpt>
      <trkpt lat="44.26543" lon="6.34191">
        <ele>1133</ele>
        <time>2022-06-08T23:02:48Z</time>
      </trkpt>
      <trkpt lat="44.26536" lon="6.34189">
        <ele>1133</ele>
        <time>2022-06-08T23:02:49Z</time>
      </trkpt>
      <trkpt lat="44.26534" lon="6.34186">
        <ele>1133</ele>
        <time>2022-06-08T23:02:50Z</time>
      </trkpt>
      <trkpt lat="44.26533" lon="6.34189">
        <ele>1133</ele>
        <time>2022-06-08T23:02:51Z</time>
      </trkpt>
      <trkpt lat="44.26541" lon="6.34191">
        <ele>1133</ele>
        <time>2022-06-08T23:02:53Z</time>
      </trkpt>
      <trkpt lat="44.26539" lon="6.34193">
        <ele>1133</ele>
        <time>2022-06-08T23:02:53Z</time>
      </trkpt>
      <trkpt lat="44.2654" lon="6.34191">
        <ele>1133</ele>
        <time>2022-06-08T23:02:54Z</time>
      </trkpt>
      <trkpt lat="44.26544" lon="6.34193">
        <ele>1133</ele>
        <time>2022-06-08T23:02:55Z</time>
      </trkpt>
      <trkpt lat="44.26534" lon="6.34188">
        <ele>1133</ele>
        <time>2022-06-08T23:02:57Z</time>
      </trkpt>
      <trkpt lat="44.26537" lon="6.34188">
        <ele>1133</ele>
        <time>2022-06-08T23:02:58Z</time>
      </trkpt>
      <trkpt lat="44.26539" lon="6.34191">
        <ele>1133</ele>
        <time>2022-06-08T23:02:58Z</time>
      </trkpt>
      <trkpt lat="44.26538" lon="6.34188">
        <ele>1133</ele>
        <time>2022-06-08T23:02:59Z</time>
      </trkpt>
      <trkpt lat="44.26535" lon="6.3419">
        <ele>1133</ele>
        <time>2022-06-08T23:03:00Z</time>
      </trkpt>
      <trkpt lat="44.26537" lon="6.34187">
        <ele>1133</ele>
        <time>2022-06-08T23:03:00Z</time>
      </trkpt>
      <trkpt lat="44.26539" lon="6.34194">
        <ele>1133</ele>
        <time>2022-06-08T23:03:02Z</time>
      </trkpt>
      <trkpt lat="44.26546" lon="6.34193">
        <ele>1133</ele>
        <time>2022-06-08T23:03:03Z</time>
      </trkpt>
      <trkpt lat="44.26543" lon="6.34194">
        <ele>1133</ele>
        <time>2022-06-08T23:03:04Z</time>
      </trkpt>
      <trkpt lat="44.26545" lon="6.34195">
        <ele>1133</ele>
        <time>2022-06-08T23:03:05Z</time>
      </trkpt>
      <trkpt lat="44.26536" lon="6.34188">
        <ele>1133</ele>
        <time>2022-06-08T23:03:07Z</time>
      </trkpt>
      <trkpt lat="44.26531" lon="6.34187">
        <ele>1132</ele>
        <time>2022-06-08T23:03:08Z</time>
      </trkpt>
      <trkpt lat="44.26538" lon="6.34193">
        <ele>1133</ele>
        <time>2022-06-08T23:03:10Z</time>
      </trkpt>
      <trkpt lat="44.26541" lon="6.34193">
        <ele>1133</ele>
        <time>2022-06-08T23:03:11Z</time>
      </trkpt>
      <trkpt lat="44.26539" lon="6.34192">
        <ele>1133</ele>
        <time>2022-06-08T23:03:11Z</time>
      </trkpt>
      <trkpt lat="44.26539" lon="6.34196">
        <ele>1133</ele>
        <time>2022-06-08T23:03:12Z</time>
      </trkpt>
      <trkpt lat="44.26542" lon="6.34191">
        <ele>1133</ele>
        <time>2022-06-08T23:03:13Z</time>
      </trkpt>
      <trkpt lat="44.26534" lon="6.34187">
        <ele>1133</ele>
        <time>2022-06-08T23:03:15Z</time>
      </trkpt>
      <trkpt lat="44.26536" lon="6.3419">
        <ele>1133</ele>
        <time>2022-06-08T23:03:16Z</time>
      </trkpt>
      <trkpt lat="44.26538" lon="6.34187">
        <ele>1133</ele>
        <time>2022-06-08T23:03:16Z</time>
      </trkpt>
      <trkpt lat="44.26544" lon="6.34194">
        <ele>1133</ele>
        <time>2022-06-08T23:03:18Z</time>
      </trkpt>
      <trkpt lat="44.2654" lon="6.34195">
        <ele>1133</ele>
        <time>2022-06-08T23:03:19Z</time>
      </trkpt>
      <trkpt lat="44.26542" lon="6.34191">
        <ele>1133</ele>
        <time>2022-06-08T23:03:20Z</time>
      </trkpt>
      <trkpt lat="44.26537" lon="6.3419">
        <ele>1133</ele>
        <time>2022-06-08T23:03:21Z</time>
      </trkpt>
      <trkpt lat="44.26536" lon="6.34187">
        <ele>1133</ele>
        <time>2022-06-08T23:03:22Z</time>
      </trkpt>
      <trkpt lat="44.26535" lon="6.34189">
        <ele>1133</ele>
        <time>2022-06-08T23:03:22Z</time>
      </trkpt>
      <trkpt lat="44.26536" lon="6.34187">
        <ele>1133</ele>
        <time>2022-06-08T23:03:23Z</time>
      </trkpt>
      <trkpt lat="44.26538" lon="6.34189">
        <ele>1133</ele>
        <time>2022-06-08T23:03:23Z</time>
      </trkpt>
      <trkpt lat="44.26532" lon="6.34182">
        <ele>1133</ele>
        <time>2022-06-08T23:03:25Z</time>
      </trkpt>
      <trkpt lat="44.26537" lon="6.3419">
        <ele>1133</ele>
        <time>2022-06-08T23:03:27Z</time>
      </trkpt>
      <trkpt lat="44.26536" lon="6.34193">
        <ele>1133</ele>
        <time>2022-06-08T23:03:27Z</time>
      </trkpt>
      <trkpt lat="44.26538" lon="6.3419">
        <ele>1133</ele>
        <time>2022-06-08T23:03:28Z</time>
      </trkpt>
      <trkpt lat="44.26541" lon="6.34192">
        <ele>1133</ele>
        <time>2022-06-08T23:03:29Z</time>
      </trkpt>
      <trkpt lat="44.26535" lon="6.34189">
        <ele>1133</ele>
        <time>2022-06-08T23:03:30Z</time>
      </trkpt>
      <trkpt lat="44.26537" lon="6.34188">
        <ele>1133</ele>
        <time>2022-06-08T23:03:31Z</time>
      </trkpt>
      <trkpt lat="44.26539" lon="6.34195">
        <ele>1133</ele>
        <time>2022-06-08T23:03:32Z</time>
      </trkpt>
      <trkpt lat="44.26549" lon="6.34199">
        <ele>1133</ele>
        <time>2022-06-08T23:03:34Z</time>
      </trkpt>
      <trkpt lat="44.26545" lon="6.34196">
        <ele>1133</ele>
        <time>2022-06-08T23:03:35Z</time>
      </trkpt>
      <trkpt lat="44.26535" lon="6.34199">
        <ele>1132</ele>
        <time>2022-06-08T23:03:38Z</time>
      </trkpt>
    </trkseg>
  </trk>
</gpx>